<?xml version="1.0" encoding="UTF-8" standalone="no" ?>
<gpx xmlns="http://www.topografix.com/GPX/1/1" xmlns:xsi="http://www.w3.org/2001/XMLSchema-instance" xsi:schemaLocation="http://www.topografix.com/GPX/1/1 http://www.topografix.com/GPX/1/1/gpx.xsd" version="1.1" creator="VisuGPX - https://www.visugpx.com">
  <metadata>
    <name>Orris de Belcaire</name>
    <desc><![CDATA[Partie de la rando jusqu\'à la pose casse croute]]></desc>
  </metadata>
  <trk>
    <name><![CDATA[Orris de Belcaire_1]]></name>
    <trkseg>
      <trkpt lat="42.70963" lon="1.42285">
        <ele>1183</ele>
        <time>2014-05-08T09:22:34Z</time>
      </trkpt>
      <trkpt lat="42.70953" lon="1.42273">
        <ele>1183</ele>
        <time>2014-05-08T09:22:43Z</time>
      </trkpt>
      <trkpt lat="42.70956" lon="1.42265">
        <ele>1183</ele>
        <time>2014-05-08T09:22:53Z</time>
      </trkpt>
      <trkpt lat="42.70956" lon="1.42251">
        <ele>1183</ele>
        <time>2014-05-08T09:23:04Z</time>
      </trkpt>
      <trkpt lat="42.70952" lon="1.42233">
        <ele>1183</ele>
        <time>2014-05-08T09:23:14Z</time>
      </trkpt>
      <trkpt lat="42.70954" lon="1.42219">
        <ele>1183</ele>
        <time>2014-05-08T09:23:24Z</time>
      </trkpt>
      <trkpt lat="42.70953" lon="1.42204">
        <ele>1183</ele>
        <time>2014-05-08T09:23:34Z</time>
      </trkpt>
      <trkpt lat="42.70949" lon="1.4219">
        <ele>1183</ele>
        <time>2014-05-08T09:23:44Z</time>
      </trkpt>
      <trkpt lat="42.70945" lon="1.42172">
        <ele>1179</ele>
        <time>2014-05-08T09:23:54Z</time>
      </trkpt>
      <trkpt lat="42.70942" lon="1.42161">
        <ele>1179</ele>
        <time>2014-05-08T09:24:04Z</time>
      </trkpt>
      <trkpt lat="42.70939" lon="1.42156">
        <ele>1179</ele>
        <time>2014-05-08T09:24:14Z</time>
      </trkpt>
      <trkpt lat="42.70937" lon="1.42149">
        <ele>1179</ele>
        <time>2014-05-08T09:24:24Z</time>
      </trkpt>
      <trkpt lat="42.7093" lon="1.42143">
        <ele>1185</ele>
        <time>2014-05-08T09:24:34Z</time>
      </trkpt>
      <trkpt lat="42.70927" lon="1.42148">
        <ele>1189</ele>
        <time>2014-05-08T09:24:44Z</time>
      </trkpt>
      <trkpt lat="42.70922" lon="1.42145">
        <ele>1189</ele>
        <time>2014-05-08T09:24:55Z</time>
      </trkpt>
      <trkpt lat="42.70921" lon="1.42133">
        <ele>1189</ele>
        <time>2014-05-08T09:25:05Z</time>
      </trkpt>
      <trkpt lat="42.70911" lon="1.42115">
        <ele>1194</ele>
        <time>2014-05-08T09:25:25Z</time>
      </trkpt>
      <trkpt lat="42.7092" lon="1.42098">
        <ele>1194</ele>
        <time>2014-05-08T09:25:35Z</time>
      </trkpt>
      <trkpt lat="42.70924" lon="1.42093">
        <ele>1198</ele>
        <time>2014-05-08T09:25:45Z</time>
      </trkpt>
      <trkpt lat="42.70925" lon="1.42085">
        <ele>1198</ele>
        <time>2014-05-08T09:25:55Z</time>
      </trkpt>
      <trkpt lat="42.70934" lon="1.42091">
        <ele>1198</ele>
        <time>2014-05-08T09:26:05Z</time>
      </trkpt>
      <trkpt lat="42.7094" lon="1.421">
        <ele>1198</ele>
        <time>2014-05-08T09:26:15Z</time>
      </trkpt>
      <trkpt lat="42.70932" lon="1.42106">
        <ele>1198</ele>
        <time>2014-05-08T09:26:25Z</time>
      </trkpt>
      <trkpt lat="42.70938" lon="1.42116">
        <ele>1202</ele>
        <time>2014-05-08T09:26:36Z</time>
      </trkpt>
      <trkpt lat="42.70946" lon="1.42134">
        <ele>1202</ele>
        <time>2014-05-08T09:26:46Z</time>
      </trkpt>
      <trkpt lat="42.70945" lon="1.4214">
        <ele>1202</ele>
        <time>2014-05-08T09:26:56Z</time>
      </trkpt>
      <trkpt lat="42.70951" lon="1.42146">
        <ele>1206</ele>
        <time>2014-05-08T09:27:06Z</time>
      </trkpt>
      <trkpt lat="42.70959" lon="1.42152">
        <ele>1206</ele>
        <time>2014-05-08T09:27:16Z</time>
      </trkpt>
      <trkpt lat="42.70965" lon="1.42161">
        <ele>1206</ele>
        <time>2014-05-08T09:27:26Z</time>
      </trkpt>
      <trkpt lat="42.70969" lon="1.42176">
        <ele>1206</ele>
        <time>2014-05-08T09:27:36Z</time>
      </trkpt>
      <trkpt lat="42.70971" lon="1.42188">
        <ele>1206</ele>
        <time>2014-05-08T09:27:46Z</time>
      </trkpt>
      <trkpt lat="42.70974" lon="1.42202">
        <ele>1206</ele>
        <time>2014-05-08T09:27:56Z</time>
      </trkpt>
      <trkpt lat="42.70973" lon="1.42209">
        <ele>1206</ele>
        <time>2014-05-08T09:28:06Z</time>
      </trkpt>
      <trkpt lat="42.70967" lon="1.4221">
        <ele>1206</ele>
        <time>2014-05-08T09:28:17Z</time>
      </trkpt>
      <trkpt lat="42.70969" lon="1.42233">
        <ele>1212</ele>
        <time>2014-05-08T09:28:27Z</time>
      </trkpt>
      <trkpt lat="42.70975" lon="1.42252">
        <ele>1212</ele>
        <time>2014-05-08T09:28:37Z</time>
      </trkpt>
      <trkpt lat="42.7097" lon="1.42254">
        <ele>1212</ele>
        <time>2014-05-08T09:28:47Z</time>
      </trkpt>
      <trkpt lat="42.70965" lon="1.42281">
        <ele>1207</ele>
        <time>2014-05-08T09:28:57Z</time>
      </trkpt>
      <trkpt lat="42.70963" lon="1.42284">
        <ele>1207</ele>
        <time>2014-05-08T09:29:07Z</time>
      </trkpt>
      <trkpt lat="42.70972" lon="1.42288">
        <ele>1207</ele>
        <time>2014-05-08T09:29:17Z</time>
      </trkpt>
      <trkpt lat="42.7098" lon="1.42295">
        <ele>1212</ele>
        <time>2014-05-08T09:29:27Z</time>
      </trkpt>
      <trkpt lat="42.70986" lon="1.42298">
        <ele>1212</ele>
        <time>2014-05-08T09:29:37Z</time>
      </trkpt>
      <trkpt lat="42.71001" lon="1.42307">
        <ele>1216</ele>
        <time>2014-05-08T09:29:48Z</time>
      </trkpt>
      <trkpt lat="42.71012" lon="1.42314">
        <ele>1216</ele>
        <time>2014-05-08T09:29:58Z</time>
      </trkpt>
      <trkpt lat="42.71018" lon="1.42316">
        <ele>1216</ele>
        <time>2014-05-08T09:30:08Z</time>
      </trkpt>
      <trkpt lat="42.71024" lon="1.42323">
        <ele>1216</ele>
        <time>2014-05-08T09:30:18Z</time>
      </trkpt>
      <trkpt lat="42.71021" lon="1.42315">
        <ele>1216</ele>
        <time>2014-05-08T09:30:28Z</time>
      </trkpt>
      <trkpt lat="42.71015" lon="1.42302">
        <ele>1221</ele>
        <time>2014-05-08T09:30:38Z</time>
      </trkpt>
      <trkpt lat="42.71009" lon="1.42289">
        <ele>1221</ele>
        <time>2014-05-08T09:30:48Z</time>
      </trkpt>
      <trkpt lat="42.71007" lon="1.42279">
        <ele>1221</ele>
        <time>2014-05-08T09:30:58Z</time>
      </trkpt>
      <trkpt lat="42.71006" lon="1.4227">
        <ele>1226</ele>
        <time>2014-05-08T09:31:08Z</time>
      </trkpt>
      <trkpt lat="42.71007" lon="1.42261">
        <ele>1226</ele>
        <time>2014-05-08T09:31:18Z</time>
      </trkpt>
      <trkpt lat="42.71008" lon="1.42253">
        <ele>1226</ele>
        <time>2014-05-08T09:31:28Z</time>
      </trkpt>
      <trkpt lat="42.71009" lon="1.42244">
        <ele>1233</ele>
        <time>2014-05-08T09:31:39Z</time>
      </trkpt>
      <trkpt lat="42.71007" lon="1.42237">
        <ele>1233</ele>
        <time>2014-05-08T09:31:49Z</time>
      </trkpt>
      <trkpt lat="42.71005" lon="1.4223">
        <ele>1233</ele>
        <time>2014-05-08T09:31:59Z</time>
      </trkpt>
      <trkpt lat="42.71003" lon="1.42228">
        <ele>1233</ele>
        <time>2014-05-08T09:32:09Z</time>
      </trkpt>
      <trkpt lat="42.71003" lon="1.42227">
        <ele>1233</ele>
        <time>2014-05-08T09:32:19Z</time>
      </trkpt>
      <trkpt lat="42.71003" lon="1.42224">
        <ele>1233</ele>
        <time>2014-05-08T09:32:29Z</time>
      </trkpt>
      <trkpt lat="42.71002" lon="1.4222">
        <ele>1233</ele>
        <time>2014-05-08T09:32:39Z</time>
      </trkpt>
      <trkpt lat="42.71001" lon="1.4222">
        <ele>1233</ele>
        <time>2014-05-08T09:32:49Z</time>
      </trkpt>
      <trkpt lat="42.71" lon="1.42218">
        <ele>1233</ele>
        <time>2014-05-08T09:32:59Z</time>
      </trkpt>
      <trkpt lat="42.70999" lon="1.42217">
        <ele>1233</ele>
        <time>2014-05-08T09:33:09Z</time>
      </trkpt>
      <trkpt lat="42.70998" lon="1.42216">
        <ele>1233</ele>
        <time>2014-05-08T09:33:19Z</time>
      </trkpt>
      <trkpt lat="42.71003" lon="1.42212">
        <ele>1233</ele>
        <time>2014-05-08T09:33:29Z</time>
      </trkpt>
      <trkpt lat="42.71011" lon="1.42206">
        <ele>1239</ele>
        <time>2014-05-08T09:33:39Z</time>
      </trkpt>
      <trkpt lat="42.71016" lon="1.42201">
        <ele>1239</ele>
        <time>2014-05-08T09:33:49Z</time>
      </trkpt>
      <trkpt lat="42.71018" lon="1.42194">
        <ele>1243</ele>
        <time>2014-05-08T09:33:59Z</time>
      </trkpt>
      <trkpt lat="42.71019" lon="1.42188">
        <ele>1243</ele>
        <time>2014-05-08T09:34:09Z</time>
      </trkpt>
      <trkpt lat="42.71021" lon="1.42188">
        <ele>1243</ele>
        <time>2014-05-08T09:34:20Z</time>
      </trkpt>
      <trkpt lat="42.71022" lon="1.42181">
        <ele>1248</ele>
        <time>2014-05-08T09:34:30Z</time>
      </trkpt>
      <trkpt lat="42.71023" lon="1.42171">
        <ele>1248</ele>
        <time>2014-05-08T09:34:40Z</time>
      </trkpt>
      <trkpt lat="42.71022" lon="1.4216">
        <ele>1253</ele>
        <time>2014-05-08T09:34:50Z</time>
      </trkpt>
      <trkpt lat="42.71022" lon="1.42157">
        <ele>1253</ele>
        <time>2014-05-08T09:35:00Z</time>
      </trkpt>
      <trkpt lat="42.71022" lon="1.42153">
        <ele>1253</ele>
        <time>2014-05-08T09:35:10Z</time>
      </trkpt>
      <trkpt lat="42.71021" lon="1.42155">
        <ele>1253</ele>
        <time>2014-05-08T09:35:20Z</time>
      </trkpt>
      <trkpt lat="42.71017" lon="1.42162">
        <ele>1253</ele>
        <time>2014-05-08T09:35:30Z</time>
      </trkpt>
      <trkpt lat="42.71015" lon="1.42167">
        <ele>1253</ele>
        <time>2014-05-08T09:35:40Z</time>
      </trkpt>
      <trkpt lat="42.71011" lon="1.4217">
        <ele>1253</ele>
        <time>2014-05-08T09:35:50Z</time>
      </trkpt>
      <trkpt lat="42.71013" lon="1.42172">
        <ele>1253</ele>
        <time>2014-05-08T09:36:00Z</time>
      </trkpt>
      <trkpt lat="42.71014" lon="1.42168">
        <ele>1253</ele>
        <time>2014-05-08T09:36:10Z</time>
      </trkpt>
      <trkpt lat="42.71013" lon="1.42158">
        <ele>1253</ele>
        <time>2014-05-08T09:36:21Z</time>
      </trkpt>
      <trkpt lat="42.71013" lon="1.42159">
        <ele>1253</ele>
        <time>2014-05-08T09:36:31Z</time>
      </trkpt>
      <trkpt lat="42.71017" lon="1.42159">
        <ele>1253</ele>
        <time>2014-05-08T09:36:41Z</time>
      </trkpt>
      <trkpt lat="42.71023" lon="1.42153">
        <ele>1258</ele>
        <time>2014-05-08T09:36:51Z</time>
      </trkpt>
      <trkpt lat="42.71027" lon="1.42146">
        <ele>1258</ele>
        <time>2014-05-08T09:37:01Z</time>
      </trkpt>
      <trkpt lat="42.7103" lon="1.42138">
        <ele>1262</ele>
        <time>2014-05-08T09:37:11Z</time>
      </trkpt>
      <trkpt lat="42.71032" lon="1.4213">
        <ele>1262</ele>
        <time>2014-05-08T09:37:21Z</time>
      </trkpt>
      <trkpt lat="42.71033" lon="1.42123">
        <ele>1267</ele>
        <time>2014-05-08T09:37:31Z</time>
      </trkpt>
      <trkpt lat="42.71034" lon="1.42113">
        <ele>1267</ele>
        <time>2014-05-08T09:37:41Z</time>
      </trkpt>
      <trkpt lat="42.71032" lon="1.42099">
        <ele>1267</ele>
        <time>2014-05-08T09:37:51Z</time>
      </trkpt>
      <trkpt lat="42.71032" lon="1.42093">
        <ele>1271</ele>
        <time>2014-05-08T09:38:01Z</time>
      </trkpt>
      <trkpt lat="42.71032" lon="1.42086">
        <ele>1271</ele>
        <time>2014-05-08T09:38:11Z</time>
      </trkpt>
      <trkpt lat="42.71032" lon="1.42083">
        <ele>1275</ele>
        <time>2014-05-08T09:38:21Z</time>
      </trkpt>
      <trkpt lat="42.7103" lon="1.42081">
        <ele>1275</ele>
        <time>2014-05-08T09:38:31Z</time>
      </trkpt>
      <trkpt lat="42.71029" lon="1.42079">
        <ele>1275</ele>
        <time>2014-05-08T09:38:41Z</time>
      </trkpt>
      <trkpt lat="42.71032" lon="1.42074">
        <ele>1275</ele>
        <time>2014-05-08T09:38:52Z</time>
      </trkpt>
      <trkpt lat="42.71034" lon="1.42065">
        <ele>1279</ele>
        <time>2014-05-08T09:39:02Z</time>
      </trkpt>
      <trkpt lat="42.71038" lon="1.42059">
        <ele>1279</ele>
        <time>2014-05-08T09:39:12Z</time>
      </trkpt>
      <trkpt lat="42.71041" lon="1.42049">
        <ele>1279</ele>
        <time>2014-05-08T09:39:22Z</time>
      </trkpt>
      <trkpt lat="42.71043" lon="1.42039">
        <ele>1285</ele>
        <time>2014-05-08T09:39:32Z</time>
      </trkpt>
      <trkpt lat="42.71045" lon="1.42032">
        <ele>1285</ele>
        <time>2014-05-08T09:39:42Z</time>
      </trkpt>
      <trkpt lat="42.71046" lon="1.42026">
        <ele>1285</ele>
        <time>2014-05-08T09:39:52Z</time>
      </trkpt>
      <trkpt lat="42.7105" lon="1.42015">
        <ele>1289</ele>
        <time>2014-05-08T09:40:02Z</time>
      </trkpt>
      <trkpt lat="42.71051" lon="1.4201">
        <ele>1289</ele>
        <time>2014-05-08T09:40:12Z</time>
      </trkpt>
      <trkpt lat="42.71048" lon="1.42008">
        <ele>1289</ele>
        <time>2014-05-08T09:40:22Z</time>
      </trkpt>
      <trkpt lat="42.71046" lon="1.42006">
        <ele>1293</ele>
        <time>2014-05-08T09:40:32Z</time>
      </trkpt>
      <trkpt lat="42.71044" lon="1.42001">
        <ele>1293</ele>
        <time>2014-05-08T09:40:42Z</time>
      </trkpt>
      <trkpt lat="42.71045" lon="1.41998">
        <ele>1293</ele>
        <time>2014-05-08T09:40:52Z</time>
      </trkpt>
      <trkpt lat="42.71046" lon="1.41997">
        <ele>1293</ele>
        <time>2014-05-08T09:41:02Z</time>
      </trkpt>
      <trkpt lat="42.71048" lon="1.41996">
        <ele>1293</ele>
        <time>2014-05-08T09:41:12Z</time>
      </trkpt>
      <trkpt lat="42.71048" lon="1.41997">
        <ele>1293</ele>
        <time>2014-05-08T09:41:23Z</time>
      </trkpt>
      <trkpt lat="42.71048" lon="1.41999">
        <ele>1293</ele>
        <time>2014-05-08T09:41:33Z</time>
      </trkpt>
      <trkpt lat="42.71048" lon="1.42002">
        <ele>1293</ele>
        <time>2014-05-08T09:41:43Z</time>
      </trkpt>
      <trkpt lat="42.71048" lon="1.42003">
        <ele>1293</ele>
        <time>2014-05-08T09:41:53Z</time>
      </trkpt>
      <trkpt lat="42.71048" lon="1.42004">
        <ele>1293</ele>
        <time>2014-05-08T09:42:03Z</time>
      </trkpt>
      <trkpt lat="42.71049" lon="1.42004">
        <ele>1293</ele>
        <time>2014-05-08T09:42:13Z</time>
      </trkpt>
      <trkpt lat="42.71049" lon="1.42005">
        <ele>1293</ele>
        <time>2014-05-08T09:42:23Z</time>
      </trkpt>
      <trkpt lat="42.71051" lon="1.42006">
        <ele>1293</ele>
        <time>2014-05-08T09:42:33Z</time>
      </trkpt>
      <trkpt lat="42.71053" lon="1.42003">
        <ele>1294</ele>
        <time>2014-05-08T09:42:43Z</time>
      </trkpt>
      <trkpt lat="42.71054" lon="1.42001">
        <ele>1294</ele>
        <time>2014-05-08T09:42:53Z</time>
      </trkpt>
      <trkpt lat="42.71055" lon="1.41999">
        <ele>1294</ele>
        <time>2014-05-08T09:43:03Z</time>
      </trkpt>
      <trkpt lat="42.71058" lon="1.4199">
        <ele>1294</ele>
        <time>2014-05-08T09:43:13Z</time>
      </trkpt>
      <trkpt lat="42.71059" lon="1.41982">
        <ele>1294</ele>
        <time>2014-05-08T09:43:23Z</time>
      </trkpt>
      <trkpt lat="42.71061" lon="1.41978">
        <ele>1294</ele>
        <time>2014-05-08T09:43:33Z</time>
      </trkpt>
      <trkpt lat="42.71062" lon="1.41971">
        <ele>1301</ele>
        <time>2014-05-08T09:43:43Z</time>
      </trkpt>
      <trkpt lat="42.71064" lon="1.41963">
        <ele>1301</ele>
        <time>2014-05-08T09:43:53Z</time>
      </trkpt>
      <trkpt lat="42.71066" lon="1.41957">
        <ele>1301</ele>
        <time>2014-05-08T09:44:03Z</time>
      </trkpt>
      <trkpt lat="42.71067" lon="1.4195">
        <ele>1301</ele>
        <time>2014-05-08T09:44:13Z</time>
      </trkpt>
      <trkpt lat="42.71069" lon="1.41943">
        <ele>1306</ele>
        <time>2014-05-08T09:44:24Z</time>
      </trkpt>
      <trkpt lat="42.71067" lon="1.41935">
        <ele>1306</ele>
        <time>2014-05-08T09:44:34Z</time>
      </trkpt>
      <trkpt lat="42.71069" lon="1.41923">
        <ele>1311</ele>
        <time>2014-05-08T09:44:44Z</time>
      </trkpt>
      <trkpt lat="42.71071" lon="1.41916">
        <ele>1311</ele>
        <time>2014-05-08T09:44:54Z</time>
      </trkpt>
      <trkpt lat="42.71071" lon="1.41909">
        <ele>1316</ele>
        <time>2014-05-08T09:45:04Z</time>
      </trkpt>
      <trkpt lat="42.71072" lon="1.41902">
        <ele>1316</ele>
        <time>2014-05-08T09:45:14Z</time>
      </trkpt>
      <trkpt lat="42.71076" lon="1.41895">
        <ele>1316</ele>
        <time>2014-05-08T09:45:24Z</time>
      </trkpt>
      <trkpt lat="42.71076" lon="1.41893">
        <ele>1321</ele>
        <time>2014-05-08T09:45:34Z</time>
      </trkpt>
      <trkpt lat="42.71078" lon="1.41889">
        <ele>1321</ele>
        <time>2014-05-08T09:45:44Z</time>
      </trkpt>
      <trkpt lat="42.71082" lon="1.41881">
        <ele>1321</ele>
        <time>2014-05-08T09:45:54Z</time>
      </trkpt>
      <trkpt lat="42.71084" lon="1.41878">
        <ele>1325</ele>
        <time>2014-05-08T09:46:04Z</time>
      </trkpt>
      <trkpt lat="42.71084" lon="1.41882">
        <ele>1325</ele>
        <time>2014-05-08T09:46:14Z</time>
      </trkpt>
      <trkpt lat="42.71084" lon="1.41882">
        <ele>1325</ele>
        <time>2014-05-08T09:46:24Z</time>
      </trkpt>
      <trkpt lat="42.71084" lon="1.41882">
        <ele>1325</ele>
        <time>2014-05-08T09:46:34Z</time>
      </trkpt>
      <trkpt lat="42.71085" lon="1.4188">
        <ele>1325</ele>
        <time>2014-05-08T09:46:45Z</time>
      </trkpt>
      <trkpt lat="42.71087" lon="1.41874">
        <ele>1325</ele>
        <time>2014-05-08T09:46:55Z</time>
      </trkpt>
      <trkpt lat="42.71087" lon="1.41868">
        <ele>1329</ele>
        <time>2014-05-08T09:47:05Z</time>
      </trkpt>
      <trkpt lat="42.71085" lon="1.41868">
        <ele>1329</ele>
        <time>2014-05-08T09:47:15Z</time>
      </trkpt>
      <trkpt lat="42.71083" lon="1.41867">
        <ele>1329</ele>
        <time>2014-05-08T09:47:25Z</time>
      </trkpt>
      <trkpt lat="42.71081" lon="1.41866">
        <ele>1329</ele>
        <time>2014-05-08T09:47:35Z</time>
      </trkpt>
      <trkpt lat="42.71083" lon="1.41861">
        <ele>1329</ele>
        <time>2014-05-08T09:47:45Z</time>
      </trkpt>
      <trkpt lat="42.71085" lon="1.41855">
        <ele>1329</ele>
        <time>2014-05-08T09:47:55Z</time>
      </trkpt>
      <trkpt lat="42.71089" lon="1.41847">
        <ele>1333</ele>
        <time>2014-05-08T09:48:05Z</time>
      </trkpt>
      <trkpt lat="42.71091" lon="1.41844">
        <ele>1333</ele>
        <time>2014-05-08T09:48:15Z</time>
      </trkpt>
      <trkpt lat="42.71091" lon="1.41848">
        <ele>1333</ele>
        <time>2014-05-08T09:48:25Z</time>
      </trkpt>
      <trkpt lat="42.71089" lon="1.41851">
        <ele>1333</ele>
        <time>2014-05-08T09:48:35Z</time>
      </trkpt>
      <trkpt lat="42.71087" lon="1.41852">
        <ele>1333</ele>
        <time>2014-05-08T09:48:45Z</time>
      </trkpt>
      <trkpt lat="42.7109" lon="1.41848">
        <ele>1333</ele>
        <time>2014-05-08T09:48:55Z</time>
      </trkpt>
      <trkpt lat="42.71095" lon="1.41842">
        <ele>1337</ele>
        <time>2014-05-08T09:49:05Z</time>
      </trkpt>
      <trkpt lat="42.71098" lon="1.41834">
        <ele>1337</ele>
        <time>2014-05-08T09:49:16Z</time>
      </trkpt>
      <trkpt lat="42.71104" lon="1.41824">
        <ele>1342</ele>
        <time>2014-05-08T09:49:26Z</time>
      </trkpt>
      <trkpt lat="42.71107" lon="1.41812">
        <ele>1342</ele>
        <time>2014-05-08T09:49:36Z</time>
      </trkpt>
      <trkpt lat="42.71112" lon="1.41801">
        <ele>1342</ele>
        <time>2014-05-08T09:49:46Z</time>
      </trkpt>
      <trkpt lat="42.71115" lon="1.41789">
        <ele>1347</ele>
        <time>2014-05-08T09:49:56Z</time>
      </trkpt>
      <trkpt lat="42.71116" lon="1.41785">
        <ele>1347</ele>
        <time>2014-05-08T09:50:06Z</time>
      </trkpt>
      <trkpt lat="42.71114" lon="1.41781">
        <ele>1347</ele>
        <time>2014-05-08T09:50:16Z</time>
      </trkpt>
      <trkpt lat="42.71115" lon="1.41778">
        <ele>1347</ele>
        <time>2014-05-08T09:50:26Z</time>
      </trkpt>
      <trkpt lat="42.71119" lon="1.41772">
        <ele>1352</ele>
        <time>2014-05-08T09:50:36Z</time>
      </trkpt>
      <trkpt lat="42.71119" lon="1.4177">
        <ele>1352</ele>
        <time>2014-05-08T09:50:46Z</time>
      </trkpt>
      <trkpt lat="42.7112" lon="1.41766">
        <ele>1352</ele>
        <time>2014-05-08T09:50:56Z</time>
      </trkpt>
      <trkpt lat="42.71122" lon="1.4176">
        <ele>1352</ele>
        <time>2014-05-08T09:51:06Z</time>
      </trkpt>
      <trkpt lat="42.71124" lon="1.41753">
        <ele>1352</ele>
        <time>2014-05-08T09:51:16Z</time>
      </trkpt>
      <trkpt lat="42.71127" lon="1.41745">
        <ele>1357</ele>
        <time>2014-05-08T09:51:26Z</time>
      </trkpt>
      <trkpt lat="42.71129" lon="1.41738">
        <ele>1357</ele>
        <time>2014-05-08T09:51:36Z</time>
      </trkpt>
      <trkpt lat="42.7113" lon="1.41734">
        <ele>1357</ele>
        <time>2014-05-08T09:51:46Z</time>
      </trkpt>
      <trkpt lat="42.7113" lon="1.4173">
        <ele>1357</ele>
        <time>2014-05-08T09:51:56Z</time>
      </trkpt>
      <trkpt lat="42.7113" lon="1.41726">
        <ele>1357</ele>
        <time>2014-05-08T09:52:06Z</time>
      </trkpt>
      <trkpt lat="42.71132" lon="1.41725">
        <ele>1357</ele>
        <time>2014-05-08T09:52:17Z</time>
      </trkpt>
      <trkpt lat="42.71135" lon="1.41719">
        <ele>1361</ele>
        <time>2014-05-08T09:52:27Z</time>
      </trkpt>
      <trkpt lat="42.7114" lon="1.41716">
        <ele>1361</ele>
        <time>2014-05-08T09:52:37Z</time>
      </trkpt>
      <trkpt lat="42.71146" lon="1.4172">
        <ele>1361</ele>
        <time>2014-05-08T09:52:47Z</time>
      </trkpt>
      <trkpt lat="42.71148" lon="1.41726">
        <ele>1361</ele>
        <time>2014-05-08T09:52:57Z</time>
      </trkpt>
      <trkpt lat="42.71148" lon="1.41728">
        <ele>1365</ele>
        <time>2014-05-08T09:53:07Z</time>
      </trkpt>
      <trkpt lat="42.71149" lon="1.41728">
        <ele>1365</ele>
        <time>2014-05-08T09:53:17Z</time>
      </trkpt>
      <trkpt lat="42.71149" lon="1.41728">
        <ele>1365</ele>
        <time>2014-05-08T09:53:27Z</time>
      </trkpt>
      <trkpt lat="42.7115" lon="1.41733">
        <ele>1365</ele>
        <time>2014-05-08T09:53:37Z</time>
      </trkpt>
      <trkpt lat="42.71152" lon="1.41744">
        <ele>1365</ele>
        <time>2014-05-08T09:53:47Z</time>
      </trkpt>
      <trkpt lat="42.71154" lon="1.41758">
        <ele>1365</ele>
        <time>2014-05-08T09:53:57Z</time>
      </trkpt>
      <trkpt lat="42.71155" lon="1.41772">
        <ele>1365</ele>
        <time>2014-05-08T09:54:08Z</time>
      </trkpt>
      <trkpt lat="42.71153" lon="1.41788">
        <ele>1365</ele>
        <time>2014-05-08T09:54:18Z</time>
      </trkpt>
      <trkpt lat="42.71155" lon="1.418">
        <ele>1370</ele>
        <time>2014-05-08T09:54:28Z</time>
      </trkpt>
      <trkpt lat="42.71157" lon="1.41808">
        <ele>1370</ele>
        <time>2014-05-08T09:54:38Z</time>
      </trkpt>
      <trkpt lat="42.71157" lon="1.41808">
        <ele>1370</ele>
        <time>2014-05-08T09:54:48Z</time>
      </trkpt>
      <trkpt lat="42.71157" lon="1.41807">
        <ele>1370</ele>
        <time>2014-05-08T09:54:58Z</time>
      </trkpt>
      <trkpt lat="42.71157" lon="1.4181">
        <ele>1370</ele>
        <time>2014-05-08T09:55:08Z</time>
      </trkpt>
      <trkpt lat="42.71161" lon="1.41825">
        <ele>1370</ele>
        <time>2014-05-08T09:55:18Z</time>
      </trkpt>
      <trkpt lat="42.71164" lon="1.4184">
        <ele>1370</ele>
        <time>2014-05-08T09:55:28Z</time>
      </trkpt>
      <trkpt lat="42.71166" lon="1.41855">
        <ele>1374</ele>
        <time>2014-05-08T09:55:38Z</time>
      </trkpt>
      <trkpt lat="42.71167" lon="1.41867">
        <ele>1374</ele>
        <time>2014-05-08T09:55:48Z</time>
      </trkpt>
      <trkpt lat="42.7117" lon="1.41883">
        <ele>1374</ele>
        <time>2014-05-08T09:55:58Z</time>
      </trkpt>
      <trkpt lat="42.71173" lon="1.41898">
        <ele>1374</ele>
        <time>2014-05-08T09:56:09Z</time>
      </trkpt>
      <trkpt lat="42.71173" lon="1.41906">
        <ele>1374</ele>
        <time>2014-05-08T09:56:19Z</time>
      </trkpt>
      <trkpt lat="42.71174" lon="1.41904">
        <ele>1374</ele>
        <time>2014-05-08T09:56:29Z</time>
      </trkpt>
      <trkpt lat="42.71176" lon="1.41917">
        <ele>1374</ele>
        <time>2014-05-08T09:56:39Z</time>
      </trkpt>
      <trkpt lat="42.71176" lon="1.41925">
        <ele>1378</ele>
        <time>2014-05-08T09:56:49Z</time>
      </trkpt>
      <trkpt lat="42.71175" lon="1.41938">
        <ele>1378</ele>
        <time>2014-05-08T09:56:59Z</time>
      </trkpt>
      <trkpt lat="42.71173" lon="1.41953">
        <ele>1378</ele>
        <time>2014-05-08T09:57:09Z</time>
      </trkpt>
      <trkpt lat="42.71173" lon="1.41958">
        <ele>1378</ele>
        <time>2014-05-08T09:57:19Z</time>
      </trkpt>
      <trkpt lat="42.71178" lon="1.4197">
        <ele>1378</ele>
        <time>2014-05-08T09:57:29Z</time>
      </trkpt>
      <trkpt lat="42.71183" lon="1.41981">
        <ele>1378</ele>
        <time>2014-05-08T09:57:39Z</time>
      </trkpt>
      <trkpt lat="42.71184" lon="1.41981">
        <ele>1378</ele>
        <time>2014-05-08T09:57:49Z</time>
      </trkpt>
      <trkpt lat="42.71186" lon="1.41984">
        <ele>1382</ele>
        <time>2014-05-08T09:57:59Z</time>
      </trkpt>
      <trkpt lat="42.7119" lon="1.41991">
        <ele>1382</ele>
        <time>2014-05-08T09:58:10Z</time>
      </trkpt>
      <trkpt lat="42.71196" lon="1.41997">
        <ele>1382</ele>
        <time>2014-05-08T09:58:20Z</time>
      </trkpt>
      <trkpt lat="42.71204" lon="1.42001">
        <ele>1386</ele>
        <time>2014-05-08T09:58:30Z</time>
      </trkpt>
      <trkpt lat="42.71208" lon="1.42001">
        <ele>1386</ele>
        <time>2014-05-08T09:58:40Z</time>
      </trkpt>
      <trkpt lat="42.7121" lon="1.42">
        <ele>1386</ele>
        <time>2014-05-08T09:58:50Z</time>
      </trkpt>
      <trkpt lat="42.7121" lon="1.41999">
        <ele>1386</ele>
        <time>2014-05-08T09:59:00Z</time>
      </trkpt>
      <trkpt lat="42.71209" lon="1.42001">
        <ele>1386</ele>
        <time>2014-05-08T09:59:10Z</time>
      </trkpt>
      <trkpt lat="42.71208" lon="1.42005">
        <ele>1386</ele>
        <time>2014-05-08T09:59:20Z</time>
      </trkpt>
      <trkpt lat="42.71206" lon="1.42006">
        <ele>1386</ele>
        <time>2014-05-08T09:59:30Z</time>
      </trkpt>
      <trkpt lat="42.71204" lon="1.42005">
        <ele>1386</ele>
        <time>2014-05-08T09:59:40Z</time>
      </trkpt>
      <trkpt lat="42.71207" lon="1.42004">
        <ele>1386</ele>
        <time>2014-05-08T09:59:51Z</time>
      </trkpt>
      <trkpt lat="42.71206" lon="1.42004">
        <ele>1386</ele>
        <time>2014-05-08T10:00:01Z</time>
      </trkpt>
      <trkpt lat="42.71207" lon="1.42003">
        <ele>1386</ele>
        <time>2014-05-08T10:00:11Z</time>
      </trkpt>
      <trkpt lat="42.71209" lon="1.42003">
        <ele>1386</ele>
        <time>2014-05-08T10:00:21Z</time>
      </trkpt>
      <trkpt lat="42.7121" lon="1.42001">
        <ele>1386</ele>
        <time>2014-05-08T10:00:31Z</time>
      </trkpt>
      <trkpt lat="42.7121" lon="1.42001">
        <ele>1386</ele>
        <time>2014-05-08T10:00:41Z</time>
      </trkpt>
      <trkpt lat="42.71211" lon="1.42002">
        <ele>1386</ele>
        <time>2014-05-08T10:00:51Z</time>
      </trkpt>
      <trkpt lat="42.71209" lon="1.42004">
        <ele>1386</ele>
        <time>2014-05-08T10:01:01Z</time>
      </trkpt>
      <trkpt lat="42.71207" lon="1.42007">
        <ele>1387</ele>
        <time>2014-05-08T10:01:11Z</time>
      </trkpt>
      <trkpt lat="42.71203" lon="1.42008">
        <ele>1387</ele>
        <time>2014-05-08T10:01:21Z</time>
      </trkpt>
      <trkpt lat="42.71204" lon="1.42006">
        <ele>1387</ele>
        <time>2014-05-08T10:01:31Z</time>
      </trkpt>
      <trkpt lat="42.71206" lon="1.42">
        <ele>1387</ele>
        <time>2014-05-08T10:01:41Z</time>
      </trkpt>
      <trkpt lat="42.71206" lon="1.41998">
        <ele>1387</ele>
        <time>2014-05-08T10:01:51Z</time>
      </trkpt>
      <trkpt lat="42.71208" lon="1.41995">
        <ele>1387</ele>
        <time>2014-05-08T10:02:01Z</time>
      </trkpt>
      <trkpt lat="42.71209" lon="1.41994">
        <ele>1387</ele>
        <time>2014-05-08T10:02:11Z</time>
      </trkpt>
      <trkpt lat="42.7121" lon="1.41988">
        <ele>1387</ele>
        <time>2014-05-08T10:02:21Z</time>
      </trkpt>
      <trkpt lat="42.71208" lon="1.41989">
        <ele>1387</ele>
        <time>2014-05-08T10:02:31Z</time>
      </trkpt>
      <trkpt lat="42.71207" lon="1.4199">
        <ele>1387</ele>
        <time>2014-05-08T10:02:42Z</time>
      </trkpt>
      <trkpt lat="42.71206" lon="1.41993">
        <ele>1387</ele>
        <time>2014-05-08T10:02:52Z</time>
      </trkpt>
      <trkpt lat="42.71209" lon="1.41997">
        <ele>1387</ele>
        <time>2014-05-08T10:03:02Z</time>
      </trkpt>
      <trkpt lat="42.71209" lon="1.41995">
        <ele>1387</ele>
        <time>2014-05-08T10:03:12Z</time>
      </trkpt>
      <trkpt lat="42.71206" lon="1.41997">
        <ele>1387</ele>
        <time>2014-05-08T10:03:22Z</time>
      </trkpt>
      <trkpt lat="42.7121" lon="1.42001">
        <ele>1387</ele>
        <time>2014-05-08T10:03:32Z</time>
      </trkpt>
      <trkpt lat="42.71212" lon="1.42009">
        <ele>1388</ele>
        <time>2014-05-08T10:03:42Z</time>
      </trkpt>
      <trkpt lat="42.71209" lon="1.42008">
        <ele>1388</ele>
        <time>2014-05-08T10:03:52Z</time>
      </trkpt>
      <trkpt lat="42.71209" lon="1.42005">
        <ele>1388</ele>
        <time>2014-05-08T10:04:02Z</time>
      </trkpt>
      <trkpt lat="42.71211" lon="1.42003">
        <ele>1388</ele>
        <time>2014-05-08T10:04:12Z</time>
      </trkpt>
      <trkpt lat="42.7122" lon="1.42003">
        <ele>1388</ele>
        <time>2014-05-08T10:04:22Z</time>
      </trkpt>
      <trkpt lat="42.71222" lon="1.42002">
        <ele>1388</ele>
        <time>2014-05-08T10:04:32Z</time>
      </trkpt>
      <trkpt lat="42.7122" lon="1.42003">
        <ele>1388</ele>
        <time>2014-05-08T10:04:42Z</time>
      </trkpt>
      <trkpt lat="42.71218" lon="1.42004">
        <ele>1388</ele>
        <time>2014-05-08T10:04:52Z</time>
      </trkpt>
      <trkpt lat="42.71216" lon="1.42004">
        <ele>1390</ele>
        <time>2014-05-08T10:05:02Z</time>
      </trkpt>
      <trkpt lat="42.71212" lon="1.42002">
        <ele>1390</ele>
        <time>2014-05-08T10:05:12Z</time>
      </trkpt>
      <trkpt lat="42.71209" lon="1.42001">
        <ele>1390</ele>
        <time>2014-05-08T10:05:22Z</time>
      </trkpt>
      <trkpt lat="42.71205" lon="1.42004">
        <ele>1390</ele>
        <time>2014-05-08T10:05:33Z</time>
      </trkpt>
      <trkpt lat="42.71206" lon="1.42004">
        <ele>1390</ele>
        <time>2014-05-08T10:05:43Z</time>
      </trkpt>
      <trkpt lat="42.71207" lon="1.42002">
        <ele>1390</ele>
        <time>2014-05-08T10:05:53Z</time>
      </trkpt>
      <trkpt lat="42.71209" lon="1.42001">
        <ele>1390</ele>
        <time>2014-05-08T10:06:03Z</time>
      </trkpt>
      <trkpt lat="42.71211" lon="1.42001">
        <ele>1390</ele>
        <time>2014-05-08T10:06:13Z</time>
      </trkpt>
      <trkpt lat="42.71221" lon="1.41998">
        <ele>1390</ele>
        <time>2014-05-08T10:06:23Z</time>
      </trkpt>
      <trkpt lat="42.7123" lon="1.42">
        <ele>1394</ele>
        <time>2014-05-08T10:06:33Z</time>
      </trkpt>
      <trkpt lat="42.71236" lon="1.42005">
        <ele>1394</ele>
        <time>2014-05-08T10:06:43Z</time>
      </trkpt>
      <trkpt lat="42.71238" lon="1.42006">
        <ele>1394</ele>
        <time>2014-05-08T10:06:53Z</time>
      </trkpt>
      <trkpt lat="42.71236" lon="1.42007">
        <ele>1394</ele>
        <time>2014-05-08T10:07:03Z</time>
      </trkpt>
      <trkpt lat="42.71233" lon="1.42007">
        <ele>1394</ele>
        <time>2014-05-08T10:07:13Z</time>
      </trkpt>
      <trkpt lat="42.71233" lon="1.42011">
        <ele>1394</ele>
        <time>2014-05-08T10:07:23Z</time>
      </trkpt>
      <trkpt lat="42.71241" lon="1.42022">
        <ele>1394</ele>
        <time>2014-05-08T10:07:33Z</time>
      </trkpt>
      <trkpt lat="42.71247" lon="1.42031">
        <ele>1398</ele>
        <time>2014-05-08T10:07:44Z</time>
      </trkpt>
      <trkpt lat="42.71253" lon="1.4204">
        <ele>1398</ele>
        <time>2014-05-08T10:07:54Z</time>
      </trkpt>
      <trkpt lat="42.71258" lon="1.4205">
        <ele>1398</ele>
        <time>2014-05-08T10:08:04Z</time>
      </trkpt>
      <trkpt lat="42.71264" lon="1.42057">
        <ele>1402</ele>
        <time>2014-05-08T10:08:14Z</time>
      </trkpt>
      <trkpt lat="42.71269" lon="1.42064">
        <ele>1402</ele>
        <time>2014-05-08T10:08:24Z</time>
      </trkpt>
      <trkpt lat="42.71271" lon="1.42074">
        <ele>1402</ele>
        <time>2014-05-08T10:08:34Z</time>
      </trkpt>
      <trkpt lat="42.71275" lon="1.42081">
        <ele>1406</ele>
        <time>2014-05-08T10:08:44Z</time>
      </trkpt>
      <trkpt lat="42.71276" lon="1.42082">
        <ele>1406</ele>
        <time>2014-05-08T10:08:54Z</time>
      </trkpt>
      <trkpt lat="42.71275" lon="1.42083">
        <ele>1406</ele>
        <time>2014-05-08T10:09:04Z</time>
      </trkpt>
      <trkpt lat="42.71276" lon="1.42082">
        <ele>1406</ele>
        <time>2014-05-08T10:09:14Z</time>
      </trkpt>
      <trkpt lat="42.71276" lon="1.42083">
        <ele>1406</ele>
        <time>2014-05-08T10:09:24Z</time>
      </trkpt>
      <trkpt lat="42.71275" lon="1.42083">
        <ele>1406</ele>
        <time>2014-05-08T10:09:35Z</time>
      </trkpt>
      <trkpt lat="42.71275" lon="1.42081">
        <ele>1406</ele>
        <time>2014-05-08T10:09:45Z</time>
      </trkpt>
      <trkpt lat="42.71275" lon="1.42077">
        <ele>1406</ele>
        <time>2014-05-08T10:09:55Z</time>
      </trkpt>
      <trkpt lat="42.71275" lon="1.42076">
        <ele>1407</ele>
        <time>2014-05-08T10:10:05Z</time>
      </trkpt>
      <trkpt lat="42.71275" lon="1.42076">
        <ele>1407</ele>
        <time>2014-05-08T10:10:15Z</time>
      </trkpt>
      <trkpt lat="42.71276" lon="1.42076">
        <ele>1407</ele>
        <time>2014-05-08T10:10:25Z</time>
      </trkpt>
      <trkpt lat="42.71276" lon="1.42076">
        <ele>1407</ele>
        <time>2014-05-08T10:10:35Z</time>
      </trkpt>
      <trkpt lat="42.71275" lon="1.42077">
        <ele>1407</ele>
        <time>2014-05-08T10:10:45Z</time>
      </trkpt>
      <trkpt lat="42.71276" lon="1.42076">
        <ele>1407</ele>
        <time>2014-05-08T10:10:55Z</time>
      </trkpt>
      <trkpt lat="42.71277" lon="1.42071">
        <ele>1407</ele>
        <time>2014-05-08T10:11:05Z</time>
      </trkpt>
      <trkpt lat="42.71276" lon="1.42067">
        <ele>1407</ele>
        <time>2014-05-08T10:11:15Z</time>
      </trkpt>
      <trkpt lat="42.71276" lon="1.42061">
        <ele>1407</ele>
        <time>2014-05-08T10:11:25Z</time>
      </trkpt>
      <trkpt lat="42.71276" lon="1.42055">
        <ele>1407</ele>
        <time>2014-05-08T10:11:35Z</time>
      </trkpt>
      <trkpt lat="42.71277" lon="1.42056">
        <ele>1407</ele>
        <time>2014-05-08T10:11:45Z</time>
      </trkpt>
      <trkpt lat="42.71278" lon="1.42061">
        <ele>1407</ele>
        <time>2014-05-08T10:11:55Z</time>
      </trkpt>
      <trkpt lat="42.71278" lon="1.42067">
        <ele>1407</ele>
        <time>2014-05-08T10:12:06Z</time>
      </trkpt>
      <trkpt lat="42.71277" lon="1.4207">
        <ele>1407</ele>
        <time>2014-05-08T10:12:16Z</time>
      </trkpt>
      <trkpt lat="42.71277" lon="1.42075">
        <ele>1407</ele>
        <time>2014-05-08T10:12:26Z</time>
      </trkpt>
      <trkpt lat="42.71276" lon="1.42078">
        <ele>1407</ele>
        <time>2014-05-08T10:12:36Z</time>
      </trkpt>
      <trkpt lat="42.71277" lon="1.42081">
        <ele>1407</ele>
        <time>2014-05-08T10:12:46Z</time>
      </trkpt>
      <trkpt lat="42.71276" lon="1.42089">
        <ele>1407</ele>
        <time>2014-05-08T10:12:56Z</time>
      </trkpt>
      <trkpt lat="42.71276" lon="1.42102">
        <ele>1406</ele>
        <time>2014-05-08T10:13:06Z</time>
      </trkpt>
      <trkpt lat="42.71275" lon="1.42105">
        <ele>1406</ele>
        <time>2014-05-08T10:13:16Z</time>
      </trkpt>
      <trkpt lat="42.71276" lon="1.42103">
        <ele>1406</ele>
        <time>2014-05-08T10:13:26Z</time>
      </trkpt>
      <trkpt lat="42.71275" lon="1.42102">
        <ele>1406</ele>
        <time>2014-05-08T10:13:36Z</time>
      </trkpt>
      <trkpt lat="42.71273" lon="1.42101">
        <ele>1406</ele>
        <time>2014-05-08T10:13:46Z</time>
      </trkpt>
      <trkpt lat="42.71273" lon="1.42102">
        <ele>1406</ele>
        <time>2014-05-08T10:13:56Z</time>
      </trkpt>
      <trkpt lat="42.71276" lon="1.42105">
        <ele>1406</ele>
        <time>2014-05-08T10:14:06Z</time>
      </trkpt>
      <trkpt lat="42.71277" lon="1.42103">
        <ele>1406</ele>
        <time>2014-05-08T10:14:16Z</time>
      </trkpt>
      <trkpt lat="42.71275" lon="1.42103">
        <ele>1406</ele>
        <time>2014-05-08T10:14:27Z</time>
      </trkpt>
      <trkpt lat="42.71275" lon="1.42108">
        <ele>1406</ele>
        <time>2014-05-08T10:14:37Z</time>
      </trkpt>
      <trkpt lat="42.71276" lon="1.42116">
        <ele>1406</ele>
        <time>2014-05-08T10:14:47Z</time>
      </trkpt>
      <trkpt lat="42.71276" lon="1.42121">
        <ele>1406</ele>
        <time>2014-05-08T10:14:57Z</time>
      </trkpt>
      <trkpt lat="42.71274" lon="1.42131">
        <ele>1408</ele>
        <time>2014-05-08T10:15:07Z</time>
      </trkpt>
      <trkpt lat="42.71275" lon="1.42133">
        <ele>1408</ele>
        <time>2014-05-08T10:15:17Z</time>
      </trkpt>
      <trkpt lat="42.71275" lon="1.42142">
        <ele>1408</ele>
        <time>2014-05-08T10:15:27Z</time>
      </trkpt>
      <trkpt lat="42.71278" lon="1.42151">
        <ele>1408</ele>
        <time>2014-05-08T10:15:37Z</time>
      </trkpt>
      <trkpt lat="42.71284" lon="1.42162">
        <ele>1408</ele>
        <time>2014-05-08T10:15:47Z</time>
      </trkpt>
      <trkpt lat="42.71291" lon="1.42173">
        <ele>1408</ele>
        <time>2014-05-08T10:15:57Z</time>
      </trkpt>
      <trkpt lat="42.71294" lon="1.42183">
        <ele>1408</ele>
        <time>2014-05-08T10:16:07Z</time>
      </trkpt>
      <trkpt lat="42.71298" lon="1.42195">
        <ele>1408</ele>
        <time>2014-05-08T10:16:17Z</time>
      </trkpt>
      <trkpt lat="42.71304" lon="1.42207">
        <ele>1408</ele>
        <time>2014-05-08T10:16:28Z</time>
      </trkpt>
      <trkpt lat="42.7131" lon="1.42215">
        <ele>1408</ele>
        <time>2014-05-08T10:16:38Z</time>
      </trkpt>
      <trkpt lat="42.71315" lon="1.42227">
        <ele>1411</ele>
        <time>2014-05-08T10:16:48Z</time>
      </trkpt>
      <trkpt lat="42.7132" lon="1.42239">
        <ele>1411</ele>
        <time>2014-05-08T10:16:58Z</time>
      </trkpt>
      <trkpt lat="42.71323" lon="1.42246">
        <ele>1411</ele>
        <time>2014-05-08T10:17:08Z</time>
      </trkpt>
      <trkpt lat="42.71325" lon="1.42257">
        <ele>1411</ele>
        <time>2014-05-08T10:17:18Z</time>
      </trkpt>
      <trkpt lat="42.71327" lon="1.42264">
        <ele>1411</ele>
        <time>2014-05-08T10:17:28Z</time>
      </trkpt>
      <trkpt lat="42.71329" lon="1.42274">
        <ele>1411</ele>
        <time>2014-05-08T10:17:38Z</time>
      </trkpt>
      <trkpt lat="42.7133" lon="1.42279">
        <ele>1411</ele>
        <time>2014-05-08T10:17:48Z</time>
      </trkpt>
      <trkpt lat="42.71332" lon="1.4228">
        <ele>1415</ele>
        <time>2014-05-08T10:17:58Z</time>
      </trkpt>
      <trkpt lat="42.71335" lon="1.42277">
        <ele>1415</ele>
        <time>2014-05-08T10:18:08Z</time>
      </trkpt>
      <trkpt lat="42.71338" lon="1.42276">
        <ele>1415</ele>
        <time>2014-05-08T10:18:18Z</time>
      </trkpt>
      <trkpt lat="42.71338" lon="1.42276">
        <ele>1415</ele>
        <time>2014-05-08T10:18:29Z</time>
      </trkpt>
      <trkpt lat="42.71338" lon="1.42279">
        <ele>1415</ele>
        <time>2014-05-08T10:18:39Z</time>
      </trkpt>
      <trkpt lat="42.71338" lon="1.4229">
        <ele>1415</ele>
        <time>2014-05-08T10:18:49Z</time>
      </trkpt>
      <trkpt lat="42.71338" lon="1.42302">
        <ele>1415</ele>
        <time>2014-05-08T10:18:59Z</time>
      </trkpt>
      <trkpt lat="42.71339" lon="1.42314">
        <ele>1415</ele>
        <time>2014-05-08T10:19:09Z</time>
      </trkpt>
      <trkpt lat="42.71342" lon="1.42325">
        <ele>1415</ele>
        <time>2014-05-08T10:19:19Z</time>
      </trkpt>
      <trkpt lat="42.71344" lon="1.42337">
        <ele>1415</ele>
        <time>2014-05-08T10:19:29Z</time>
      </trkpt>
      <trkpt lat="42.71346" lon="1.42348">
        <ele>1417</ele>
        <time>2014-05-08T10:19:39Z</time>
      </trkpt>
      <trkpt lat="42.71347" lon="1.42353">
        <ele>1417</ele>
        <time>2014-05-08T10:19:49Z</time>
      </trkpt>
      <trkpt lat="42.7135" lon="1.42353">
        <ele>1417</ele>
        <time>2014-05-08T10:19:59Z</time>
      </trkpt>
      <trkpt lat="42.71352" lon="1.42354">
        <ele>1417</ele>
        <time>2014-05-08T10:20:09Z</time>
      </trkpt>
      <trkpt lat="42.71354" lon="1.42355">
        <ele>1417</ele>
        <time>2014-05-08T10:20:19Z</time>
      </trkpt>
      <trkpt lat="42.71353" lon="1.42356">
        <ele>1417</ele>
        <time>2014-05-08T10:20:30Z</time>
      </trkpt>
      <trkpt lat="42.71353" lon="1.42353">
        <ele>1417</ele>
        <time>2014-05-08T10:20:40Z</time>
      </trkpt>
      <trkpt lat="42.71354" lon="1.4235">
        <ele>1417</ele>
        <time>2014-05-08T10:20:50Z</time>
      </trkpt>
      <trkpt lat="42.71355" lon="1.4235">
        <ele>1417</ele>
        <time>2014-05-08T10:21:00Z</time>
      </trkpt>
      <trkpt lat="42.71358" lon="1.42353">
        <ele>1417</ele>
        <time>2014-05-08T10:21:10Z</time>
      </trkpt>
      <trkpt lat="42.7136" lon="1.42361">
        <ele>1417</ele>
        <time>2014-05-08T10:21:20Z</time>
      </trkpt>
      <trkpt lat="42.71359" lon="1.42372">
        <ele>1417</ele>
        <time>2014-05-08T10:21:30Z</time>
      </trkpt>
      <trkpt lat="42.71358" lon="1.42382">
        <ele>1417</ele>
        <time>2014-05-08T10:21:40Z</time>
      </trkpt>
      <trkpt lat="42.71357" lon="1.42393">
        <ele>1418</ele>
        <time>2014-05-08T10:21:50Z</time>
      </trkpt>
      <trkpt lat="42.71354" lon="1.42405">
        <ele>1418</ele>
        <time>2014-05-08T10:22:00Z</time>
      </trkpt>
      <trkpt lat="42.7135" lon="1.4242">
        <ele>1418</ele>
        <time>2014-05-08T10:22:10Z</time>
      </trkpt>
      <trkpt lat="42.7135" lon="1.42436">
        <ele>1418</ele>
        <time>2014-05-08T10:22:20Z</time>
      </trkpt>
      <trkpt lat="42.71354" lon="1.42453">
        <ele>1418</ele>
        <time>2014-05-08T10:22:30Z</time>
      </trkpt>
      <trkpt lat="42.71359" lon="1.42471">
        <ele>1418</ele>
        <time>2014-05-08T10:22:40Z</time>
      </trkpt>
      <trkpt lat="42.71365" lon="1.42486">
        <ele>1418</ele>
        <time>2014-05-08T10:22:50Z</time>
      </trkpt>
      <trkpt lat="42.7137" lon="1.42502">
        <ele>1418</ele>
        <time>2014-05-08T10:23:01Z</time>
      </trkpt>
      <trkpt lat="42.71378" lon="1.42517">
        <ele>1418</ele>
        <time>2014-05-08T10:23:11Z</time>
      </trkpt>
      <trkpt lat="42.71385" lon="1.42529">
        <ele>1418</ele>
        <time>2014-05-08T10:23:21Z</time>
      </trkpt>
      <trkpt lat="42.71389" lon="1.42544">
        <ele>1418</ele>
        <time>2014-05-08T10:23:31Z</time>
      </trkpt>
      <trkpt lat="42.71393" lon="1.42556">
        <ele>1418</ele>
        <time>2014-05-08T10:23:41Z</time>
      </trkpt>
      <trkpt lat="42.71397" lon="1.42567">
        <ele>1418</ele>
        <time>2014-05-08T10:23:51Z</time>
      </trkpt>
      <trkpt lat="42.71399" lon="1.42572">
        <ele>1418</ele>
        <time>2014-05-08T10:24:01Z</time>
      </trkpt>
      <trkpt lat="42.71401" lon="1.42572">
        <ele>1418</ele>
        <time>2014-05-08T10:24:11Z</time>
      </trkpt>
      <trkpt lat="42.71403" lon="1.42577">
        <ele>1418</ele>
        <time>2014-05-08T10:24:21Z</time>
      </trkpt>
      <trkpt lat="42.71408" lon="1.42591">
        <ele>1418</ele>
        <time>2014-05-08T10:24:31Z</time>
      </trkpt>
      <trkpt lat="42.71417" lon="1.42605">
        <ele>1418</ele>
        <time>2014-05-08T10:24:41Z</time>
      </trkpt>
      <trkpt lat="42.71426" lon="1.42615">
        <ele>1418</ele>
        <time>2014-05-08T10:24:51Z</time>
      </trkpt>
      <trkpt lat="42.7143" lon="1.42624">
        <ele>1418</ele>
        <time>2014-05-08T10:25:01Z</time>
      </trkpt>
      <trkpt lat="42.71435" lon="1.42624">
        <ele>1418</ele>
        <time>2014-05-08T10:25:12Z</time>
      </trkpt>
      <trkpt lat="42.71441" lon="1.42624">
        <ele>1418</ele>
        <time>2014-05-08T10:25:22Z</time>
      </trkpt>
      <trkpt lat="42.71449" lon="1.42627">
        <ele>1417</ele>
        <time>2014-05-08T10:25:32Z</time>
      </trkpt>
      <trkpt lat="42.71452" lon="1.4263">
        <ele>1417</ele>
        <time>2014-05-08T10:25:42Z</time>
      </trkpt>
      <trkpt lat="42.71456" lon="1.42635">
        <ele>1417</ele>
        <time>2014-05-08T10:25:52Z</time>
      </trkpt>
      <trkpt lat="42.71461" lon="1.42642">
        <ele>1417</ele>
        <time>2014-05-08T10:26:02Z</time>
      </trkpt>
      <trkpt lat="42.71468" lon="1.42647">
        <ele>1421</ele>
        <time>2014-05-08T10:26:12Z</time>
      </trkpt>
      <trkpt lat="42.71476" lon="1.42652">
        <ele>1417</ele>
        <time>2014-05-08T10:26:22Z</time>
      </trkpt>
      <trkpt lat="42.71485" lon="1.42658">
        <ele>1421</ele>
        <time>2014-05-08T10:26:32Z</time>
      </trkpt>
      <trkpt lat="42.71494" lon="1.42669">
        <ele>1421</ele>
        <time>2014-05-08T10:26:42Z</time>
      </trkpt>
      <trkpt lat="42.71498" lon="1.42681">
        <ele>1421</ele>
        <time>2014-05-08T10:26:52Z</time>
      </trkpt>
      <trkpt lat="42.71501" lon="1.42683">
        <ele>1421</ele>
        <time>2014-05-08T10:27:03Z</time>
      </trkpt>
      <trkpt lat="42.71505" lon="1.42686">
        <ele>1421</ele>
        <time>2014-05-08T10:27:13Z</time>
      </trkpt>
      <trkpt lat="42.7151" lon="1.42689">
        <ele>1421</ele>
        <time>2014-05-08T10:27:23Z</time>
      </trkpt>
      <trkpt lat="42.71518" lon="1.42693">
        <ele>1421</ele>
        <time>2014-05-08T10:27:33Z</time>
      </trkpt>
      <trkpt lat="42.71519" lon="1.4269">
        <ele>1421</ele>
        <time>2014-05-08T10:27:43Z</time>
      </trkpt>
      <trkpt lat="42.7152" lon="1.42684">
        <ele>1421</ele>
        <time>2014-05-08T10:27:53Z</time>
      </trkpt>
      <trkpt lat="42.71521" lon="1.4268">
        <ele>1421</ele>
        <time>2014-05-08T10:28:03Z</time>
      </trkpt>
      <trkpt lat="42.71524" lon="1.42677">
        <ele>1421</ele>
        <time>2014-05-08T10:28:13Z</time>
      </trkpt>
      <trkpt lat="42.71526" lon="1.42676">
        <ele>1419</ele>
        <time>2014-05-08T10:28:23Z</time>
      </trkpt>
      <trkpt lat="42.71529" lon="1.42673">
        <ele>1419</ele>
        <time>2014-05-08T10:28:33Z</time>
      </trkpt>
      <trkpt lat="42.71525" lon="1.4267">
        <ele>1419</ele>
        <time>2014-05-08T10:28:43Z</time>
      </trkpt>
      <trkpt lat="42.71524" lon="1.42671">
        <ele>1419</ele>
        <time>2014-05-08T10:28:53Z</time>
      </trkpt>
      <trkpt lat="42.71522" lon="1.42673">
        <ele>1419</ele>
        <time>2014-05-08T10:29:03Z</time>
      </trkpt>
      <trkpt lat="42.7152" lon="1.42675">
        <ele>1419</ele>
        <time>2014-05-08T10:29:13Z</time>
      </trkpt>
      <trkpt lat="42.71522" lon="1.42678">
        <ele>1419</ele>
        <time>2014-05-08T10:29:23Z</time>
      </trkpt>
      <trkpt lat="42.71524" lon="1.42685">
        <ele>1419</ele>
        <time>2014-05-08T10:29:34Z</time>
      </trkpt>
      <trkpt lat="42.71525" lon="1.42686">
        <ele>1419</ele>
        <time>2014-05-08T10:29:44Z</time>
      </trkpt>
      <trkpt lat="42.71526" lon="1.42689">
        <ele>1419</ele>
        <time>2014-05-08T10:29:54Z</time>
      </trkpt>
      <trkpt lat="42.71529" lon="1.42689">
        <ele>1421</ele>
        <time>2014-05-08T10:30:04Z</time>
      </trkpt>
      <trkpt lat="42.71532" lon="1.42688">
        <ele>1421</ele>
        <time>2014-05-08T10:30:14Z</time>
      </trkpt>
      <trkpt lat="42.71532" lon="1.42688">
        <ele>1421</ele>
        <time>2014-05-08T10:30:24Z</time>
      </trkpt>
      <trkpt lat="42.71532" lon="1.42688">
        <ele>1421</ele>
        <time>2014-05-08T10:30:34Z</time>
      </trkpt>
      <trkpt lat="42.7153" lon="1.42685">
        <ele>1421</ele>
        <time>2014-05-08T10:30:44Z</time>
      </trkpt>
      <trkpt lat="42.71528" lon="1.42682">
        <ele>1421</ele>
        <time>2014-05-08T10:30:54Z</time>
      </trkpt>
      <trkpt lat="42.71526" lon="1.42679">
        <ele>1421</ele>
        <time>2014-05-08T10:31:04Z</time>
      </trkpt>
      <trkpt lat="42.71525" lon="1.42679">
        <ele>1421</ele>
        <time>2014-05-08T10:31:14Z</time>
      </trkpt>
      <trkpt lat="42.71531" lon="1.42684">
        <ele>1421</ele>
        <time>2014-05-08T10:31:24Z</time>
      </trkpt>
      <trkpt lat="42.71538" lon="1.42694">
        <ele>1421</ele>
        <time>2014-05-08T10:31:34Z</time>
      </trkpt>
      <trkpt lat="42.71544" lon="1.42702">
        <ele>1421</ele>
        <time>2014-05-08T10:31:44Z</time>
      </trkpt>
      <trkpt lat="42.71552" lon="1.42708">
        <ele>1421</ele>
        <time>2014-05-08T10:31:55Z</time>
      </trkpt>
      <trkpt lat="42.71559" lon="1.42712">
        <ele>1421</ele>
        <time>2014-05-08T10:32:05Z</time>
      </trkpt>
      <trkpt lat="42.7157" lon="1.42719">
        <ele>1425</ele>
        <time>2014-05-08T10:32:15Z</time>
      </trkpt>
      <trkpt lat="42.7158" lon="1.42723">
        <ele>1425</ele>
        <time>2014-05-08T10:32:25Z</time>
      </trkpt>
      <trkpt lat="42.71584" lon="1.42727">
        <ele>1425</ele>
        <time>2014-05-08T10:32:35Z</time>
      </trkpt>
      <trkpt lat="42.71588" lon="1.42725">
        <ele>1425</ele>
        <time>2014-05-08T10:32:45Z</time>
      </trkpt>
      <trkpt lat="42.71593" lon="1.42725">
        <ele>1425</ele>
        <time>2014-05-08T10:32:55Z</time>
      </trkpt>
      <trkpt lat="42.716" lon="1.42725">
        <ele>1425</ele>
        <time>2014-05-08T10:33:05Z</time>
      </trkpt>
      <trkpt lat="42.71605" lon="1.42726">
        <ele>1425</ele>
        <time>2014-05-08T10:33:15Z</time>
      </trkpt>
      <trkpt lat="42.71607" lon="1.42724">
        <ele>1425</ele>
        <time>2014-05-08T10:33:25Z</time>
      </trkpt>
      <trkpt lat="42.7161" lon="1.42724">
        <ele>1426</ele>
        <time>2014-05-08T10:33:35Z</time>
      </trkpt>
      <trkpt lat="42.71615" lon="1.42722">
        <ele>1426</ele>
        <time>2014-05-08T10:33:45Z</time>
      </trkpt>
      <trkpt lat="42.71621" lon="1.42715">
        <ele>1426</ele>
        <time>2014-05-08T10:33:56Z</time>
      </trkpt>
      <trkpt lat="42.7163" lon="1.42713">
        <ele>1426</ele>
        <time>2014-05-08T10:34:06Z</time>
      </trkpt>
      <trkpt lat="42.71638" lon="1.42718">
        <ele>1426</ele>
        <time>2014-05-08T10:34:16Z</time>
      </trkpt>
      <trkpt lat="42.71641" lon="1.42716">
        <ele>1426</ele>
        <time>2014-05-08T10:34:26Z</time>
      </trkpt>
      <trkpt lat="42.71643" lon="1.42713">
        <ele>1426</ele>
        <time>2014-05-08T10:34:36Z</time>
      </trkpt>
      <trkpt lat="42.71644" lon="1.42713">
        <ele>1426</ele>
        <time>2014-05-08T10:34:46Z</time>
      </trkpt>
      <trkpt lat="42.71643" lon="1.42716">
        <ele>1426</ele>
        <time>2014-05-08T10:34:56Z</time>
      </trkpt>
      <trkpt lat="42.71643" lon="1.42716">
        <ele>1426</ele>
        <time>2014-05-08T10:35:06Z</time>
      </trkpt>
      <trkpt lat="42.71642" lon="1.42716">
        <ele>1426</ele>
        <time>2014-05-08T10:35:16Z</time>
      </trkpt>
      <trkpt lat="42.71641" lon="1.42715">
        <ele>1426</ele>
        <time>2014-05-08T10:35:27Z</time>
      </trkpt>
      <trkpt lat="42.71641" lon="1.42713">
        <ele>1426</ele>
        <time>2014-05-08T10:35:36Z</time>
      </trkpt>
      <trkpt lat="42.71643" lon="1.42712">
        <ele>1426</ele>
        <time>2014-05-08T10:35:47Z</time>
      </trkpt>
      <trkpt lat="42.71644" lon="1.4271">
        <ele>1426</ele>
        <time>2014-05-08T10:35:57Z</time>
      </trkpt>
      <trkpt lat="42.71647" lon="1.42707">
        <ele>1426</ele>
        <time>2014-05-08T10:36:07Z</time>
      </trkpt>
      <trkpt lat="42.71648" lon="1.42706">
        <ele>1426</ele>
        <time>2014-05-08T10:36:17Z</time>
      </trkpt>
      <trkpt lat="42.71649" lon="1.42707">
        <ele>1426</ele>
        <time>2014-05-08T10:36:27Z</time>
      </trkpt>
      <trkpt lat="42.7165" lon="1.42706">
        <ele>1426</ele>
        <time>2014-05-08T10:36:37Z</time>
      </trkpt>
      <trkpt lat="42.71651" lon="1.42705">
        <ele>1426</ele>
        <time>2014-05-08T10:36:47Z</time>
      </trkpt>
      <trkpt lat="42.71653" lon="1.42704">
        <ele>1426</ele>
        <time>2014-05-08T10:36:57Z</time>
      </trkpt>
      <trkpt lat="42.71656" lon="1.42703">
        <ele>1426</ele>
        <time>2014-05-08T10:37:07Z</time>
      </trkpt>
      <trkpt lat="42.71655" lon="1.42703">
        <ele>1426</ele>
        <time>2014-05-08T10:37:17Z</time>
      </trkpt>
      <trkpt lat="42.71654" lon="1.42703">
        <ele>1426</ele>
        <time>2014-05-08T10:37:27Z</time>
      </trkpt>
      <trkpt lat="42.71653" lon="1.42703">
        <ele>1426</ele>
        <time>2014-05-08T10:37:37Z</time>
      </trkpt>
      <trkpt lat="42.7165" lon="1.42706">
        <ele>1426</ele>
        <time>2014-05-08T10:37:47Z</time>
      </trkpt>
      <trkpt lat="42.7165" lon="1.42707">
        <ele>1426</ele>
        <time>2014-05-08T10:37:58Z</time>
      </trkpt>
      <trkpt lat="42.71649" lon="1.42707">
        <ele>1426</ele>
        <time>2014-05-08T10:38:08Z</time>
      </trkpt>
      <trkpt lat="42.7165" lon="1.42706">
        <ele>1426</ele>
        <time>2014-05-08T10:38:18Z</time>
      </trkpt>
      <trkpt lat="42.7165" lon="1.42704">
        <ele>1426</ele>
        <time>2014-05-08T10:38:28Z</time>
      </trkpt>
      <trkpt lat="42.71651" lon="1.42703">
        <ele>1423</ele>
        <time>2014-05-08T10:38:38Z</time>
      </trkpt>
      <trkpt lat="42.71651" lon="1.42702">
        <ele>1427</ele>
        <time>2014-05-08T10:38:48Z</time>
      </trkpt>
      <trkpt lat="42.71653" lon="1.42703">
        <ele>1427</ele>
        <time>2014-05-08T10:38:58Z</time>
      </trkpt>
      <trkpt lat="42.71654" lon="1.42703">
        <ele>1427</ele>
        <time>2014-05-08T10:39:08Z</time>
      </trkpt>
      <trkpt lat="42.71653" lon="1.42702">
        <ele>1427</ele>
        <time>2014-05-08T10:39:18Z</time>
      </trkpt>
      <trkpt lat="42.7165" lon="1.42701">
        <ele>1427</ele>
        <time>2014-05-08T10:39:28Z</time>
      </trkpt>
      <trkpt lat="42.71652" lon="1.42702">
        <ele>1427</ele>
        <time>2014-05-08T10:39:38Z</time>
      </trkpt>
      <trkpt lat="42.71649" lon="1.42706">
        <ele>1427</ele>
        <time>2014-05-08T10:39:49Z</time>
      </trkpt>
      <trkpt lat="42.7165" lon="1.42706">
        <ele>1427</ele>
        <time>2014-05-08T10:39:59Z</time>
      </trkpt>
      <trkpt lat="42.71652" lon="1.42703">
        <ele>1427</ele>
        <time>2014-05-08T10:40:09Z</time>
      </trkpt>
      <trkpt lat="42.71651" lon="1.42703">
        <ele>1427</ele>
        <time>2014-05-08T10:40:19Z</time>
      </trkpt>
      <trkpt lat="42.7165" lon="1.42707">
        <ele>1427</ele>
        <time>2014-05-08T10:40:29Z</time>
      </trkpt>
      <trkpt lat="42.71652" lon="1.42704">
        <ele>1427</ele>
        <time>2014-05-08T10:40:39Z</time>
      </trkpt>
      <trkpt lat="42.71653" lon="1.42701">
        <ele>1427</ele>
        <time>2014-05-08T10:40:49Z</time>
      </trkpt>
      <trkpt lat="42.71654" lon="1.42698">
        <ele>1428</ele>
        <time>2014-05-08T10:40:59Z</time>
      </trkpt>
      <trkpt lat="42.71655" lon="1.42696">
        <ele>1428</ele>
        <time>2014-05-08T10:41:09Z</time>
      </trkpt>
      <trkpt lat="42.71654" lon="1.42696">
        <ele>1428</ele>
        <time>2014-05-08T10:41:19Z</time>
      </trkpt>
      <trkpt lat="42.71654" lon="1.42697">
        <ele>1428</ele>
        <time>2014-05-08T10:41:29Z</time>
      </trkpt>
      <trkpt lat="42.71654" lon="1.42697">
        <ele>1428</ele>
        <time>2014-05-08T10:41:39Z</time>
      </trkpt>
      <trkpt lat="42.71656" lon="1.42696">
        <ele>1428</ele>
        <time>2014-05-08T10:41:50Z</time>
      </trkpt>
      <trkpt lat="42.71657" lon="1.42696">
        <ele>1428</ele>
        <time>2014-05-08T10:42:00Z</time>
      </trkpt>
      <trkpt lat="42.71659" lon="1.42693">
        <ele>1428</ele>
        <time>2014-05-08T10:42:10Z</time>
      </trkpt>
      <trkpt lat="42.7166" lon="1.42691">
        <ele>1428</ele>
        <time>2014-05-08T10:42:20Z</time>
      </trkpt>
      <trkpt lat="42.71661" lon="1.4269">
        <ele>1428</ele>
        <time>2014-05-08T10:42:30Z</time>
      </trkpt>
      <trkpt lat="42.71666" lon="1.42692">
        <ele>1428</ele>
        <time>2014-05-08T10:42:40Z</time>
      </trkpt>
      <trkpt lat="42.71668" lon="1.42691">
        <ele>1428</ele>
        <time>2014-05-08T10:42:50Z</time>
      </trkpt>
      <trkpt lat="42.71674" lon="1.42685">
        <ele>1428</ele>
        <time>2014-05-08T10:43:00Z</time>
      </trkpt>
      <trkpt lat="42.71679" lon="1.42681">
        <ele>1432</ele>
        <time>2014-05-08T10:43:10Z</time>
      </trkpt>
      <trkpt lat="42.71678" lon="1.42682">
        <ele>1432</ele>
        <time>2014-05-08T10:43:20Z</time>
      </trkpt>
      <trkpt lat="42.71678" lon="1.42682">
        <ele>1432</ele>
        <time>2014-05-08T10:43:30Z</time>
      </trkpt>
      <trkpt lat="42.7168" lon="1.42676">
        <ele>1432</ele>
        <time>2014-05-08T10:43:40Z</time>
      </trkpt>
      <trkpt lat="42.71683" lon="1.4267">
        <ele>1437</ele>
        <time>2014-05-08T10:43:50Z</time>
      </trkpt>
      <trkpt lat="42.71685" lon="1.4266">
        <ele>1437</ele>
        <time>2014-05-08T10:44:01Z</time>
      </trkpt>
      <trkpt lat="42.71687" lon="1.42652">
        <ele>1433</ele>
        <time>2014-05-08T10:44:11Z</time>
      </trkpt>
      <trkpt lat="42.7169" lon="1.42644">
        <ele>1443</ele>
        <time>2014-05-08T10:44:21Z</time>
      </trkpt>
      <trkpt lat="42.71692" lon="1.42642">
        <ele>1443</ele>
        <time>2014-05-08T10:44:31Z</time>
      </trkpt>
      <trkpt lat="42.71693" lon="1.42639">
        <ele>1443</ele>
        <time>2014-05-08T10:44:41Z</time>
      </trkpt>
      <trkpt lat="42.71692" lon="1.42636">
        <ele>1447</ele>
        <time>2014-05-08T10:44:51Z</time>
      </trkpt>
      <trkpt lat="42.71696" lon="1.42637">
        <ele>1447</ele>
        <time>2014-05-08T10:45:01Z</time>
      </trkpt>
      <trkpt lat="42.71705" lon="1.42638">
        <ele>1447</ele>
        <time>2014-05-08T10:45:11Z</time>
      </trkpt>
      <trkpt lat="42.71711" lon="1.42635">
        <ele>1447</ele>
        <time>2014-05-08T10:45:21Z</time>
      </trkpt>
      <trkpt lat="42.71716" lon="1.42631">
        <ele>1451</ele>
        <time>2014-05-08T10:45:31Z</time>
      </trkpt>
      <trkpt lat="42.71721" lon="1.42633">
        <ele>1451</ele>
        <time>2014-05-08T10:45:42Z</time>
      </trkpt>
      <trkpt lat="42.71724" lon="1.42632">
        <ele>1451</ele>
        <time>2014-05-08T10:45:52Z</time>
      </trkpt>
      <trkpt lat="42.71729" lon="1.42626">
        <ele>1451</ele>
        <time>2014-05-08T10:46:02Z</time>
      </trkpt>
      <trkpt lat="42.71731" lon="1.42623">
        <ele>1455</ele>
        <time>2014-05-08T10:46:12Z</time>
      </trkpt>
      <trkpt lat="42.71735" lon="1.42621">
        <ele>1455</ele>
        <time>2014-05-08T10:46:22Z</time>
      </trkpt>
      <trkpt lat="42.71738" lon="1.42619">
        <ele>1455</ele>
        <time>2014-05-08T10:46:32Z</time>
      </trkpt>
      <trkpt lat="42.7174" lon="1.4262">
        <ele>1455</ele>
        <time>2014-05-08T10:46:42Z</time>
      </trkpt>
      <trkpt lat="42.71741" lon="1.42614">
        <ele>1455</ele>
        <time>2014-05-08T10:46:52Z</time>
      </trkpt>
      <trkpt lat="42.71742" lon="1.42605">
        <ele>1455</ele>
        <time>2014-05-08T10:47:02Z</time>
      </trkpt>
      <trkpt lat="42.71745" lon="1.42605">
        <ele>1455</ele>
        <time>2014-05-08T10:47:12Z</time>
      </trkpt>
      <trkpt lat="42.71746" lon="1.4261">
        <ele>1455</ele>
        <time>2014-05-08T10:47:22Z</time>
      </trkpt>
      <trkpt lat="42.7175" lon="1.42612">
        <ele>1455</ele>
        <time>2014-05-08T10:47:32Z</time>
      </trkpt>
      <trkpt lat="42.71758" lon="1.42611">
        <ele>1458</ele>
        <time>2014-05-08T10:47:42Z</time>
      </trkpt>
      <trkpt lat="42.71764" lon="1.42604">
        <ele>1458</ele>
        <time>2014-05-08T10:47:52Z</time>
      </trkpt>
      <trkpt lat="42.7177" lon="1.42593">
        <ele>1463</ele>
        <time>2014-05-08T10:48:03Z</time>
      </trkpt>
      <trkpt lat="42.71774" lon="1.42584">
        <ele>1463</ele>
        <time>2014-05-08T10:48:13Z</time>
      </trkpt>
      <trkpt lat="42.71776" lon="1.42574">
        <ele>1463</ele>
        <time>2014-05-08T10:48:23Z</time>
      </trkpt>
      <trkpt lat="42.71775" lon="1.42569">
        <ele>1467</ele>
        <time>2014-05-08T10:48:33Z</time>
      </trkpt>
      <trkpt lat="42.71773" lon="1.42563">
        <ele>1467</ele>
        <time>2014-05-08T10:48:43Z</time>
      </trkpt>
      <trkpt lat="42.71772" lon="1.42557">
        <ele>1467</ele>
        <time>2014-05-08T10:48:53Z</time>
      </trkpt>
      <trkpt lat="42.71774" lon="1.42549">
        <ele>1472</ele>
        <time>2014-05-08T10:49:03Z</time>
      </trkpt>
      <trkpt lat="42.71779" lon="1.42542">
        <ele>1472</ele>
        <time>2014-05-08T10:49:13Z</time>
      </trkpt>
      <trkpt lat="42.71781" lon="1.42536">
        <ele>1472</ele>
        <time>2014-05-08T10:49:23Z</time>
      </trkpt>
      <trkpt lat="42.71784" lon="1.42531">
        <ele>1476</ele>
        <time>2014-05-08T10:49:33Z</time>
      </trkpt>
      <trkpt lat="42.71787" lon="1.42526">
        <ele>1476</ele>
        <time>2014-05-08T10:49:43Z</time>
      </trkpt>
      <trkpt lat="42.71788" lon="1.42524">
        <ele>1480</ele>
        <time>2014-05-08T10:49:53Z</time>
      </trkpt>
      <trkpt lat="42.7179" lon="1.42524">
        <ele>1480</ele>
        <time>2014-05-08T10:50:03Z</time>
      </trkpt>
      <trkpt lat="42.71793" lon="1.42524">
        <ele>1480</ele>
        <time>2014-05-08T10:50:13Z</time>
      </trkpt>
      <trkpt lat="42.71796" lon="1.42523">
        <ele>1480</ele>
        <time>2014-05-08T10:50:24Z</time>
      </trkpt>
      <trkpt lat="42.71798" lon="1.4252">
        <ele>1484</ele>
        <time>2014-05-08T10:50:34Z</time>
      </trkpt>
      <trkpt lat="42.71799" lon="1.42515">
        <ele>1484</ele>
        <time>2014-05-08T10:50:44Z</time>
      </trkpt>
      <trkpt lat="42.71798" lon="1.42513">
        <ele>1484</ele>
        <time>2014-05-08T10:50:54Z</time>
      </trkpt>
      <trkpt lat="42.71799" lon="1.4251">
        <ele>1484</ele>
        <time>2014-05-08T10:51:04Z</time>
      </trkpt>
      <trkpt lat="42.71803" lon="1.42507">
        <ele>1484</ele>
        <time>2014-05-08T10:51:14Z</time>
      </trkpt>
      <trkpt lat="42.71806" lon="1.42504">
        <ele>1484</ele>
        <time>2014-05-08T10:51:24Z</time>
      </trkpt>
      <trkpt lat="42.71809" lon="1.42501">
        <ele>1488</ele>
        <time>2014-05-08T10:51:34Z</time>
      </trkpt>
      <trkpt lat="42.71809" lon="1.42498">
        <ele>1488</ele>
        <time>2014-05-08T10:51:44Z</time>
      </trkpt>
      <trkpt lat="42.7181" lon="1.42495">
        <ele>1488</ele>
        <time>2014-05-08T10:51:54Z</time>
      </trkpt>
      <trkpt lat="42.71809" lon="1.4249">
        <ele>1493</ele>
        <time>2014-05-08T10:52:04Z</time>
      </trkpt>
      <trkpt lat="42.71806" lon="1.42489">
        <ele>1493</ele>
        <time>2014-05-08T10:52:14Z</time>
      </trkpt>
      <trkpt lat="42.71806" lon="1.42489">
        <ele>1493</ele>
        <time>2014-05-08T10:52:24Z</time>
      </trkpt>
      <trkpt lat="42.71804" lon="1.42494">
        <ele>1493</ele>
        <time>2014-05-08T10:52:35Z</time>
      </trkpt>
      <trkpt lat="42.71799" lon="1.42492">
        <ele>1493</ele>
        <time>2014-05-08T10:52:45Z</time>
      </trkpt>
      <trkpt lat="42.71796" lon="1.42488">
        <ele>1493</ele>
        <time>2014-05-08T10:52:55Z</time>
      </trkpt>
      <trkpt lat="42.71797" lon="1.42483">
        <ele>1497</ele>
        <time>2014-05-08T10:53:05Z</time>
      </trkpt>
      <trkpt lat="42.71797" lon="1.4248">
        <ele>1497</ele>
        <time>2014-05-08T10:53:15Z</time>
      </trkpt>
      <trkpt lat="42.71798" lon="1.42474">
        <ele>1497</ele>
        <time>2014-05-08T10:53:25Z</time>
      </trkpt>
      <trkpt lat="42.71798" lon="1.42472">
        <ele>1497</ele>
        <time>2014-05-08T10:53:35Z</time>
      </trkpt>
      <trkpt lat="42.71799" lon="1.4247">
        <ele>1501</ele>
        <time>2014-05-08T10:53:45Z</time>
      </trkpt>
      <trkpt lat="42.71798" lon="1.4247">
        <ele>1501</ele>
        <time>2014-05-08T10:53:55Z</time>
      </trkpt>
      <trkpt lat="42.71797" lon="1.42467">
        <ele>1501</ele>
        <time>2014-05-08T10:54:05Z</time>
      </trkpt>
      <trkpt lat="42.71793" lon="1.42463">
        <ele>1505</ele>
        <time>2014-05-08T10:54:15Z</time>
      </trkpt>
      <trkpt lat="42.71791" lon="1.42463">
        <ele>1505</ele>
        <time>2014-05-08T10:54:25Z</time>
      </trkpt>
      <trkpt lat="42.71787" lon="1.42466">
        <ele>1505</ele>
        <time>2014-05-08T10:54:36Z</time>
      </trkpt>
      <trkpt lat="42.71787" lon="1.42465">
        <ele>1505</ele>
        <time>2014-05-08T10:54:46Z</time>
      </trkpt>
      <trkpt lat="42.71787" lon="1.42462">
        <ele>1509</ele>
        <time>2014-05-08T10:54:56Z</time>
      </trkpt>
      <trkpt lat="42.71787" lon="1.4246">
        <ele>1505</ele>
        <time>2014-05-08T10:55:06Z</time>
      </trkpt>
      <trkpt lat="42.71786" lon="1.42459">
        <ele>1505</ele>
        <time>2014-05-08T10:55:16Z</time>
      </trkpt>
      <trkpt lat="42.71787" lon="1.42459">
        <ele>1505</ele>
        <time>2014-05-08T10:55:26Z</time>
      </trkpt>
      <trkpt lat="42.71787" lon="1.42457">
        <ele>1505</ele>
        <time>2014-05-08T10:55:36Z</time>
      </trkpt>
      <trkpt lat="42.71789" lon="1.42458">
        <ele>1505</ele>
        <time>2014-05-08T10:55:46Z</time>
      </trkpt>
      <trkpt lat="42.7179" lon="1.42457">
        <ele>1505</ele>
        <time>2014-05-08T10:55:56Z</time>
      </trkpt>
      <trkpt lat="42.7179" lon="1.42456">
        <ele>1509</ele>
        <time>2014-05-08T10:56:06Z</time>
      </trkpt>
      <trkpt lat="42.71792" lon="1.42452">
        <ele>1509</ele>
        <time>2014-05-08T10:56:16Z</time>
      </trkpt>
      <trkpt lat="42.71791" lon="1.42449">
        <ele>1509</ele>
        <time>2014-05-08T10:56:26Z</time>
      </trkpt>
      <trkpt lat="42.7179" lon="1.42448">
        <ele>1513</ele>
        <time>2014-05-08T10:56:36Z</time>
      </trkpt>
      <trkpt lat="42.71791" lon="1.42446">
        <ele>1513</ele>
        <time>2014-05-08T10:56:46Z</time>
      </trkpt>
      <trkpt lat="42.71792" lon="1.42442">
        <ele>1513</ele>
        <time>2014-05-08T10:56:56Z</time>
      </trkpt>
      <trkpt lat="42.71795" lon="1.42438">
        <ele>1513</ele>
        <time>2014-05-08T10:57:06Z</time>
      </trkpt>
      <trkpt lat="42.71795" lon="1.42438">
        <ele>1513</ele>
        <time>2014-05-08T10:57:16Z</time>
      </trkpt>
      <trkpt lat="42.71792" lon="1.42438">
        <ele>1513</ele>
        <time>2014-05-08T10:57:27Z</time>
      </trkpt>
      <trkpt lat="42.71792" lon="1.42438">
        <ele>1513</ele>
        <time>2014-05-08T10:57:37Z</time>
      </trkpt>
      <trkpt lat="42.71791" lon="1.42437">
        <ele>1513</ele>
        <time>2014-05-08T10:57:47Z</time>
      </trkpt>
      <trkpt lat="42.71791" lon="1.42433">
        <ele>1513</ele>
        <time>2014-05-08T10:57:57Z</time>
      </trkpt>
      <trkpt lat="42.7179" lon="1.42432">
        <ele>1513</ele>
        <time>2014-05-08T10:58:07Z</time>
      </trkpt>
      <trkpt lat="42.71788" lon="1.42433">
        <ele>1513</ele>
        <time>2014-05-08T10:58:17Z</time>
      </trkpt>
      <trkpt lat="42.71785" lon="1.42436">
        <ele>1518</ele>
        <time>2014-05-08T10:58:27Z</time>
      </trkpt>
      <trkpt lat="42.71783" lon="1.42434">
        <ele>1518</ele>
        <time>2014-05-08T10:58:37Z</time>
      </trkpt>
      <trkpt lat="42.7178" lon="1.42432">
        <ele>1523</ele>
        <time>2014-05-08T10:58:47Z</time>
      </trkpt>
      <trkpt lat="42.71778" lon="1.42431">
        <ele>1523</ele>
        <time>2014-05-08T10:58:57Z</time>
      </trkpt>
      <trkpt lat="42.71774" lon="1.4243">
        <ele>1523</ele>
        <time>2014-05-08T10:59:07Z</time>
      </trkpt>
      <trkpt lat="42.71772" lon="1.42426">
        <ele>1523</ele>
        <time>2014-05-08T10:59:17Z</time>
      </trkpt>
      <trkpt lat="42.7177" lon="1.42425">
        <ele>1527</ele>
        <time>2014-05-08T10:59:27Z</time>
      </trkpt>
      <trkpt lat="42.71769" lon="1.42427">
        <ele>1527</ele>
        <time>2014-05-08T10:59:37Z</time>
      </trkpt>
      <trkpt lat="42.71764" lon="1.42427">
        <ele>1527</ele>
        <time>2014-05-08T10:59:47Z</time>
      </trkpt>
      <trkpt lat="42.71761" lon="1.42432">
        <ele>1527</ele>
        <time>2014-05-08T10:59:57Z</time>
      </trkpt>
      <trkpt lat="42.71758" lon="1.42436">
        <ele>1527</ele>
        <time>2014-05-08T11:00:08Z</time>
      </trkpt>
      <trkpt lat="42.71759" lon="1.42434">
        <ele>1531</ele>
        <time>2014-05-08T11:00:18Z</time>
      </trkpt>
      <trkpt lat="42.7176" lon="1.42428">
        <ele>1531</ele>
        <time>2014-05-08T11:00:28Z</time>
      </trkpt>
      <trkpt lat="42.71766" lon="1.42416">
        <ele>1535</ele>
        <time>2014-05-08T11:00:38Z</time>
      </trkpt>
      <trkpt lat="42.71765" lon="1.42408">
        <ele>1535</ele>
        <time>2014-05-08T11:00:48Z</time>
      </trkpt>
      <trkpt lat="42.71761" lon="1.42402">
        <ele>1535</ele>
        <time>2014-05-08T11:00:58Z</time>
      </trkpt>
      <trkpt lat="42.71763" lon="1.42397">
        <ele>1540</ele>
        <time>2014-05-08T11:01:08Z</time>
      </trkpt>
      <trkpt lat="42.71761" lon="1.42398">
        <ele>1540</ele>
        <time>2014-05-08T11:01:18Z</time>
      </trkpt>
      <trkpt lat="42.7176" lon="1.424">
        <ele>1540</ele>
        <time>2014-05-08T11:01:28Z</time>
      </trkpt>
      <trkpt lat="42.71759" lon="1.42397">
        <ele>1540</ele>
        <time>2014-05-08T11:01:38Z</time>
      </trkpt>
      <trkpt lat="42.71762" lon="1.42394">
        <ele>1540</ele>
        <time>2014-05-08T11:01:48Z</time>
      </trkpt>
      <trkpt lat="42.71767" lon="1.42391">
        <ele>1540</ele>
        <time>2014-05-08T11:01:58Z</time>
      </trkpt>
      <trkpt lat="42.71777" lon="1.42389">
        <ele>1540</ele>
        <time>2014-05-08T11:02:08Z</time>
      </trkpt>
      <trkpt lat="42.71778" lon="1.42392">
        <ele>1540</ele>
        <time>2014-05-08T11:02:18Z</time>
      </trkpt>
      <trkpt lat="42.71775" lon="1.42395">
        <ele>1540</ele>
        <time>2014-05-08T11:02:28Z</time>
      </trkpt>
      <trkpt lat="42.71772" lon="1.42395">
        <ele>1540</ele>
        <time>2014-05-08T11:02:39Z</time>
      </trkpt>
      <trkpt lat="42.71772" lon="1.42394">
        <ele>1539</ele>
        <time>2014-05-08T11:02:49Z</time>
      </trkpt>
      <trkpt lat="42.71772" lon="1.42392">
        <ele>1539</ele>
        <time>2014-05-08T11:02:59Z</time>
      </trkpt>
      <trkpt lat="42.71772" lon="1.4239">
        <ele>1539</ele>
        <time>2014-05-08T11:03:09Z</time>
      </trkpt>
      <trkpt lat="42.71773" lon="1.42386">
        <ele>1539</ele>
        <time>2014-05-08T11:03:19Z</time>
      </trkpt>
      <trkpt lat="42.71772" lon="1.42387">
        <ele>1539</ele>
        <time>2014-05-08T11:03:29Z</time>
      </trkpt>
      <trkpt lat="42.71772" lon="1.42388">
        <ele>1539</ele>
        <time>2014-05-08T11:03:39Z</time>
      </trkpt>
      <trkpt lat="42.71771" lon="1.42388">
        <ele>1539</ele>
        <time>2014-05-08T11:03:49Z</time>
      </trkpt>
      <trkpt lat="42.7177" lon="1.42386">
        <ele>1539</ele>
        <time>2014-05-08T11:03:59Z</time>
      </trkpt>
      <trkpt lat="42.71769" lon="1.42386">
        <ele>1539</ele>
        <time>2014-05-08T11:04:09Z</time>
      </trkpt>
      <trkpt lat="42.71768" lon="1.42386">
        <ele>1539</ele>
        <time>2014-05-08T11:04:19Z</time>
      </trkpt>
      <trkpt lat="42.71764" lon="1.42391">
        <ele>1539</ele>
        <time>2014-05-08T11:04:29Z</time>
      </trkpt>
      <trkpt lat="42.71761" lon="1.42395">
        <ele>1539</ele>
        <time>2014-05-08T11:04:39Z</time>
      </trkpt>
      <trkpt lat="42.71759" lon="1.42394">
        <ele>1539</ele>
        <time>2014-05-08T11:04:49Z</time>
      </trkpt>
      <trkpt lat="42.71759" lon="1.42391">
        <ele>1539</ele>
        <time>2014-05-08T11:04:59Z</time>
      </trkpt>
      <trkpt lat="42.71758" lon="1.4239">
        <ele>1539</ele>
        <time>2014-05-08T11:05:09Z</time>
      </trkpt>
      <trkpt lat="42.71756" lon="1.4239">
        <ele>1539</ele>
        <time>2014-05-08T11:05:19Z</time>
      </trkpt>
      <trkpt lat="42.71754" lon="1.42395">
        <ele>1539</ele>
        <time>2014-05-08T11:05:30Z</time>
      </trkpt>
      <trkpt lat="42.71756" lon="1.42393">
        <ele>1540</ele>
        <time>2014-05-08T11:05:40Z</time>
      </trkpt>
      <trkpt lat="42.7176" lon="1.42389">
        <ele>1540</ele>
        <time>2014-05-08T11:05:50Z</time>
      </trkpt>
      <trkpt lat="42.71763" lon="1.42388">
        <ele>1540</ele>
        <time>2014-05-08T11:06:00Z</time>
      </trkpt>
      <trkpt lat="42.71765" lon="1.42388">
        <ele>1540</ele>
        <time>2014-05-08T11:06:10Z</time>
      </trkpt>
      <trkpt lat="42.71765" lon="1.42389">
        <ele>1540</ele>
        <time>2014-05-08T11:06:20Z</time>
      </trkpt>
      <trkpt lat="42.71767" lon="1.4239">
        <ele>1540</ele>
        <time>2014-05-08T11:06:30Z</time>
      </trkpt>
      <trkpt lat="42.71768" lon="1.42391">
        <ele>1540</ele>
        <time>2014-05-08T11:06:40Z</time>
      </trkpt>
      <trkpt lat="42.71764" lon="1.42394">
        <ele>1540</ele>
        <time>2014-05-08T11:06:50Z</time>
      </trkpt>
      <trkpt lat="42.71759" lon="1.42401">
        <ele>1540</ele>
        <time>2014-05-08T11:07:00Z</time>
      </trkpt>
      <trkpt lat="42.71759" lon="1.42401">
        <ele>1540</ele>
        <time>2014-05-08T11:07:10Z</time>
      </trkpt>
      <trkpt lat="42.71759" lon="1.424">
        <ele>1540</ele>
        <time>2014-05-08T11:07:20Z</time>
      </trkpt>
      <trkpt lat="42.7176" lon="1.424">
        <ele>1540</ele>
        <time>2014-05-08T11:07:30Z</time>
      </trkpt>
      <trkpt lat="42.71761" lon="1.42399">
        <ele>1538</ele>
        <time>2014-05-08T11:07:40Z</time>
      </trkpt>
      <trkpt lat="42.71766" lon="1.42389">
        <ele>1538</ele>
        <time>2014-05-08T11:07:50Z</time>
      </trkpt>
      <trkpt lat="42.71768" lon="1.42385">
        <ele>1538</ele>
        <time>2014-05-08T11:08:00Z</time>
      </trkpt>
      <trkpt lat="42.71769" lon="1.42384">
        <ele>1538</ele>
        <time>2014-05-08T11:08:10Z</time>
      </trkpt>
      <trkpt lat="42.71766" lon="1.42387">
        <ele>1538</ele>
        <time>2014-05-08T11:08:20Z</time>
      </trkpt>
      <trkpt lat="42.71763" lon="1.42394">
        <ele>1538</ele>
        <time>2014-05-08T11:08:31Z</time>
      </trkpt>
      <trkpt lat="42.71761" lon="1.42398">
        <ele>1538</ele>
        <time>2014-05-08T11:08:41Z</time>
      </trkpt>
      <trkpt lat="42.7176" lon="1.42394">
        <ele>1538</ele>
        <time>2014-05-08T11:08:51Z</time>
      </trkpt>
      <trkpt lat="42.7176" lon="1.42393">
        <ele>1538</ele>
        <time>2014-05-08T11:09:01Z</time>
      </trkpt>
      <trkpt lat="42.7176" lon="1.42395">
        <ele>1538</ele>
        <time>2014-05-08T11:09:11Z</time>
      </trkpt>
      <trkpt lat="42.71759" lon="1.42397">
        <ele>1538</ele>
        <time>2014-05-08T11:09:21Z</time>
      </trkpt>
      <trkpt lat="42.7176" lon="1.42399">
        <ele>1538</ele>
        <time>2014-05-08T11:09:31Z</time>
      </trkpt>
      <trkpt lat="42.71762" lon="1.424">
        <ele>1538</ele>
        <time>2014-05-08T11:09:41Z</time>
      </trkpt>
      <trkpt lat="42.71761" lon="1.42396">
        <ele>1538</ele>
        <time>2014-05-08T11:09:51Z</time>
      </trkpt>
      <trkpt lat="42.71764" lon="1.42393">
        <ele>1538</ele>
        <time>2014-05-08T11:10:01Z</time>
      </trkpt>
      <trkpt lat="42.7177" lon="1.42394">
        <ele>1540</ele>
        <time>2014-05-08T11:10:11Z</time>
      </trkpt>
      <trkpt lat="42.71773" lon="1.42397">
        <ele>1540</ele>
        <time>2014-05-08T11:10:21Z</time>
      </trkpt>
      <trkpt lat="42.71778" lon="1.42395">
        <ele>1540</ele>
        <time>2014-05-08T11:10:31Z</time>
      </trkpt>
      <trkpt lat="42.7178" lon="1.42392">
        <ele>1540</ele>
        <time>2014-05-08T11:10:41Z</time>
      </trkpt>
      <trkpt lat="42.71779" lon="1.4239">
        <ele>1540</ele>
        <time>2014-05-08T11:10:51Z</time>
      </trkpt>
      <trkpt lat="42.71777" lon="1.42389">
        <ele>1540</ele>
        <time>2014-05-08T11:11:01Z</time>
      </trkpt>
      <trkpt lat="42.71775" lon="1.42392">
        <ele>1540</ele>
        <time>2014-05-08T11:11:11Z</time>
      </trkpt>
      <trkpt lat="42.71775" lon="1.42391">
        <ele>1540</ele>
        <time>2014-05-08T11:11:22Z</time>
      </trkpt>
      <trkpt lat="42.71775" lon="1.42392">
        <ele>1540</ele>
        <time>2014-05-08T11:11:32Z</time>
      </trkpt>
      <trkpt lat="42.71777" lon="1.42392">
        <ele>1540</ele>
        <time>2014-05-08T11:11:42Z</time>
      </trkpt>
      <trkpt lat="42.71775" lon="1.42393">
        <ele>1540</ele>
        <time>2014-05-08T11:11:52Z</time>
      </trkpt>
      <trkpt lat="42.71775" lon="1.42393">
        <ele>1540</ele>
        <time>2014-05-08T11:12:02Z</time>
      </trkpt>
      <trkpt lat="42.71776" lon="1.42392">
        <ele>1540</ele>
        <time>2014-05-08T11:12:12Z</time>
      </trkpt>
      <trkpt lat="42.71777" lon="1.42391">
        <ele>1540</ele>
        <time>2014-05-08T11:12:22Z</time>
      </trkpt>
      <trkpt lat="42.71778" lon="1.42391">
        <ele>1540</ele>
        <time>2014-05-08T11:12:32Z</time>
      </trkpt>
      <trkpt lat="42.71778" lon="1.42391">
        <ele>1540</ele>
        <time>2014-05-08T11:12:42Z</time>
      </trkpt>
      <trkpt lat="42.71777" lon="1.42389">
        <ele>1540</ele>
        <time>2014-05-08T11:12:52Z</time>
      </trkpt>
      <trkpt lat="42.71778" lon="1.42389">
        <ele>1540</ele>
        <time>2014-05-08T11:13:02Z</time>
      </trkpt>
      <trkpt lat="42.71779" lon="1.4239">
        <ele>1540</ele>
        <time>2014-05-08T11:13:12Z</time>
      </trkpt>
      <trkpt lat="42.71779" lon="1.42391">
        <ele>1540</ele>
        <time>2014-05-08T11:13:22Z</time>
      </trkpt>
      <trkpt lat="42.71778" lon="1.42392">
        <ele>1540</ele>
        <time>2014-05-08T11:13:32Z</time>
      </trkpt>
      <trkpt lat="42.71777" lon="1.42393">
        <ele>1540</ele>
        <time>2014-05-08T11:13:42Z</time>
      </trkpt>
      <trkpt lat="42.71777" lon="1.42394">
        <ele>1540</ele>
        <time>2014-05-08T11:13:53Z</time>
      </trkpt>
      <trkpt lat="42.71777" lon="1.42395">
        <ele>1540</ele>
        <time>2014-05-08T11:14:03Z</time>
      </trkpt>
      <trkpt lat="42.71778" lon="1.42393">
        <ele>1541</ele>
        <time>2014-05-08T11:14:13Z</time>
      </trkpt>
      <trkpt lat="42.71776" lon="1.42393">
        <ele>1541</ele>
        <time>2014-05-08T11:14:23Z</time>
      </trkpt>
      <trkpt lat="42.71776" lon="1.42391">
        <ele>1541</ele>
        <time>2014-05-08T11:14:33Z</time>
      </trkpt>
      <trkpt lat="42.71778" lon="1.42389">
        <ele>1541</ele>
        <time>2014-05-08T11:14:43Z</time>
      </trkpt>
      <trkpt lat="42.7178" lon="1.4239">
        <ele>1541</ele>
        <time>2014-05-08T11:14:53Z</time>
      </trkpt>
      <trkpt lat="42.71781" lon="1.42389">
        <ele>1541</ele>
        <time>2014-05-08T11:15:03Z</time>
      </trkpt>
      <trkpt lat="42.71782" lon="1.42387">
        <ele>1541</ele>
        <time>2014-05-08T11:15:13Z</time>
      </trkpt>
      <trkpt lat="42.71781" lon="1.42386">
        <ele>1541</ele>
        <time>2014-05-08T11:15:23Z</time>
      </trkpt>
      <trkpt lat="42.71778" lon="1.42391">
        <ele>1541</ele>
        <time>2014-05-08T11:15:33Z</time>
      </trkpt>
      <trkpt lat="42.71777" lon="1.42393">
        <ele>1541</ele>
        <time>2014-05-08T11:15:43Z</time>
      </trkpt>
      <trkpt lat="42.71777" lon="1.42392">
        <ele>1539</ele>
        <time>2014-05-08T11:15:53Z</time>
      </trkpt>
      <trkpt lat="42.71777" lon="1.42389">
        <ele>1539</ele>
        <time>2014-05-08T11:16:03Z</time>
      </trkpt>
      <trkpt lat="42.71775" lon="1.42388">
        <ele>1539</ele>
        <time>2014-05-08T11:16:13Z</time>
      </trkpt>
      <trkpt lat="42.71775" lon="1.42389">
        <ele>1539</ele>
        <time>2014-05-08T11:16:23Z</time>
      </trkpt>
      <trkpt lat="42.71775" lon="1.4239">
        <ele>1539</ele>
        <time>2014-05-08T11:16:33Z</time>
      </trkpt>
      <trkpt lat="42.71776" lon="1.4239">
        <ele>1539</ele>
        <time>2014-05-08T11:16:43Z</time>
      </trkpt>
      <trkpt lat="42.71776" lon="1.42391">
        <ele>1539</ele>
        <time>2014-05-08T11:16:54Z</time>
      </trkpt>
      <trkpt lat="42.71777" lon="1.42391">
        <ele>1539</ele>
        <time>2014-05-08T11:17:04Z</time>
      </trkpt>
      <trkpt lat="42.71777" lon="1.42394">
        <ele>1539</ele>
        <time>2014-05-08T11:17:14Z</time>
      </trkpt>
      <trkpt lat="42.71778" lon="1.42397">
        <ele>1539</ele>
        <time>2014-05-08T11:17:24Z</time>
      </trkpt>
      <trkpt lat="42.71787" lon="1.42398">
        <ele>1539</ele>
        <time>2014-05-08T11:17:34Z</time>
      </trkpt>
      <trkpt lat="42.71795" lon="1.42395">
        <ele>1539</ele>
        <time>2014-05-08T11:17:44Z</time>
      </trkpt>
      <trkpt lat="42.71803" lon="1.424">
        <ele>1537</ele>
        <time>2014-05-08T11:17:54Z</time>
      </trkpt>
      <trkpt lat="42.71813" lon="1.42403">
        <ele>1537</ele>
        <time>2014-05-08T11:18:04Z</time>
      </trkpt>
      <trkpt lat="42.7182" lon="1.42408">
        <ele>1537</ele>
        <time>2014-05-08T11:18:14Z</time>
      </trkpt>
      <trkpt lat="42.7183" lon="1.42414">
        <ele>1533</ele>
        <time>2014-05-08T11:18:24Z</time>
      </trkpt>
      <trkpt lat="42.71841" lon="1.42415">
        <ele>1533</ele>
        <time>2014-05-08T11:18:34Z</time>
      </trkpt>
      <trkpt lat="42.71846" lon="1.42412">
        <ele>1533</ele>
        <time>2014-05-08T11:18:45Z</time>
      </trkpt>
      <trkpt lat="42.71847" lon="1.42412">
        <ele>1533</ele>
        <time>2014-05-08T11:18:55Z</time>
      </trkpt>
      <trkpt lat="42.71846" lon="1.42413">
        <ele>1533</ele>
        <time>2014-05-08T11:19:05Z</time>
      </trkpt>
      <trkpt lat="42.71844" lon="1.42413">
        <ele>1533</ele>
        <time>2014-05-08T11:19:15Z</time>
      </trkpt>
      <trkpt lat="42.71841" lon="1.42413">
        <ele>1533</ele>
        <time>2014-05-08T11:19:25Z</time>
      </trkpt>
      <trkpt lat="42.7184" lon="1.42414">
        <ele>1533</ele>
        <time>2014-05-08T11:19:35Z</time>
      </trkpt>
      <trkpt lat="42.71848" lon="1.42418">
        <ele>1533</ele>
        <time>2014-05-08T11:19:45Z</time>
      </trkpt>
      <trkpt lat="42.71859" lon="1.42419">
        <ele>1533</ele>
        <time>2014-05-08T11:19:55Z</time>
      </trkpt>
      <trkpt lat="42.71864" lon="1.42421">
        <ele>1533</ele>
        <time>2014-05-08T11:20:05Z</time>
      </trkpt>
      <trkpt lat="42.71869" lon="1.42426">
        <ele>1529</ele>
        <time>2014-05-08T11:20:15Z</time>
      </trkpt>
      <trkpt lat="42.71879" lon="1.42428">
        <ele>1529</ele>
        <time>2014-05-08T11:20:25Z</time>
      </trkpt>
      <trkpt lat="42.71888" lon="1.42429">
        <ele>1529</ele>
        <time>2014-05-08T11:20:36Z</time>
      </trkpt>
      <trkpt lat="42.71896" lon="1.42432">
        <ele>1529</ele>
        <time>2014-05-08T11:20:46Z</time>
      </trkpt>
      <trkpt lat="42.71901" lon="1.42433">
        <ele>1529</ele>
        <time>2014-05-08T11:20:56Z</time>
      </trkpt>
      <trkpt lat="42.71907" lon="1.42436">
        <ele>1529</ele>
        <time>2014-05-08T11:21:06Z</time>
      </trkpt>
      <trkpt lat="42.71917" lon="1.42442">
        <ele>1529</ele>
        <time>2014-05-08T11:21:16Z</time>
      </trkpt>
      <trkpt lat="42.7192" lon="1.42454">
        <ele>1524</ele>
        <time>2014-05-08T11:21:26Z</time>
      </trkpt>
      <trkpt lat="42.71924" lon="1.42472">
        <ele>1524</ele>
        <time>2014-05-08T11:21:36Z</time>
      </trkpt>
      <trkpt lat="42.7193" lon="1.42483">
        <ele>1524</ele>
        <time>2014-05-08T11:21:46Z</time>
      </trkpt>
      <trkpt lat="42.71933" lon="1.42487">
        <ele>1524</ele>
        <time>2014-05-08T11:21:56Z</time>
      </trkpt>
      <trkpt lat="42.71939" lon="1.42499">
        <ele>1524</ele>
        <time>2014-05-08T11:22:06Z</time>
      </trkpt>
      <trkpt lat="42.71941" lon="1.425">
        <ele>1524</ele>
        <time>2014-05-08T11:22:17Z</time>
      </trkpt>
      <trkpt lat="42.71943" lon="1.42495">
        <ele>1524</ele>
        <time>2014-05-08T11:22:27Z</time>
      </trkpt>
      <trkpt lat="42.71942" lon="1.42496">
        <ele>1524</ele>
        <time>2014-05-08T11:22:37Z</time>
      </trkpt>
      <trkpt lat="42.7194" lon="1.42497">
        <ele>1520</ele>
        <time>2014-05-08T11:22:47Z</time>
      </trkpt>
      <trkpt lat="42.71939" lon="1.42496">
        <ele>1520</ele>
        <time>2014-05-08T11:22:57Z</time>
      </trkpt>
      <trkpt lat="42.7194" lon="1.42493">
        <ele>1520</ele>
        <time>2014-05-08T11:23:07Z</time>
      </trkpt>
      <trkpt lat="42.7194" lon="1.42492">
        <ele>1520</ele>
        <time>2014-05-08T11:23:17Z</time>
      </trkpt>
      <trkpt lat="42.7194" lon="1.42491">
        <ele>1520</ele>
        <time>2014-05-08T11:23:27Z</time>
      </trkpt>
      <trkpt lat="42.71939" lon="1.4249">
        <ele>1520</ele>
        <time>2014-05-08T11:23:37Z</time>
      </trkpt>
      <trkpt lat="42.71937" lon="1.42491">
        <ele>1520</ele>
        <time>2014-05-08T11:23:47Z</time>
      </trkpt>
      <trkpt lat="42.71935" lon="1.42492">
        <ele>1520</ele>
        <time>2014-05-08T11:23:57Z</time>
      </trkpt>
      <trkpt lat="42.71933" lon="1.42491">
        <ele>1520</ele>
        <time>2014-05-08T11:24:07Z</time>
      </trkpt>
      <trkpt lat="42.71935" lon="1.42491">
        <ele>1520</ele>
        <time>2014-05-08T11:24:17Z</time>
      </trkpt>
      <trkpt lat="42.71936" lon="1.4249">
        <ele>1520</ele>
        <time>2014-05-08T11:24:27Z</time>
      </trkpt>
      <trkpt lat="42.71936" lon="1.42491">
        <ele>1520</ele>
        <time>2014-05-08T11:24:37Z</time>
      </trkpt>
      <trkpt lat="42.71934" lon="1.42491">
        <ele>1520</ele>
        <time>2014-05-08T11:24:48Z</time>
      </trkpt>
      <trkpt lat="42.71935" lon="1.42488">
        <ele>1520</ele>
        <time>2014-05-08T11:24:58Z</time>
      </trkpt>
      <trkpt lat="42.71936" lon="1.42487">
        <ele>1521</ele>
        <time>2014-05-08T11:25:08Z</time>
      </trkpt>
      <trkpt lat="42.71936" lon="1.42487">
        <ele>1521</ele>
        <time>2014-05-08T11:25:18Z</time>
      </trkpt>
      <trkpt lat="42.71935" lon="1.42486">
        <ele>1521</ele>
        <time>2014-05-08T11:25:28Z</time>
      </trkpt>
      <trkpt lat="42.71935" lon="1.42485">
        <ele>1521</ele>
        <time>2014-05-08T11:25:38Z</time>
      </trkpt>
      <trkpt lat="42.71936" lon="1.42485">
        <ele>1521</ele>
        <time>2014-05-08T11:25:48Z</time>
      </trkpt>
      <trkpt lat="42.71939" lon="1.42485">
        <ele>1521</ele>
        <time>2014-05-08T11:25:58Z</time>
      </trkpt>
      <trkpt lat="42.71941" lon="1.42484">
        <ele>1521</ele>
        <time>2014-05-08T11:26:08Z</time>
      </trkpt>
      <trkpt lat="42.71943" lon="1.42482">
        <ele>1521</ele>
        <time>2014-05-08T11:26:18Z</time>
      </trkpt>
      <trkpt lat="42.71944" lon="1.42482">
        <ele>1521</ele>
        <time>2014-05-08T11:26:28Z</time>
      </trkpt>
      <trkpt lat="42.71944" lon="1.42483">
        <ele>1521</ele>
        <time>2014-05-08T11:26:38Z</time>
      </trkpt>
      <trkpt lat="42.71944" lon="1.42483">
        <ele>1521</ele>
        <time>2014-05-08T11:26:48Z</time>
      </trkpt>
      <trkpt lat="42.71944" lon="1.42484">
        <ele>1521</ele>
        <time>2014-05-08T11:26:58Z</time>
      </trkpt>
      <trkpt lat="42.71943" lon="1.42484">
        <ele>1521</ele>
        <time>2014-05-08T11:27:08Z</time>
      </trkpt>
      <trkpt lat="42.71942" lon="1.42486">
        <ele>1521</ele>
        <time>2014-05-08T11:27:18Z</time>
      </trkpt>
      <trkpt lat="42.71941" lon="1.42486">
        <ele>1521</ele>
        <time>2014-05-08T11:27:28Z</time>
      </trkpt>
      <trkpt lat="42.71942" lon="1.42487">
        <ele>1521</ele>
        <time>2014-05-08T11:27:38Z</time>
      </trkpt>
      <trkpt lat="42.71942" lon="1.42487">
        <ele>1521</ele>
        <time>2014-05-08T11:27:49Z</time>
      </trkpt>
      <trkpt lat="42.71942" lon="1.42488">
        <ele>1521</ele>
        <time>2014-05-08T11:27:59Z</time>
      </trkpt>
      <trkpt lat="42.71941" lon="1.42488">
        <ele>1522</ele>
        <time>2014-05-08T11:28:09Z</time>
      </trkpt>
      <trkpt lat="42.7194" lon="1.42489">
        <ele>1522</ele>
        <time>2014-05-08T11:28:19Z</time>
      </trkpt>
      <trkpt lat="42.71941" lon="1.42489">
        <ele>1522</ele>
        <time>2014-05-08T11:28:29Z</time>
      </trkpt>
      <trkpt lat="42.71941" lon="1.42489">
        <ele>1522</ele>
        <time>2014-05-08T11:28:39Z</time>
      </trkpt>
      <trkpt lat="42.71942" lon="1.42489">
        <ele>1522</ele>
        <time>2014-05-08T11:28:49Z</time>
      </trkpt>
      <trkpt lat="42.71942" lon="1.42489">
        <ele>1522</ele>
        <time>2014-05-08T11:28:59Z</time>
      </trkpt>
      <trkpt lat="42.71941" lon="1.4249">
        <ele>1522</ele>
        <time>2014-05-08T11:29:09Z</time>
      </trkpt>
      <trkpt lat="42.71941" lon="1.4249">
        <ele>1522</ele>
        <time>2014-05-08T11:29:19Z</time>
      </trkpt>
      <trkpt lat="42.71942" lon="1.4249">
        <ele>1522</ele>
        <time>2014-05-08T11:29:29Z</time>
      </trkpt>
      <trkpt lat="42.71943" lon="1.42491">
        <ele>1522</ele>
        <time>2014-05-08T11:29:39Z</time>
      </trkpt>
      <trkpt lat="42.71943" lon="1.42491">
        <ele>1522</ele>
        <time>2014-05-08T11:29:49Z</time>
      </trkpt>
      <trkpt lat="42.71943" lon="1.42492">
        <ele>1522</ele>
        <time>2014-05-08T11:29:59Z</time>
      </trkpt>
      <trkpt lat="42.71944" lon="1.42493">
        <ele>1522</ele>
        <time>2014-05-08T11:30:09Z</time>
      </trkpt>
      <trkpt lat="42.71943" lon="1.42493">
        <ele>1522</ele>
        <time>2014-05-08T11:30:19Z</time>
      </trkpt>
      <trkpt lat="42.71943" lon="1.42492">
        <ele>1522</ele>
        <time>2014-05-08T11:30:29Z</time>
      </trkpt>
      <trkpt lat="42.71941" lon="1.42491">
        <ele>1522</ele>
        <time>2014-05-08T11:30:39Z</time>
      </trkpt>
      <trkpt lat="42.7194" lon="1.42491">
        <ele>1522</ele>
        <time>2014-05-08T11:30:50Z</time>
      </trkpt>
      <trkpt lat="42.7194" lon="1.4249">
        <ele>1522</ele>
        <time>2014-05-08T11:31:00Z</time>
      </trkpt>
      <trkpt lat="42.7194" lon="1.42489">
        <ele>1522</ele>
        <time>2014-05-08T11:31:10Z</time>
      </trkpt>
      <trkpt lat="42.71939" lon="1.42489">
        <ele>1522</ele>
        <time>2014-05-08T11:31:20Z</time>
      </trkpt>
      <trkpt lat="42.71938" lon="1.42489">
        <ele>1522</ele>
        <time>2014-05-08T11:31:30Z</time>
      </trkpt>
      <trkpt lat="42.71938" lon="1.42489">
        <ele>1522</ele>
        <time>2014-05-08T11:31:40Z</time>
      </trkpt>
      <trkpt lat="42.71938" lon="1.4249">
        <ele>1522</ele>
        <time>2014-05-08T11:31:50Z</time>
      </trkpt>
      <trkpt lat="42.7194" lon="1.42488">
        <ele>1522</ele>
        <time>2014-05-08T11:32:00Z</time>
      </trkpt>
      <trkpt lat="42.71941" lon="1.42488">
        <ele>1522</ele>
        <time>2014-05-08T11:32:10Z</time>
      </trkpt>
      <trkpt lat="42.71943" lon="1.42489">
        <ele>1522</ele>
        <time>2014-05-08T11:32:20Z</time>
      </trkpt>
      <trkpt lat="42.71943" lon="1.42489">
        <ele>1522</ele>
        <time>2014-05-08T11:32:30Z</time>
      </trkpt>
      <trkpt lat="42.71941" lon="1.42487">
        <ele>1522</ele>
        <time>2014-05-08T11:32:40Z</time>
      </trkpt>
      <trkpt lat="42.71941" lon="1.42486">
        <ele>1522</ele>
        <time>2014-05-08T11:32:50Z</time>
      </trkpt>
      <trkpt lat="42.71938" lon="1.42483">
        <ele>1521</ele>
        <time>2014-05-08T11:33:00Z</time>
      </trkpt>
      <trkpt lat="42.71937" lon="1.42482">
        <ele>1521</ele>
        <time>2014-05-08T11:33:10Z</time>
      </trkpt>
      <trkpt lat="42.71937" lon="1.42482">
        <ele>1521</ele>
        <time>2014-05-08T11:33:20Z</time>
      </trkpt>
      <trkpt lat="42.71936" lon="1.42482">
        <ele>1521</ele>
        <time>2014-05-08T11:33:31Z</time>
      </trkpt>
      <trkpt lat="42.71936" lon="1.42482">
        <ele>1521</ele>
        <time>2014-05-08T11:33:41Z</time>
      </trkpt>
      <trkpt lat="42.71937" lon="1.42482">
        <ele>1521</ele>
        <time>2014-05-08T11:33:51Z</time>
      </trkpt>
      <trkpt lat="42.7194" lon="1.42482">
        <ele>1521</ele>
        <time>2014-05-08T11:34:01Z</time>
      </trkpt>
      <trkpt lat="42.71941" lon="1.42482">
        <ele>1521</ele>
        <time>2014-05-08T11:34:11Z</time>
      </trkpt>
      <trkpt lat="42.71941" lon="1.42483">
        <ele>1521</ele>
        <time>2014-05-08T11:34:21Z</time>
      </trkpt>
      <trkpt lat="42.71941" lon="1.42484">
        <ele>1521</ele>
        <time>2014-05-08T11:34:31Z</time>
      </trkpt>
      <trkpt lat="42.71943" lon="1.42485">
        <ele>1522</ele>
        <time>2014-05-08T11:34:41Z</time>
      </trkpt>
      <trkpt lat="42.71944" lon="1.42485">
        <ele>1522</ele>
        <time>2014-05-08T11:34:51Z</time>
      </trkpt>
      <trkpt lat="42.71944" lon="1.42486">
        <ele>1522</ele>
        <time>2014-05-08T11:35:01Z</time>
      </trkpt>
      <trkpt lat="42.71944" lon="1.42487">
        <ele>1522</ele>
        <time>2014-05-08T11:35:11Z</time>
      </trkpt>
      <trkpt lat="42.71944" lon="1.42487">
        <ele>1522</ele>
        <time>2014-05-08T11:35:21Z</time>
      </trkpt>
      <trkpt lat="42.71944" lon="1.42487">
        <ele>1522</ele>
        <time>2014-05-08T11:35:31Z</time>
      </trkpt>
      <trkpt lat="42.71945" lon="1.42487">
        <ele>1522</ele>
        <time>2014-05-08T11:35:41Z</time>
      </trkpt>
      <trkpt lat="42.71945" lon="1.42487">
        <ele>1522</ele>
        <time>2014-05-08T11:35:51Z</time>
      </trkpt>
      <trkpt lat="42.71946" lon="1.42487">
        <ele>1522</ele>
        <time>2014-05-08T11:36:01Z</time>
      </trkpt>
      <trkpt lat="42.71945" lon="1.42487">
        <ele>1522</ele>
        <time>2014-05-08T11:36:11Z</time>
      </trkpt>
      <trkpt lat="42.71945" lon="1.42487">
        <ele>1522</ele>
        <time>2014-05-08T11:36:22Z</time>
      </trkpt>
      <trkpt lat="42.71945" lon="1.42487">
        <ele>1522</ele>
        <time>2014-05-08T11:36:32Z</time>
      </trkpt>
      <trkpt lat="42.71945" lon="1.42487">
        <ele>1522</ele>
        <time>2014-05-08T11:36:42Z</time>
      </trkpt>
      <trkpt lat="42.71944" lon="1.42487">
        <ele>1522</ele>
        <time>2014-05-08T11:36:52Z</time>
      </trkpt>
      <trkpt lat="42.71944" lon="1.42486">
        <ele>1522</ele>
        <time>2014-05-08T11:37:02Z</time>
      </trkpt>
      <trkpt lat="42.71944" lon="1.42485">
        <ele>1522</ele>
        <time>2014-05-08T11:37:12Z</time>
      </trkpt>
      <trkpt lat="42.71944" lon="1.42485">
        <ele>1521</ele>
        <time>2014-05-08T11:37:22Z</time>
      </trkpt>
      <trkpt lat="42.71943" lon="1.42486">
        <ele>1521</ele>
        <time>2014-05-08T11:37:32Z</time>
      </trkpt>
      <trkpt lat="42.71942" lon="1.42486">
        <ele>1521</ele>
        <time>2014-05-08T11:37:42Z</time>
      </trkpt>
      <trkpt lat="42.71942" lon="1.42487">
        <ele>1521</ele>
        <time>2014-05-08T11:37:52Z</time>
      </trkpt>
      <trkpt lat="42.71943" lon="1.42488">
        <ele>1521</ele>
        <time>2014-05-08T11:38:02Z</time>
      </trkpt>
      <trkpt lat="42.71943" lon="1.42489">
        <ele>1521</ele>
        <time>2014-05-08T11:38:12Z</time>
      </trkpt>
      <trkpt lat="42.71943" lon="1.42489">
        <ele>1521</ele>
        <time>2014-05-08T11:38:22Z</time>
      </trkpt>
      <trkpt lat="42.71941" lon="1.42488">
        <ele>1521</ele>
        <time>2014-05-08T11:38:32Z</time>
      </trkpt>
      <trkpt lat="42.71939" lon="1.42488">
        <ele>1521</ele>
        <time>2014-05-08T11:38:42Z</time>
      </trkpt>
      <trkpt lat="42.71939" lon="1.42488">
        <ele>1521</ele>
        <time>2014-05-08T11:38:52Z</time>
      </trkpt>
      <trkpt lat="42.71939" lon="1.42488">
        <ele>1521</ele>
        <time>2014-05-08T11:39:02Z</time>
      </trkpt>
      <trkpt lat="42.7194" lon="1.42488">
        <ele>1521</ele>
        <time>2014-05-08T11:39:12Z</time>
      </trkpt>
      <trkpt lat="42.71939" lon="1.42488">
        <ele>1522</ele>
        <time>2014-05-08T11:39:23Z</time>
      </trkpt>
      <trkpt lat="42.71938" lon="1.42488">
        <ele>1522</ele>
        <time>2014-05-08T11:39:33Z</time>
      </trkpt>
      <trkpt lat="42.71939" lon="1.42488">
        <ele>1522</ele>
        <time>2014-05-08T11:39:43Z</time>
      </trkpt>
      <trkpt lat="42.71939" lon="1.42488">
        <ele>1522</ele>
        <time>2014-05-08T11:39:53Z</time>
      </trkpt>
      <trkpt lat="42.7194" lon="1.42488">
        <ele>1522</ele>
        <time>2014-05-08T11:40:03Z</time>
      </trkpt>
      <trkpt lat="42.71941" lon="1.42489">
        <ele>1522</ele>
        <time>2014-05-08T11:40:13Z</time>
      </trkpt>
      <trkpt lat="42.71941" lon="1.42489">
        <ele>1522</ele>
        <time>2014-05-08T11:40:23Z</time>
      </trkpt>
      <trkpt lat="42.7194" lon="1.42489">
        <ele>1522</ele>
        <time>2014-05-08T11:40:33Z</time>
      </trkpt>
      <trkpt lat="42.71939" lon="1.42489">
        <ele>1522</ele>
        <time>2014-05-08T11:40:43Z</time>
      </trkpt>
      <trkpt lat="42.71937" lon="1.42488">
        <ele>1522</ele>
        <time>2014-05-08T11:40:53Z</time>
      </trkpt>
      <trkpt lat="42.71937" lon="1.42488">
        <ele>1522</ele>
        <time>2014-05-08T11:41:03Z</time>
      </trkpt>
      <trkpt lat="42.71935" lon="1.42488">
        <ele>1522</ele>
        <time>2014-05-08T11:41:13Z</time>
      </trkpt>
      <trkpt lat="42.71934" lon="1.42488">
        <ele>1522</ele>
        <time>2014-05-08T11:41:23Z</time>
      </trkpt>
      <trkpt lat="42.71933" lon="1.42488">
        <ele>1522</ele>
        <time>2014-05-08T11:41:33Z</time>
      </trkpt>
      <trkpt lat="42.71932" lon="1.42487">
        <ele>1522</ele>
        <time>2014-05-08T11:41:43Z</time>
      </trkpt>
      <trkpt lat="42.7193" lon="1.42487">
        <ele>1522</ele>
        <time>2014-05-08T11:41:53Z</time>
      </trkpt>
      <trkpt lat="42.71929" lon="1.42487">
        <ele>1522</ele>
        <time>2014-05-08T11:42:03Z</time>
      </trkpt>
      <trkpt lat="42.71929" lon="1.42486">
        <ele>1522</ele>
        <time>2014-05-08T11:42:13Z</time>
      </trkpt>
      <trkpt lat="42.71928" lon="1.42484">
        <ele>1522</ele>
        <time>2014-05-08T11:42:24Z</time>
      </trkpt>
      <trkpt lat="42.71928" lon="1.42481">
        <ele>1522</ele>
        <time>2014-05-08T11:42:34Z</time>
      </trkpt>
      <trkpt lat="42.71929" lon="1.42479">
        <ele>1522</ele>
        <time>2014-05-08T11:42:44Z</time>
      </trkpt>
      <trkpt lat="42.71932" lon="1.42478">
        <ele>1522</ele>
        <time>2014-05-08T11:42:54Z</time>
      </trkpt>
      <trkpt lat="42.71933" lon="1.42477">
        <ele>1522</ele>
        <time>2014-05-08T11:43:04Z</time>
      </trkpt>
      <trkpt lat="42.71932" lon="1.42477">
        <ele>1522</ele>
        <time>2014-05-08T11:43:14Z</time>
      </trkpt>
      <trkpt lat="42.71931" lon="1.42478">
        <ele>1522</ele>
        <time>2014-05-08T11:43:24Z</time>
      </trkpt>
      <trkpt lat="42.71931" lon="1.42479">
        <ele>1522</ele>
        <time>2014-05-08T11:43:34Z</time>
      </trkpt>
      <trkpt lat="42.71932" lon="1.42479">
        <ele>1522</ele>
        <time>2014-05-08T11:43:44Z</time>
      </trkpt>
      <trkpt lat="42.71931" lon="1.42482">
        <ele>1522</ele>
        <time>2014-05-08T11:43:54Z</time>
      </trkpt>
      <trkpt lat="42.71933" lon="1.42483">
        <ele>1522</ele>
        <time>2014-05-08T11:44:04Z</time>
      </trkpt>
      <trkpt lat="42.71936" lon="1.42485">
        <ele>1522</ele>
        <time>2014-05-08T11:44:14Z</time>
      </trkpt>
      <trkpt lat="42.71939" lon="1.42484">
        <ele>1522</ele>
        <time>2014-05-08T11:44:24Z</time>
      </trkpt>
      <trkpt lat="42.71941" lon="1.42485">
        <ele>1522</ele>
        <time>2014-05-08T11:44:34Z</time>
      </trkpt>
      <trkpt lat="42.71942" lon="1.42485">
        <ele>1522</ele>
        <time>2014-05-08T11:44:44Z</time>
      </trkpt>
      <trkpt lat="42.71943" lon="1.42486">
        <ele>1522</ele>
        <time>2014-05-08T11:44:54Z</time>
      </trkpt>
      <trkpt lat="42.71945" lon="1.42485">
        <ele>1523</ele>
        <time>2014-05-08T11:45:04Z</time>
      </trkpt>
      <trkpt lat="42.71946" lon="1.42485">
        <ele>1523</ele>
        <time>2014-05-08T11:45:15Z</time>
      </trkpt>
      <trkpt lat="42.71947" lon="1.42485">
        <ele>1523</ele>
        <time>2014-05-08T11:45:25Z</time>
      </trkpt>
      <trkpt lat="42.71947" lon="1.42485">
        <ele>1523</ele>
        <time>2014-05-08T11:45:35Z</time>
      </trkpt>
      <trkpt lat="42.71946" lon="1.42486">
        <ele>1523</ele>
        <time>2014-05-08T11:45:45Z</time>
      </trkpt>
      <trkpt lat="42.71945" lon="1.42487">
        <ele>1523</ele>
        <time>2014-05-08T11:45:55Z</time>
      </trkpt>
      <trkpt lat="42.71944" lon="1.42488">
        <ele>1523</ele>
        <time>2014-05-08T11:46:05Z</time>
      </trkpt>
      <trkpt lat="42.71941" lon="1.42487">
        <ele>1523</ele>
        <time>2014-05-08T11:46:15Z</time>
      </trkpt>
      <trkpt lat="42.7194" lon="1.42487">
        <ele>1522</ele>
        <time>2014-05-08T11:46:25Z</time>
      </trkpt>
      <trkpt lat="42.7194" lon="1.42486">
        <ele>1522</ele>
        <time>2014-05-08T11:46:35Z</time>
      </trkpt>
      <trkpt lat="42.7194" lon="1.42486">
        <ele>1522</ele>
        <time>2014-05-08T11:46:45Z</time>
      </trkpt>
      <trkpt lat="42.71941" lon="1.42486">
        <ele>1522</ele>
        <time>2014-05-08T11:46:55Z</time>
      </trkpt>
      <trkpt lat="42.71942" lon="1.42486">
        <ele>1522</ele>
        <time>2014-05-08T11:47:05Z</time>
      </trkpt>
      <trkpt lat="42.71942" lon="1.42486">
        <ele>1522</ele>
        <time>2014-05-08T11:47:15Z</time>
      </trkpt>
      <trkpt lat="42.71942" lon="1.42486">
        <ele>1522</ele>
        <time>2014-05-08T11:47:25Z</time>
      </trkpt>
      <trkpt lat="42.71939" lon="1.42485">
        <ele>1522</ele>
        <time>2014-05-08T11:47:35Z</time>
      </trkpt>
      <trkpt lat="42.71937" lon="1.42484">
        <ele>1522</ele>
        <time>2014-05-08T11:47:45Z</time>
      </trkpt>
      <trkpt lat="42.71937" lon="1.42484">
        <ele>1522</ele>
        <time>2014-05-08T11:47:55Z</time>
      </trkpt>
      <trkpt lat="42.71939" lon="1.42485">
        <ele>1522</ele>
        <time>2014-05-08T11:48:06Z</time>
      </trkpt>
      <trkpt lat="42.71941" lon="1.42486">
        <ele>1522</ele>
        <time>2014-05-08T11:48:16Z</time>
      </trkpt>
      <trkpt lat="42.71941" lon="1.42486">
        <ele>1522</ele>
        <time>2014-05-08T11:48:26Z</time>
      </trkpt>
      <trkpt lat="42.71941" lon="1.42487">
        <ele>1522</ele>
        <time>2014-05-08T11:48:36Z</time>
      </trkpt>
      <trkpt lat="42.71939" lon="1.42486">
        <ele>1522</ele>
        <time>2014-05-08T11:48:46Z</time>
      </trkpt>
      <trkpt lat="42.71938" lon="1.42485">
        <ele>1522</ele>
        <time>2014-05-08T11:48:56Z</time>
      </trkpt>
      <trkpt lat="42.71937" lon="1.42484">
        <ele>1522</ele>
        <time>2014-05-08T11:49:06Z</time>
      </trkpt>
      <trkpt lat="42.71937" lon="1.42484">
        <ele>1522</ele>
        <time>2014-05-08T11:49:16Z</time>
      </trkpt>
      <trkpt lat="42.71937" lon="1.42484">
        <ele>1522</ele>
        <time>2014-05-08T11:49:26Z</time>
      </trkpt>
      <trkpt lat="42.71937" lon="1.42484">
        <ele>1522</ele>
        <time>2014-05-08T11:49:36Z</time>
      </trkpt>
      <trkpt lat="42.71937" lon="1.42485">
        <ele>1522</ele>
        <time>2014-05-08T11:49:46Z</time>
      </trkpt>
      <trkpt lat="42.71938" lon="1.42485">
        <ele>1522</ele>
        <time>2014-05-08T11:49:56Z</time>
      </trkpt>
      <trkpt lat="42.71938" lon="1.42485">
        <ele>1522</ele>
        <time>2014-05-08T11:50:06Z</time>
      </trkpt>
      <trkpt lat="42.71939" lon="1.42486">
        <ele>1523</ele>
        <time>2014-05-08T11:50:16Z</time>
      </trkpt>
      <trkpt lat="42.71938" lon="1.42485">
        <ele>1523</ele>
        <time>2014-05-08T11:50:26Z</time>
      </trkpt>
      <trkpt lat="42.71939" lon="1.42485">
        <ele>1523</ele>
        <time>2014-05-08T11:50:36Z</time>
      </trkpt>
      <trkpt lat="42.71939" lon="1.42486">
        <ele>1523</ele>
        <time>2014-05-08T11:50:46Z</time>
      </trkpt>
      <trkpt lat="42.71941" lon="1.42487">
        <ele>1523</ele>
        <time>2014-05-08T11:50:57Z</time>
      </trkpt>
      <trkpt lat="42.71943" lon="1.42488">
        <ele>1523</ele>
        <time>2014-05-08T11:51:07Z</time>
      </trkpt>
      <trkpt lat="42.71944" lon="1.42489">
        <ele>1523</ele>
        <time>2014-05-08T11:51:17Z</time>
      </trkpt>
      <trkpt lat="42.71944" lon="1.42489">
        <ele>1523</ele>
        <time>2014-05-08T11:51:27Z</time>
      </trkpt>
      <trkpt lat="42.71943" lon="1.42489">
        <ele>1523</ele>
        <time>2014-05-08T11:51:37Z</time>
      </trkpt>
      <trkpt lat="42.71943" lon="1.42489">
        <ele>1523</ele>
        <time>2014-05-08T11:51:47Z</time>
      </trkpt>
      <trkpt lat="42.71944" lon="1.42489">
        <ele>1523</ele>
        <time>2014-05-08T11:51:57Z</time>
      </trkpt>
      <trkpt lat="42.71947" lon="1.42489">
        <ele>1521</ele>
        <time>2014-05-08T11:52:07Z</time>
      </trkpt>
      <trkpt lat="42.71949" lon="1.42489">
        <ele>1521</ele>
        <time>2014-05-08T11:52:17Z</time>
      </trkpt>
      <trkpt lat="42.71949" lon="1.42489">
        <ele>1521</ele>
        <time>2014-05-08T11:52:27Z</time>
      </trkpt>
      <trkpt lat="42.71948" lon="1.4249">
        <ele>1521</ele>
        <time>2014-05-08T11:52:37Z</time>
      </trkpt>
      <trkpt lat="42.71949" lon="1.4249">
        <ele>1521</ele>
        <time>2014-05-08T11:52:47Z</time>
      </trkpt>
      <trkpt lat="42.71948" lon="1.42491">
        <ele>1521</ele>
        <time>2014-05-08T11:52:57Z</time>
      </trkpt>
      <trkpt lat="42.71949" lon="1.42491">
        <ele>1521</ele>
        <time>2014-05-08T11:53:07Z</time>
      </trkpt>
      <trkpt lat="42.71949" lon="1.42491">
        <ele>1521</ele>
        <time>2014-05-08T11:53:17Z</time>
      </trkpt>
      <trkpt lat="42.71947" lon="1.4249">
        <ele>1521</ele>
        <time>2014-05-08T11:53:27Z</time>
      </trkpt>
      <trkpt lat="42.71945" lon="1.4249">
        <ele>1521</ele>
        <time>2014-05-08T11:53:37Z</time>
      </trkpt>
      <trkpt lat="42.71944" lon="1.4249">
        <ele>1521</ele>
        <time>2014-05-08T11:53:47Z</time>
      </trkpt>
      <trkpt lat="42.71943" lon="1.42489">
        <ele>1521</ele>
        <time>2014-05-08T11:53:57Z</time>
      </trkpt>
      <trkpt lat="42.71944" lon="1.42489">
        <ele>1521</ele>
        <time>2014-05-08T11:54:08Z</time>
      </trkpt>
      <trkpt lat="42.71937" lon="1.42486">
        <ele>1521</ele>
        <time>2014-05-08T11:54:18Z</time>
      </trkpt>
      <trkpt lat="42.71934" lon="1.42484">
        <ele>1521</ele>
        <time>2014-05-08T11:54:28Z</time>
      </trkpt>
      <trkpt lat="42.71938" lon="1.42486">
        <ele>1521</ele>
        <time>2014-05-08T11:54:38Z</time>
      </trkpt>
      <trkpt lat="42.71943" lon="1.42488">
        <ele>1521</ele>
        <time>2014-05-08T11:54:48Z</time>
      </trkpt>
      <trkpt lat="42.71946" lon="1.42489">
        <ele>1521</ele>
        <time>2014-05-08T11:54:58Z</time>
      </trkpt>
      <trkpt lat="42.71947" lon="1.42489">
        <ele>1521</ele>
        <time>2014-05-08T11:55:08Z</time>
      </trkpt>
      <trkpt lat="42.71948" lon="1.42489">
        <ele>1521</ele>
        <time>2014-05-08T11:55:18Z</time>
      </trkpt>
      <trkpt lat="42.71948" lon="1.42488">
        <ele>1521</ele>
        <time>2014-05-08T11:55:28Z</time>
      </trkpt>
      <trkpt lat="42.71947" lon="1.42488">
        <ele>1521</ele>
        <time>2014-05-08T11:55:38Z</time>
      </trkpt>
      <trkpt lat="42.71945" lon="1.42487">
        <ele>1521</ele>
        <time>2014-05-08T11:55:48Z</time>
      </trkpt>
      <trkpt lat="42.71944" lon="1.42487">
        <ele>1522</ele>
        <time>2014-05-08T11:55:58Z</time>
      </trkpt>
      <trkpt lat="42.71946" lon="1.42487">
        <ele>1522</ele>
        <time>2014-05-08T11:56:08Z</time>
      </trkpt>
      <trkpt lat="42.71947" lon="1.42487">
        <ele>1522</ele>
        <time>2014-05-08T11:56:18Z</time>
      </trkpt>
      <trkpt lat="42.7195" lon="1.42487">
        <ele>1522</ele>
        <time>2014-05-08T11:56:29Z</time>
      </trkpt>
      <trkpt lat="42.71952" lon="1.42487">
        <ele>1522</ele>
        <time>2014-05-08T11:56:39Z</time>
      </trkpt>
      <trkpt lat="42.71949" lon="1.42488">
        <ele>1522</ele>
        <time>2014-05-08T11:56:49Z</time>
      </trkpt>
      <trkpt lat="42.71946" lon="1.42487">
        <ele>1522</ele>
        <time>2014-05-08T11:56:59Z</time>
      </trkpt>
      <trkpt lat="42.71944" lon="1.42487">
        <ele>1522</ele>
        <time>2014-05-08T11:57:09Z</time>
      </trkpt>
      <trkpt lat="42.71945" lon="1.42487">
        <ele>1522</ele>
        <time>2014-05-08T11:57:19Z</time>
      </trkpt>
      <trkpt lat="42.71944" lon="1.42487">
        <ele>1522</ele>
        <time>2014-05-08T11:57:29Z</time>
      </trkpt>
      <trkpt lat="42.71945" lon="1.42488">
        <ele>1522</ele>
        <time>2014-05-08T11:57:39Z</time>
      </trkpt>
      <trkpt lat="42.71948" lon="1.42488">
        <ele>1522</ele>
        <time>2014-05-08T11:57:49Z</time>
      </trkpt>
      <trkpt lat="42.71952" lon="1.42487">
        <ele>1522</ele>
        <time>2014-05-08T11:57:59Z</time>
      </trkpt>
      <trkpt lat="42.71953" lon="1.42487">
        <ele>1522</ele>
        <time>2014-05-08T11:58:09Z</time>
      </trkpt>
      <trkpt lat="42.71954" lon="1.42487">
        <ele>1522</ele>
        <time>2014-05-08T11:58:19Z</time>
      </trkpt>
      <trkpt lat="42.71953" lon="1.42488">
        <ele>1522</ele>
        <time>2014-05-08T11:58:29Z</time>
      </trkpt>
      <trkpt lat="42.7195" lon="1.42488">
        <ele>1522</ele>
        <time>2014-05-08T11:58:39Z</time>
      </trkpt>
      <trkpt lat="42.71947" lon="1.42488">
        <ele>1522</ele>
        <time>2014-05-08T11:58:49Z</time>
      </trkpt>
      <trkpt lat="42.71947" lon="1.42488">
        <ele>1522</ele>
        <time>2014-05-08T11:58:59Z</time>
      </trkpt>
      <trkpt lat="42.71946" lon="1.42489">
        <ele>1522</ele>
        <time>2014-05-08T11:59:10Z</time>
      </trkpt>
      <trkpt lat="42.71946" lon="1.4249">
        <ele>1522</ele>
        <time>2014-05-08T11:59:20Z</time>
      </trkpt>
      <trkpt lat="42.71945" lon="1.4249">
        <ele>1522</ele>
        <time>2014-05-08T11:59:30Z</time>
      </trkpt>
      <trkpt lat="42.71944" lon="1.42491">
        <ele>1522</ele>
        <time>2014-05-08T11:59:40Z</time>
      </trkpt>
      <trkpt lat="42.71943" lon="1.42491">
        <ele>1522</ele>
        <time>2014-05-08T11:59:50Z</time>
      </trkpt>
      <trkpt lat="42.71942" lon="1.42493">
        <ele>1522</ele>
        <time>2014-05-08T12:00:00Z</time>
      </trkpt>
      <trkpt lat="42.71941" lon="1.42496">
        <ele>1522</ele>
        <time>2014-05-08T12:00:10Z</time>
      </trkpt>
      <trkpt lat="42.71943" lon="1.42497">
        <ele>1522</ele>
        <time>2014-05-08T12:00:20Z</time>
      </trkpt>
      <trkpt lat="42.71943" lon="1.42497">
        <ele>1522</ele>
        <time>2014-05-08T12:00:30Z</time>
      </trkpt>
      <trkpt lat="42.71943" lon="1.42497">
        <ele>1522</ele>
        <time>2014-05-08T12:00:40Z</time>
      </trkpt>
      <trkpt lat="42.71944" lon="1.42497">
        <ele>1522</ele>
        <time>2014-05-08T12:00:50Z</time>
      </trkpt>
      <trkpt lat="42.71946" lon="1.42501">
        <ele>1522</ele>
        <time>2014-05-08T12:01:00Z</time>
      </trkpt>
      <trkpt lat="42.71951" lon="1.42505">
        <ele>1522</ele>
        <time>2014-05-08T12:01:10Z</time>
      </trkpt>
      <trkpt lat="42.71959" lon="1.4251">
        <ele>1522</ele>
        <time>2014-05-08T12:01:20Z</time>
      </trkpt>
      <trkpt lat="42.71962" lon="1.42515">
        <ele>1522</ele>
        <time>2014-05-08T12:01:30Z</time>
      </trkpt>
      <trkpt lat="42.71961" lon="1.42517">
        <ele>1522</ele>
        <time>2014-05-08T12:01:41Z</time>
      </trkpt>
      <trkpt lat="42.71962" lon="1.42519">
        <ele>1522</ele>
        <time>2014-05-08T12:01:51Z</time>
      </trkpt>
      <trkpt lat="42.71964" lon="1.42519">
        <ele>1522</ele>
        <time>2014-05-08T12:02:01Z</time>
      </trkpt>
      <trkpt lat="42.71966" lon="1.42518">
        <ele>1522</ele>
        <time>2014-05-08T12:02:11Z</time>
      </trkpt>
      <trkpt lat="42.71975" lon="1.4252">
        <ele>1522</ele>
        <time>2014-05-08T12:02:21Z</time>
      </trkpt>
      <trkpt lat="42.71982" lon="1.42528">
        <ele>1522</ele>
        <time>2014-05-08T12:02:31Z</time>
      </trkpt>
      <trkpt lat="42.71979" lon="1.42535">
        <ele>1522</ele>
        <time>2014-05-08T12:02:41Z</time>
      </trkpt>
      <trkpt lat="42.71979" lon="1.42543">
        <ele>1522</ele>
        <time>2014-05-08T12:02:51Z</time>
      </trkpt>
      <trkpt lat="42.71981" lon="1.42553">
        <ele>1522</ele>
        <time>2014-05-08T12:03:01Z</time>
      </trkpt>
      <trkpt lat="42.71988" lon="1.42558">
        <ele>1522</ele>
        <time>2014-05-08T12:03:11Z</time>
      </trkpt>
      <trkpt lat="42.71991" lon="1.42559">
        <ele>1518</ele>
        <time>2014-05-08T12:03:21Z</time>
      </trkpt>
      <trkpt lat="42.71995" lon="1.42559">
        <ele>1518</ele>
        <time>2014-05-08T12:03:31Z</time>
      </trkpt>
      <trkpt lat="42.72003" lon="1.42559">
        <ele>1518</ele>
        <time>2014-05-08T12:03:41Z</time>
      </trkpt>
      <trkpt lat="42.72009" lon="1.42566">
        <ele>1518</ele>
        <time>2014-05-08T12:03:51Z</time>
      </trkpt>
      <trkpt lat="42.72012" lon="1.42571">
        <ele>1518</ele>
        <time>2014-05-08T12:04:01Z</time>
      </trkpt>
      <trkpt lat="42.72014" lon="1.42571">
        <ele>1522</ele>
        <time>2014-05-08T12:04:12Z</time>
      </trkpt>
      <trkpt lat="42.72017" lon="1.42574">
        <ele>1522</ele>
        <time>2014-05-08T12:04:22Z</time>
      </trkpt>
      <trkpt lat="42.7202" lon="1.42576">
        <ele>1522</ele>
        <time>2014-05-08T12:04:32Z</time>
      </trkpt>
      <trkpt lat="42.72021" lon="1.42575">
        <ele>1522</ele>
        <time>2014-05-08T12:04:42Z</time>
      </trkpt>
      <trkpt lat="42.72021" lon="1.42574">
        <ele>1522</ele>
        <time>2014-05-08T12:04:52Z</time>
      </trkpt>
      <trkpt lat="42.7202" lon="1.42573">
        <ele>1522</ele>
        <time>2014-05-08T12:05:02Z</time>
      </trkpt>
      <trkpt lat="42.72021" lon="1.42567">
        <ele>1522</ele>
        <time>2014-05-08T12:05:12Z</time>
      </trkpt>
      <trkpt lat="42.72023" lon="1.42563">
        <ele>1522</ele>
        <time>2014-05-08T12:05:22Z</time>
      </trkpt>
      <trkpt lat="42.72023" lon="1.42566">
        <ele>1522</ele>
        <time>2014-05-08T12:05:32Z</time>
      </trkpt>
      <trkpt lat="42.72023" lon="1.42561">
        <ele>1522</ele>
        <time>2014-05-08T12:05:42Z</time>
      </trkpt>
      <trkpt lat="42.72021" lon="1.42557">
        <ele>1522</ele>
        <time>2014-05-08T12:05:52Z</time>
      </trkpt>
      <trkpt lat="42.7202" lon="1.42551">
        <ele>1526</ele>
        <time>2014-05-08T12:06:02Z</time>
      </trkpt>
      <trkpt lat="42.7202" lon="1.42549">
        <ele>1526</ele>
        <time>2014-05-08T12:06:12Z</time>
      </trkpt>
      <trkpt lat="42.7202" lon="1.42543">
        <ele>1526</ele>
        <time>2014-05-08T12:06:22Z</time>
      </trkpt>
      <trkpt lat="42.7202" lon="1.42543">
        <ele>1526</ele>
        <time>2014-05-08T12:06:32Z</time>
      </trkpt>
      <trkpt lat="42.72018" lon="1.42541">
        <ele>1526</ele>
        <time>2014-05-08T12:06:43Z</time>
      </trkpt>
      <trkpt lat="42.72016" lon="1.42535">
        <ele>1526</ele>
        <time>2014-05-08T12:06:53Z</time>
      </trkpt>
      <trkpt lat="42.72017" lon="1.42534">
        <ele>1531</ele>
        <time>2014-05-08T12:07:03Z</time>
      </trkpt>
      <trkpt lat="42.72017" lon="1.42536">
        <ele>1531</ele>
        <time>2014-05-08T12:07:13Z</time>
      </trkpt>
      <trkpt lat="42.72018" lon="1.42534">
        <ele>1531</ele>
        <time>2014-05-08T12:07:23Z</time>
      </trkpt>
      <trkpt lat="42.72023" lon="1.42528">
        <ele>1531</ele>
        <time>2014-05-08T12:07:33Z</time>
      </trkpt>
      <trkpt lat="42.72028" lon="1.42527">
        <ele>1531</ele>
        <time>2014-05-08T12:07:43Z</time>
      </trkpt>
      <trkpt lat="42.7203" lon="1.42525">
        <ele>1531</ele>
        <time>2014-05-08T12:07:53Z</time>
      </trkpt>
      <trkpt lat="42.72033" lon="1.4252">
        <ele>1536</ele>
        <time>2014-05-08T12:08:03Z</time>
      </trkpt>
      <trkpt lat="42.72037" lon="1.42517">
        <ele>1536</ele>
        <time>2014-05-08T12:08:13Z</time>
      </trkpt>
      <trkpt lat="42.72041" lon="1.42519">
        <ele>1536</ele>
        <time>2014-05-08T12:08:23Z</time>
      </trkpt>
      <trkpt lat="42.72042" lon="1.42523">
        <ele>1536</ele>
        <time>2014-05-08T12:08:33Z</time>
      </trkpt>
      <trkpt lat="42.72042" lon="1.4252">
        <ele>1536</ele>
        <time>2014-05-08T12:08:43Z</time>
      </trkpt>
      <trkpt lat="42.72048" lon="1.42519">
        <ele>1536</ele>
        <time>2014-05-08T12:08:54Z</time>
      </trkpt>
      <trkpt lat="42.72052" lon="1.42517">
        <ele>1540</ele>
        <time>2014-05-08T12:09:04Z</time>
      </trkpt>
      <trkpt lat="42.72055" lon="1.42517">
        <ele>1540</ele>
        <time>2014-05-08T12:09:14Z</time>
      </trkpt>
      <trkpt lat="42.72055" lon="1.42519">
        <ele>1540</ele>
        <time>2014-05-08T12:09:24Z</time>
      </trkpt>
      <trkpt lat="42.72054" lon="1.42521">
        <ele>1544</ele>
        <time>2014-05-08T12:09:34Z</time>
      </trkpt>
      <trkpt lat="42.72052" lon="1.42525">
        <ele>1544</ele>
        <time>2014-05-08T12:09:44Z</time>
      </trkpt>
      <trkpt lat="42.72052" lon="1.42527">
        <ele>1544</ele>
        <time>2014-05-08T12:09:54Z</time>
      </trkpt>
      <trkpt lat="42.72052" lon="1.42527">
        <ele>1544</ele>
        <time>2014-05-08T12:10:04Z</time>
      </trkpt>
      <trkpt lat="42.72053" lon="1.42527">
        <ele>1544</ele>
        <time>2014-05-08T12:10:14Z</time>
      </trkpt>
      <trkpt lat="42.72054" lon="1.42526">
        <ele>1544</ele>
        <time>2014-05-08T12:10:24Z</time>
      </trkpt>
      <trkpt lat="42.72057" lon="1.42523">
        <ele>1544</ele>
        <time>2014-05-08T12:10:34Z</time>
      </trkpt>
      <trkpt lat="42.72057" lon="1.42522">
        <ele>1544</ele>
        <time>2014-05-08T12:10:45Z</time>
      </trkpt>
      <trkpt lat="42.72059" lon="1.42523">
        <ele>1544</ele>
        <time>2014-05-08T12:10:55Z</time>
      </trkpt>
      <trkpt lat="42.72062" lon="1.42524">
        <ele>1546</ele>
        <time>2014-05-08T12:11:05Z</time>
      </trkpt>
      <trkpt lat="42.72066" lon="1.42524">
        <ele>1546</ele>
        <time>2014-05-08T12:11:15Z</time>
      </trkpt>
      <trkpt lat="42.72067" lon="1.4252">
        <ele>1546</ele>
        <time>2014-05-08T12:11:25Z</time>
      </trkpt>
      <trkpt lat="42.72067" lon="1.42517">
        <ele>1546</ele>
        <time>2014-05-08T12:11:35Z</time>
      </trkpt>
      <trkpt lat="42.7207" lon="1.42515">
        <ele>1546</ele>
        <time>2014-05-08T12:11:45Z</time>
      </trkpt>
      <trkpt lat="42.72071" lon="1.42512">
        <ele>1546</ele>
        <time>2014-05-08T12:11:55Z</time>
      </trkpt>
      <trkpt lat="42.7207" lon="1.42511">
        <ele>1550</ele>
        <time>2014-05-08T12:12:05Z</time>
      </trkpt>
      <trkpt lat="42.7207" lon="1.4251">
        <ele>1550</ele>
        <time>2014-05-08T12:12:15Z</time>
      </trkpt>
      <trkpt lat="42.72072" lon="1.42509">
        <ele>1550</ele>
        <time>2014-05-08T12:12:25Z</time>
      </trkpt>
      <trkpt lat="42.72077" lon="1.42509">
        <ele>1550</ele>
        <time>2014-05-08T12:12:36Z</time>
      </trkpt>
      <trkpt lat="42.7208" lon="1.42507">
        <ele>1554</ele>
        <time>2014-05-08T12:12:46Z</time>
      </trkpt>
      <trkpt lat="42.72083" lon="1.42508">
        <ele>1554</ele>
        <time>2014-05-08T12:12:56Z</time>
      </trkpt>
      <trkpt lat="42.72083" lon="1.4251">
        <ele>1554</ele>
        <time>2014-05-08T12:13:06Z</time>
      </trkpt>
      <trkpt lat="42.72079" lon="1.42513">
        <ele>1554</ele>
        <time>2014-05-08T12:13:16Z</time>
      </trkpt>
      <trkpt lat="42.72083" lon="1.42513">
        <ele>1554</ele>
        <time>2014-05-08T12:13:26Z</time>
      </trkpt>
      <trkpt lat="42.72083" lon="1.4251">
        <ele>1559</ele>
        <time>2014-05-08T12:13:36Z</time>
      </trkpt>
      <trkpt lat="42.72078" lon="1.42506">
        <ele>1559</ele>
        <time>2014-05-08T12:13:46Z</time>
      </trkpt>
      <trkpt lat="42.72075" lon="1.42503">
        <ele>1559</ele>
        <time>2014-05-08T12:13:56Z</time>
      </trkpt>
      <trkpt lat="42.72071" lon="1.42501">
        <ele>1559</ele>
        <time>2014-05-08T12:14:06Z</time>
      </trkpt>
      <trkpt lat="42.72071" lon="1.42499">
        <ele>1559</ele>
        <time>2014-05-08T12:14:16Z</time>
      </trkpt>
      <trkpt lat="42.7207" lon="1.42501">
        <ele>1559</ele>
        <time>2014-05-08T12:14:26Z</time>
      </trkpt>
      <trkpt lat="42.72071" lon="1.42501">
        <ele>1559</ele>
        <time>2014-05-08T12:14:37Z</time>
      </trkpt>
      <trkpt lat="42.72074" lon="1.42503">
        <ele>1559</ele>
        <time>2014-05-08T12:14:47Z</time>
      </trkpt>
      <trkpt lat="42.72073" lon="1.42501">
        <ele>1559</ele>
        <time>2014-05-08T12:14:57Z</time>
      </trkpt>
      <trkpt lat="42.7207" lon="1.42499">
        <ele>1559</ele>
        <time>2014-05-08T12:15:07Z</time>
      </trkpt>
      <trkpt lat="42.7207" lon="1.42498">
        <ele>1559</ele>
        <time>2014-05-08T12:15:17Z</time>
      </trkpt>
      <trkpt lat="42.72069" lon="1.42497">
        <ele>1560</ele>
        <time>2014-05-08T12:15:27Z</time>
      </trkpt>
      <trkpt lat="42.72067" lon="1.42496">
        <ele>1560</ele>
        <time>2014-05-08T12:15:37Z</time>
      </trkpt>
      <trkpt lat="42.72065" lon="1.42495">
        <ele>1560</ele>
        <time>2014-05-08T12:15:47Z</time>
      </trkpt>
      <trkpt lat="42.72062" lon="1.42494">
        <ele>1560</ele>
        <time>2014-05-08T12:15:57Z</time>
      </trkpt>
      <trkpt lat="42.72062" lon="1.42494">
        <ele>1560</ele>
        <time>2014-05-08T12:16:07Z</time>
      </trkpt>
      <trkpt lat="42.72062" lon="1.42492">
        <ele>1560</ele>
        <time>2014-05-08T12:16:17Z</time>
      </trkpt>
      <trkpt lat="42.72063" lon="1.42491">
        <ele>1560</ele>
        <time>2014-05-08T12:16:27Z</time>
      </trkpt>
      <trkpt lat="42.72064" lon="1.42491">
        <ele>1560</ele>
        <time>2014-05-08T12:16:38Z</time>
      </trkpt>
      <trkpt lat="42.72064" lon="1.42486">
        <ele>1560</ele>
        <time>2014-05-08T12:16:48Z</time>
      </trkpt>
      <trkpt lat="42.72068" lon="1.42482">
        <ele>1565</ele>
        <time>2014-05-08T12:16:58Z</time>
      </trkpt>
      <trkpt lat="42.7207" lon="1.42477">
        <ele>1561</ele>
        <time>2014-05-08T12:17:08Z</time>
      </trkpt>
      <trkpt lat="42.72074" lon="1.42477">
        <ele>1568</ele>
        <time>2014-05-08T12:17:18Z</time>
      </trkpt>
      <trkpt lat="42.72076" lon="1.42479">
        <ele>1568</ele>
        <time>2014-05-08T12:17:28Z</time>
      </trkpt>
      <trkpt lat="42.72077" lon="1.4248">
        <ele>1568</ele>
        <time>2014-05-08T12:17:38Z</time>
      </trkpt>
      <trkpt lat="42.72076" lon="1.42481">
        <ele>1568</ele>
        <time>2014-05-08T12:17:48Z</time>
      </trkpt>
      <trkpt lat="42.72076" lon="1.42479">
        <ele>1568</ele>
        <time>2014-05-08T12:17:58Z</time>
      </trkpt>
      <trkpt lat="42.72079" lon="1.42479">
        <ele>1568</ele>
        <time>2014-05-08T12:18:08Z</time>
      </trkpt>
      <trkpt lat="42.72082" lon="1.42484">
        <ele>1568</ele>
        <time>2014-05-08T12:18:18Z</time>
      </trkpt>
      <trkpt lat="42.72086" lon="1.42487">
        <ele>1568</ele>
        <time>2014-05-08T12:18:28Z</time>
      </trkpt>
      <trkpt lat="42.72092" lon="1.42488">
        <ele>1568</ele>
        <time>2014-05-08T12:18:38Z</time>
      </trkpt>
      <trkpt lat="42.72097" lon="1.4249">
        <ele>1573</ele>
        <time>2014-05-08T12:18:48Z</time>
      </trkpt>
      <trkpt lat="42.72097" lon="1.42491">
        <ele>1573</ele>
        <time>2014-05-08T12:18:59Z</time>
      </trkpt>
      <trkpt lat="42.72097" lon="1.42491">
        <ele>1573</ele>
        <time>2014-05-08T12:19:09Z</time>
      </trkpt>
      <trkpt lat="42.72103" lon="1.4249">
        <ele>1573</ele>
        <time>2014-05-08T12:19:19Z</time>
      </trkpt>
      <trkpt lat="42.72108" lon="1.4249">
        <ele>1573</ele>
        <time>2014-05-08T12:19:29Z</time>
      </trkpt>
      <trkpt lat="42.72114" lon="1.42491">
        <ele>1573</ele>
        <time>2014-05-08T12:19:39Z</time>
      </trkpt>
      <trkpt lat="42.72117" lon="1.42491">
        <ele>1573</ele>
        <time>2014-05-08T12:19:49Z</time>
      </trkpt>
      <trkpt lat="42.7212" lon="1.4249">
        <ele>1573</ele>
        <time>2014-05-08T12:19:59Z</time>
      </trkpt>
      <trkpt lat="42.72124" lon="1.42489">
        <ele>1577</ele>
        <time>2014-05-08T12:20:09Z</time>
      </trkpt>
      <trkpt lat="42.72128" lon="1.4249">
        <ele>1577</ele>
        <time>2014-05-08T12:20:19Z</time>
      </trkpt>
      <trkpt lat="42.72127" lon="1.4249">
        <ele>1577</ele>
        <time>2014-05-08T12:20:29Z</time>
      </trkpt>
      <trkpt lat="42.72125" lon="1.4249">
        <ele>1577</ele>
        <time>2014-05-08T12:20:39Z</time>
      </trkpt>
      <trkpt lat="42.72123" lon="1.4249">
        <ele>1577</ele>
        <time>2014-05-08T12:20:49Z</time>
      </trkpt>
      <trkpt lat="42.72122" lon="1.4249">
        <ele>1577</ele>
        <time>2014-05-08T12:21:00Z</time>
      </trkpt>
      <trkpt lat="42.72121" lon="1.42489">
        <ele>1577</ele>
        <time>2014-05-08T12:21:10Z</time>
      </trkpt>
      <trkpt lat="42.72124" lon="1.42487">
        <ele>1577</ele>
        <time>2014-05-08T12:21:20Z</time>
      </trkpt>
      <trkpt lat="42.72126" lon="1.42486">
        <ele>1577</ele>
        <time>2014-05-08T12:21:30Z</time>
      </trkpt>
      <trkpt lat="42.7213" lon="1.42487">
        <ele>1577</ele>
        <time>2014-05-08T12:21:40Z</time>
      </trkpt>
      <trkpt lat="42.72131" lon="1.42485">
        <ele>1583</ele>
        <time>2014-05-08T12:21:50Z</time>
      </trkpt>
      <trkpt lat="42.72134" lon="1.42481">
        <ele>1583</ele>
        <time>2014-05-08T12:22:00Z</time>
      </trkpt>
      <trkpt lat="42.72133" lon="1.42474">
        <ele>1574</ele>
        <time>2014-05-08T12:22:10Z</time>
      </trkpt>
      <trkpt lat="42.72134" lon="1.4247">
        <ele>1584</ele>
        <time>2014-05-08T12:22:20Z</time>
      </trkpt>
      <trkpt lat="42.72136" lon="1.42464">
        <ele>1588</ele>
        <time>2014-05-08T12:22:30Z</time>
      </trkpt>
      <trkpt lat="42.72137" lon="1.4246">
        <ele>1588</ele>
        <time>2014-05-08T12:22:40Z</time>
      </trkpt>
      <trkpt lat="42.72136" lon="1.42458">
        <ele>1588</ele>
        <time>2014-05-08T12:22:50Z</time>
      </trkpt>
      <trkpt lat="42.72134" lon="1.42455">
        <ele>1588</ele>
        <time>2014-05-08T12:23:00Z</time>
      </trkpt>
      <trkpt lat="42.72131" lon="1.42455">
        <ele>1588</ele>
        <time>2014-05-08T12:23:11Z</time>
      </trkpt>
      <trkpt lat="42.72129" lon="1.42455">
        <ele>1588</ele>
        <time>2014-05-08T12:23:21Z</time>
      </trkpt>
      <trkpt lat="42.72128" lon="1.42456">
        <ele>1588</ele>
        <time>2014-05-08T12:23:31Z</time>
      </trkpt>
      <trkpt lat="42.72128" lon="1.42456">
        <ele>1588</ele>
        <time>2014-05-08T12:23:41Z</time>
      </trkpt>
      <trkpt lat="42.72125" lon="1.42457">
        <ele>1588</ele>
        <time>2014-05-08T12:23:51Z</time>
      </trkpt>
      <trkpt lat="42.72122" lon="1.42457">
        <ele>1588</ele>
        <time>2014-05-08T12:24:01Z</time>
      </trkpt>
      <trkpt lat="42.72121" lon="1.42457">
        <ele>1588</ele>
        <time>2014-05-08T12:24:11Z</time>
      </trkpt>
      <trkpt lat="42.72122" lon="1.42456">
        <ele>1588</ele>
        <time>2014-05-08T12:24:21Z</time>
      </trkpt>
      <trkpt lat="42.72121" lon="1.42455">
        <ele>1588</ele>
        <time>2014-05-08T12:24:31Z</time>
      </trkpt>
      <trkpt lat="42.72122" lon="1.42455">
        <ele>1588</ele>
        <time>2014-05-08T12:24:41Z</time>
      </trkpt>
      <trkpt lat="42.72125" lon="1.42457">
        <ele>1588</ele>
        <time>2014-05-08T12:24:51Z</time>
      </trkpt>
      <trkpt lat="42.72127" lon="1.42461">
        <ele>1588</ele>
        <time>2014-05-08T12:25:01Z</time>
      </trkpt>
      <trkpt lat="42.72126" lon="1.42462">
        <ele>1588</ele>
        <time>2014-05-08T12:25:11Z</time>
      </trkpt>
      <trkpt lat="42.72126" lon="1.42463">
        <ele>1588</ele>
        <time>2014-05-08T12:25:21Z</time>
      </trkpt>
      <trkpt lat="42.72127" lon="1.42463">
        <ele>1588</ele>
        <time>2014-05-08T12:25:31Z</time>
      </trkpt>
      <trkpt lat="42.72128" lon="1.42463">
        <ele>1588</ele>
        <time>2014-05-08T12:25:41Z</time>
      </trkpt>
      <trkpt lat="42.72128" lon="1.42463">
        <ele>1588</ele>
        <time>2014-05-08T12:25:51Z</time>
      </trkpt>
      <trkpt lat="42.72128" lon="1.42463">
        <ele>1588</ele>
        <time>2014-05-08T12:26:01Z</time>
      </trkpt>
      <trkpt lat="42.72128" lon="1.42463">
        <ele>1588</ele>
        <time>2014-05-08T12:26:12Z</time>
      </trkpt>
      <trkpt lat="42.72127" lon="1.42464">
        <ele>1588</ele>
        <time>2014-05-08T12:26:22Z</time>
      </trkpt>
      <trkpt lat="42.72127" lon="1.42463">
        <ele>1588</ele>
        <time>2014-05-08T12:26:32Z</time>
      </trkpt>
      <trkpt lat="42.72129" lon="1.42461">
        <ele>1588</ele>
        <time>2014-05-08T12:26:42Z</time>
      </trkpt>
      <trkpt lat="42.72129" lon="1.42461">
        <ele>1588</ele>
        <time>2014-05-08T12:26:52Z</time>
      </trkpt>
      <trkpt lat="42.72129" lon="1.4246">
        <ele>1588</ele>
        <time>2014-05-08T12:27:02Z</time>
      </trkpt>
      <trkpt lat="42.72128" lon="1.4246">
        <ele>1588</ele>
        <time>2014-05-08T12:27:12Z</time>
      </trkpt>
      <trkpt lat="42.72127" lon="1.4246">
        <ele>1588</ele>
        <time>2014-05-08T12:27:22Z</time>
      </trkpt>
      <trkpt lat="42.72127" lon="1.4246">
        <ele>1588</ele>
        <time>2014-05-08T12:27:32Z</time>
      </trkpt>
      <trkpt lat="42.72127" lon="1.4246">
        <ele>1588</ele>
        <time>2014-05-08T12:27:42Z</time>
      </trkpt>
      <trkpt lat="42.72128" lon="1.42459">
        <ele>1588</ele>
        <time>2014-05-08T12:27:52Z</time>
      </trkpt>
      <trkpt lat="42.72128" lon="1.42458">
        <ele>1588</ele>
        <time>2014-05-08T12:28:02Z</time>
      </trkpt>
      <trkpt lat="42.72128" lon="1.42456">
        <ele>1588</ele>
        <time>2014-05-08T12:28:12Z</time>
      </trkpt>
      <trkpt lat="42.72128" lon="1.42454">
        <ele>1588</ele>
        <time>2014-05-08T12:28:22Z</time>
      </trkpt>
      <trkpt lat="42.72128" lon="1.42453">
        <ele>1587</ele>
        <time>2014-05-08T12:28:32Z</time>
      </trkpt>
      <trkpt lat="42.72127" lon="1.42452">
        <ele>1587</ele>
        <time>2014-05-08T12:28:42Z</time>
      </trkpt>
      <trkpt lat="42.72127" lon="1.42452">
        <ele>1587</ele>
        <time>2014-05-08T12:28:52Z</time>
      </trkpt>
      <trkpt lat="42.72127" lon="1.42452">
        <ele>1587</ele>
        <time>2014-05-08T12:29:02Z</time>
      </trkpt>
      <trkpt lat="42.72127" lon="1.42452">
        <ele>1587</ele>
        <time>2014-05-08T12:29:12Z</time>
      </trkpt>
      <trkpt lat="42.72127" lon="1.42453">
        <ele>1587</ele>
        <time>2014-05-08T12:29:23Z</time>
      </trkpt>
      <trkpt lat="42.72126" lon="1.42454">
        <ele>1587</ele>
        <time>2014-05-08T12:29:33Z</time>
      </trkpt>
      <trkpt lat="42.72128" lon="1.42455">
        <ele>1588</ele>
        <time>2014-05-08T12:29:43Z</time>
      </trkpt>
      <trkpt lat="42.72129" lon="1.42454">
        <ele>1588</ele>
        <time>2014-05-08T12:29:53Z</time>
      </trkpt>
      <trkpt lat="42.72131" lon="1.42455">
        <ele>1588</ele>
        <time>2014-05-08T12:30:03Z</time>
      </trkpt>
      <trkpt lat="42.72132" lon="1.42461">
        <ele>1588</ele>
        <time>2014-05-08T12:30:13Z</time>
      </trkpt>
      <trkpt lat="42.72132" lon="1.42468">
        <ele>1588</ele>
        <time>2014-05-08T12:30:23Z</time>
      </trkpt>
      <trkpt lat="42.72131" lon="1.42472">
        <ele>1588</ele>
        <time>2014-05-08T12:30:33Z</time>
      </trkpt>
      <trkpt lat="42.72127" lon="1.42477">
        <ele>1588</ele>
        <time>2014-05-08T12:30:43Z</time>
      </trkpt>
      <trkpt lat="42.72123" lon="1.42481">
        <ele>1588</ele>
        <time>2014-05-08T12:30:53Z</time>
      </trkpt>
      <trkpt lat="42.72121" lon="1.42483">
        <ele>1588</ele>
        <time>2014-05-08T12:31:03Z</time>
      </trkpt>
      <trkpt lat="42.72123" lon="1.4248">
        <ele>1588</ele>
        <time>2014-05-08T12:31:13Z</time>
      </trkpt>
      <trkpt lat="42.72126" lon="1.42476">
        <ele>1588</ele>
        <time>2014-05-08T12:31:23Z</time>
      </trkpt>
      <trkpt lat="42.72133" lon="1.42475">
        <ele>1588</ele>
        <time>2014-05-08T12:31:33Z</time>
      </trkpt>
      <trkpt lat="42.72139" lon="1.42474">
        <ele>1592</ele>
        <time>2014-05-08T12:31:43Z</time>
      </trkpt>
      <trkpt lat="42.72144" lon="1.42472">
        <ele>1592</ele>
        <time>2014-05-08T12:31:54Z</time>
      </trkpt>
      <trkpt lat="42.72145" lon="1.4247">
        <ele>1597</ele>
        <time>2014-05-08T12:32:04Z</time>
      </trkpt>
      <trkpt lat="42.72147" lon="1.42468">
        <ele>1597</ele>
        <time>2014-05-08T12:32:14Z</time>
      </trkpt>
      <trkpt lat="42.72152" lon="1.42468">
        <ele>1597</ele>
        <time>2014-05-08T12:32:24Z</time>
      </trkpt>
      <trkpt lat="42.72158" lon="1.42463">
        <ele>1597</ele>
        <time>2014-05-08T12:32:34Z</time>
      </trkpt>
      <trkpt lat="42.72163" lon="1.42466">
        <ele>1597</ele>
        <time>2014-05-08T12:32:44Z</time>
      </trkpt>
      <trkpt lat="42.72163" lon="1.42467">
        <ele>1597</ele>
        <time>2014-05-08T12:32:54Z</time>
      </trkpt>
      <trkpt lat="42.72162" lon="1.42466">
        <ele>1597</ele>
        <time>2014-05-08T12:33:04Z</time>
      </trkpt>
      <trkpt lat="42.7216" lon="1.42465">
        <ele>1597</ele>
        <time>2014-05-08T12:33:14Z</time>
      </trkpt>
      <trkpt lat="42.7216" lon="1.4246">
        <ele>1597</ele>
        <time>2014-05-08T12:33:24Z</time>
      </trkpt>
      <trkpt lat="42.72164" lon="1.42457">
        <ele>1603</ele>
        <time>2014-05-08T12:33:34Z</time>
      </trkpt>
      <trkpt lat="42.72171" lon="1.42452">
        <ele>1603</ele>
        <time>2014-05-08T12:33:44Z</time>
      </trkpt>
      <trkpt lat="42.72173" lon="1.42449">
        <ele>1603</ele>
        <time>2014-05-08T12:33:55Z</time>
      </trkpt>
      <trkpt lat="42.72176" lon="1.42449">
        <ele>1603</ele>
        <time>2014-05-08T12:34:05Z</time>
      </trkpt>
      <trkpt lat="42.72177" lon="1.42453">
        <ele>1607</ele>
        <time>2014-05-08T12:34:15Z</time>
      </trkpt>
      <trkpt lat="42.72176" lon="1.42455">
        <ele>1607</ele>
        <time>2014-05-08T12:34:25Z</time>
      </trkpt>
      <trkpt lat="42.72176" lon="1.42455">
        <ele>1607</ele>
        <time>2014-05-08T12:34:35Z</time>
      </trkpt>
      <trkpt lat="42.72176" lon="1.42455">
        <ele>1607</ele>
        <time>2014-05-08T12:34:45Z</time>
      </trkpt>
      <trkpt lat="42.72173" lon="1.42453">
        <ele>1607</ele>
        <time>2014-05-08T12:34:55Z</time>
      </trkpt>
      <trkpt lat="42.72169" lon="1.42451">
        <ele>1607</ele>
        <time>2014-05-08T12:35:05Z</time>
      </trkpt>
      <trkpt lat="42.72166" lon="1.4245">
        <ele>1607</ele>
        <time>2014-05-08T12:35:15Z</time>
      </trkpt>
      <trkpt lat="42.7217" lon="1.42448">
        <ele>1611</ele>
        <time>2014-05-08T12:35:25Z</time>
      </trkpt>
      <trkpt lat="42.72177" lon="1.42443">
        <ele>1611</ele>
        <time>2014-05-08T12:35:35Z</time>
      </trkpt>
      <trkpt lat="42.72181" lon="1.42437">
        <ele>1611</ele>
        <time>2014-05-08T12:35:45Z</time>
      </trkpt>
      <trkpt lat="42.72184" lon="1.42434">
        <ele>1615</ele>
        <time>2014-05-08T12:35:55Z</time>
      </trkpt>
      <trkpt lat="42.72189" lon="1.42438">
        <ele>1615</ele>
        <time>2014-05-08T12:36:05Z</time>
      </trkpt>
      <trkpt lat="42.72192" lon="1.42436">
        <ele>1619</ele>
        <time>2014-05-08T12:36:15Z</time>
      </trkpt>
      <trkpt lat="42.72194" lon="1.42432">
        <ele>1619</ele>
        <time>2014-05-08T12:36:25Z</time>
      </trkpt>
      <trkpt lat="42.72192" lon="1.42427">
        <ele>1619</ele>
        <time>2014-05-08T12:36:36Z</time>
      </trkpt>
      <trkpt lat="42.72193" lon="1.42424">
        <ele>1623</ele>
        <time>2014-05-08T12:36:46Z</time>
      </trkpt>
      <trkpt lat="42.72195" lon="1.42422">
        <ele>1623</ele>
        <time>2014-05-08T12:36:56Z</time>
      </trkpt>
      <trkpt lat="42.72195" lon="1.4242">
        <ele>1623</ele>
        <time>2014-05-08T12:37:06Z</time>
      </trkpt>
      <trkpt lat="42.72194" lon="1.42419">
        <ele>1623</ele>
        <time>2014-05-08T12:37:16Z</time>
      </trkpt>
      <trkpt lat="42.72194" lon="1.4242">
        <ele>1623</ele>
        <time>2014-05-08T12:37:26Z</time>
      </trkpt>
      <trkpt lat="42.72194" lon="1.42422">
        <ele>1623</ele>
        <time>2014-05-08T12:37:36Z</time>
      </trkpt>
      <trkpt lat="42.72194" lon="1.42422">
        <ele>1623</ele>
        <time>2014-05-08T12:37:46Z</time>
      </trkpt>
      <trkpt lat="42.72194" lon="1.42421">
        <ele>1623</ele>
        <time>2014-05-08T12:37:56Z</time>
      </trkpt>
      <trkpt lat="42.72195" lon="1.42421">
        <ele>1623</ele>
        <time>2014-05-08T12:38:06Z</time>
      </trkpt>
      <trkpt lat="42.72195" lon="1.42421">
        <ele>1623</ele>
        <time>2014-05-08T12:38:16Z</time>
      </trkpt>
      <trkpt lat="42.72195" lon="1.42421">
        <ele>1623</ele>
        <time>2014-05-08T12:38:26Z</time>
      </trkpt>
      <trkpt lat="42.72196" lon="1.42421">
        <ele>1623</ele>
        <time>2014-05-08T12:38:36Z</time>
      </trkpt>
      <trkpt lat="42.72195" lon="1.42421">
        <ele>1623</ele>
        <time>2014-05-08T12:38:46Z</time>
      </trkpt>
      <trkpt lat="42.72195" lon="1.42423">
        <ele>1623</ele>
        <time>2014-05-08T12:38:57Z</time>
      </trkpt>
      <trkpt lat="42.72195" lon="1.42423">
        <ele>1623</ele>
        <time>2014-05-08T12:39:07Z</time>
      </trkpt>
      <trkpt lat="42.72195" lon="1.42423">
        <ele>1624</ele>
        <time>2014-05-08T12:39:17Z</time>
      </trkpt>
      <trkpt lat="42.72194" lon="1.42424">
        <ele>1624</ele>
        <time>2014-05-08T12:39:27Z</time>
      </trkpt>
      <trkpt lat="42.72192" lon="1.42425">
        <ele>1624</ele>
        <time>2014-05-08T12:39:37Z</time>
      </trkpt>
      <trkpt lat="42.72192" lon="1.42425">
        <ele>1624</ele>
        <time>2014-05-08T12:39:47Z</time>
      </trkpt>
      <trkpt lat="42.72192" lon="1.42424">
        <ele>1624</ele>
        <time>2014-05-08T12:39:57Z</time>
      </trkpt>
      <trkpt lat="42.72191" lon="1.42424">
        <ele>1624</ele>
        <time>2014-05-08T12:40:07Z</time>
      </trkpt>
      <trkpt lat="42.72191" lon="1.42423">
        <ele>1624</ele>
        <time>2014-05-08T12:40:17Z</time>
      </trkpt>
      <trkpt lat="42.72191" lon="1.42423">
        <ele>1624</ele>
        <time>2014-05-08T12:40:27Z</time>
      </trkpt>
      <trkpt lat="42.72191" lon="1.42422">
        <ele>1624</ele>
        <time>2014-05-08T12:40:37Z</time>
      </trkpt>
      <trkpt lat="42.72192" lon="1.42421">
        <ele>1624</ele>
        <time>2014-05-08T12:40:47Z</time>
      </trkpt>
      <trkpt lat="42.72193" lon="1.4242">
        <ele>1624</ele>
        <time>2014-05-08T12:40:57Z</time>
      </trkpt>
      <trkpt lat="42.72194" lon="1.4242">
        <ele>1624</ele>
        <time>2014-05-08T12:41:07Z</time>
      </trkpt>
      <trkpt lat="42.72194" lon="1.4242">
        <ele>1624</ele>
        <time>2014-05-08T12:41:17Z</time>
      </trkpt>
      <trkpt lat="42.72194" lon="1.4242">
        <ele>1624</ele>
        <time>2014-05-08T12:41:27Z</time>
      </trkpt>
      <trkpt lat="42.72194" lon="1.4242">
        <ele>1624</ele>
        <time>2014-05-08T12:41:37Z</time>
      </trkpt>
      <trkpt lat="42.72194" lon="1.42421">
        <ele>1624</ele>
        <time>2014-05-08T12:41:48Z</time>
      </trkpt>
      <trkpt lat="42.72192" lon="1.42421">
        <ele>1624</ele>
        <time>2014-05-08T12:41:58Z</time>
      </trkpt>
      <trkpt lat="42.72194" lon="1.4242">
        <ele>1624</ele>
        <time>2014-05-08T12:42:08Z</time>
      </trkpt>
      <trkpt lat="42.72194" lon="1.42419">
        <ele>1624</ele>
        <time>2014-05-08T12:42:18Z</time>
      </trkpt>
      <trkpt lat="42.72193" lon="1.42419">
        <ele>1624</ele>
        <time>2014-05-08T12:42:28Z</time>
      </trkpt>
      <trkpt lat="42.72193" lon="1.42419">
        <ele>1624</ele>
        <time>2014-05-08T12:42:38Z</time>
      </trkpt>
      <trkpt lat="42.72192" lon="1.42418">
        <ele>1624</ele>
        <time>2014-05-08T12:42:48Z</time>
      </trkpt>
      <trkpt lat="42.72192" lon="1.42418">
        <ele>1624</ele>
        <time>2014-05-08T12:42:58Z</time>
      </trkpt>
      <trkpt lat="42.72193" lon="1.42418">
        <ele>1624</ele>
        <time>2014-05-08T12:43:08Z</time>
      </trkpt>
      <trkpt lat="42.72194" lon="1.42418">
        <ele>1624</ele>
        <time>2014-05-08T12:43:18Z</time>
      </trkpt>
      <trkpt lat="42.72194" lon="1.42417">
        <ele>1624</ele>
        <time>2014-05-08T12:43:28Z</time>
      </trkpt>
      <trkpt lat="42.72195" lon="1.42418">
        <ele>1624</ele>
        <time>2014-05-08T12:43:38Z</time>
      </trkpt>
      <trkpt lat="42.72196" lon="1.42418">
        <ele>1624</ele>
        <time>2014-05-08T12:43:48Z</time>
      </trkpt>
      <trkpt lat="42.72197" lon="1.42418">
        <ele>1624</ele>
        <time>2014-05-08T12:43:58Z</time>
      </trkpt>
      <trkpt lat="42.72197" lon="1.42415">
        <ele>1624</ele>
        <time>2014-05-08T12:44:08Z</time>
      </trkpt>
      <trkpt lat="42.722" lon="1.42415">
        <ele>1624</ele>
        <time>2014-05-08T12:44:19Z</time>
      </trkpt>
      <trkpt lat="42.72201" lon="1.42412">
        <ele>1624</ele>
        <time>2014-05-08T12:44:29Z</time>
      </trkpt>
      <trkpt lat="42.72204" lon="1.42411">
        <ele>1624</ele>
        <time>2014-05-08T12:44:39Z</time>
      </trkpt>
      <trkpt lat="42.72207" lon="1.4241">
        <ele>1629</ele>
        <time>2014-05-08T12:44:49Z</time>
      </trkpt>
      <trkpt lat="42.7221" lon="1.4241">
        <ele>1629</ele>
        <time>2014-05-08T12:44:59Z</time>
      </trkpt>
      <trkpt lat="42.72215" lon="1.4241">
        <ele>1629</ele>
        <time>2014-05-08T12:45:09Z</time>
      </trkpt>
      <trkpt lat="42.72219" lon="1.42409">
        <ele>1634</ele>
        <time>2014-05-08T12:45:19Z</time>
      </trkpt>
      <trkpt lat="42.72221" lon="1.42408">
        <ele>1634</ele>
        <time>2014-05-08T12:45:29Z</time>
      </trkpt>
      <trkpt lat="42.72222" lon="1.42408">
        <ele>1634</ele>
        <time>2014-05-08T12:45:39Z</time>
      </trkpt>
      <trkpt lat="42.72224" lon="1.42401">
        <ele>1634</ele>
        <time>2014-05-08T12:45:49Z</time>
      </trkpt>
      <trkpt lat="42.72227" lon="1.42396">
        <ele>1639</ele>
        <time>2014-05-08T12:45:59Z</time>
      </trkpt>
      <trkpt lat="42.7223" lon="1.42391">
        <ele>1639</ele>
        <time>2014-05-08T12:46:09Z</time>
      </trkpt>
      <trkpt lat="42.72234" lon="1.42388">
        <ele>1643</ele>
        <time>2014-05-08T12:46:19Z</time>
      </trkpt>
      <trkpt lat="42.72238" lon="1.42385">
        <ele>1643</ele>
        <time>2014-05-08T12:46:29Z</time>
      </trkpt>
      <trkpt lat="42.7224" lon="1.42385">
        <ele>1643</ele>
        <time>2014-05-08T12:46:39Z</time>
      </trkpt>
      <trkpt lat="42.72244" lon="1.42384">
        <ele>1643</ele>
        <time>2014-05-08T12:46:50Z</time>
      </trkpt>
      <trkpt lat="42.7225" lon="1.42376">
        <ele>1643</ele>
        <time>2014-05-08T12:47:00Z</time>
      </trkpt>
      <trkpt lat="42.72254" lon="1.42372">
        <ele>1648</ele>
        <time>2014-05-08T12:47:10Z</time>
      </trkpt>
      <trkpt lat="42.72253" lon="1.4237">
        <ele>1648</ele>
        <time>2014-05-08T12:47:20Z</time>
      </trkpt>
      <trkpt lat="42.72252" lon="1.4237">
        <ele>1648</ele>
        <time>2014-05-08T12:47:30Z</time>
      </trkpt>
      <trkpt lat="42.72254" lon="1.4237">
        <ele>1648</ele>
        <time>2014-05-08T12:47:40Z</time>
      </trkpt>
      <trkpt lat="42.72255" lon="1.42365">
        <ele>1648</ele>
        <time>2014-05-08T12:47:50Z</time>
      </trkpt>
      <trkpt lat="42.72258" lon="1.42351">
        <ele>1648</ele>
        <time>2014-05-08T12:48:00Z</time>
      </trkpt>
      <trkpt lat="42.72261" lon="1.42344">
        <ele>1648</ele>
        <time>2014-05-08T12:48:10Z</time>
      </trkpt>
      <trkpt lat="42.72268" lon="1.42341">
        <ele>1648</ele>
        <time>2014-05-08T12:48:20Z</time>
      </trkpt>
      <trkpt lat="42.72268" lon="1.42335">
        <ele>1648</ele>
        <time>2014-05-08T12:48:30Z</time>
      </trkpt>
      <trkpt lat="42.72266" lon="1.42335">
        <ele>1644</ele>
        <time>2014-05-08T12:48:40Z</time>
      </trkpt>
      <trkpt lat="42.72266" lon="1.42335">
        <ele>1644</ele>
        <time>2014-05-08T12:48:50Z</time>
      </trkpt>
      <trkpt lat="42.72266" lon="1.42335">
        <ele>1644</ele>
        <time>2014-05-08T12:49:00Z</time>
      </trkpt>
      <trkpt lat="42.72266" lon="1.42336">
        <ele>1644</ele>
        <time>2014-05-08T12:49:11Z</time>
      </trkpt>
      <trkpt lat="42.72265" lon="1.42336">
        <ele>1644</ele>
        <time>2014-05-08T12:49:21Z</time>
      </trkpt>
      <trkpt lat="42.72265" lon="1.42336">
        <ele>1644</ele>
        <time>2014-05-08T12:49:31Z</time>
      </trkpt>
      <trkpt lat="42.72265" lon="1.42336">
        <ele>1644</ele>
        <time>2014-05-08T12:49:41Z</time>
      </trkpt>
      <trkpt lat="42.72261" lon="1.42337">
        <ele>1644</ele>
        <time>2014-05-08T12:49:51Z</time>
      </trkpt>
      <trkpt lat="42.72257" lon="1.42341">
        <ele>1644</ele>
        <time>2014-05-08T12:50:01Z</time>
      </trkpt>
      <trkpt lat="42.72255" lon="1.42342">
        <ele>1644</ele>
        <time>2014-05-08T12:50:11Z</time>
      </trkpt>
      <trkpt lat="42.7225" lon="1.42347">
        <ele>1644</ele>
        <time>2014-05-08T12:50:21Z</time>
      </trkpt>
      <trkpt lat="42.72244" lon="1.4235">
        <ele>1650</ele>
        <time>2014-05-08T12:50:31Z</time>
      </trkpt>
      <trkpt lat="42.72246" lon="1.4235">
        <ele>1650</ele>
        <time>2014-05-08T12:50:41Z</time>
      </trkpt>
      <trkpt lat="42.72248" lon="1.4235">
        <ele>1650</ele>
        <time>2014-05-08T12:50:51Z</time>
      </trkpt>
      <trkpt lat="42.72248" lon="1.42347">
        <ele>1650</ele>
        <time>2014-05-08T12:51:01Z</time>
      </trkpt>
      <trkpt lat="42.7225" lon="1.42344">
        <ele>1650</ele>
        <time>2014-05-08T12:51:11Z</time>
      </trkpt>
      <trkpt lat="42.7225" lon="1.42339">
        <ele>1650</ele>
        <time>2014-05-08T12:51:21Z</time>
      </trkpt>
      <trkpt lat="42.72248" lon="1.42332">
        <ele>1650</ele>
        <time>2014-05-08T12:51:31Z</time>
      </trkpt>
      <trkpt lat="42.7225" lon="1.42323">
        <ele>1650</ele>
        <time>2014-05-08T12:51:42Z</time>
      </trkpt>
      <trkpt lat="42.72249" lon="1.42313">
        <ele>1650</ele>
        <time>2014-05-08T12:51:52Z</time>
      </trkpt>
      <trkpt lat="42.7225" lon="1.42306">
        <ele>1650</ele>
        <time>2014-05-08T12:52:02Z</time>
      </trkpt>
      <trkpt lat="42.72251" lon="1.42294">
        <ele>1650</ele>
        <time>2014-05-08T12:52:12Z</time>
      </trkpt>
      <trkpt lat="42.7225" lon="1.42289">
        <ele>1650</ele>
        <time>2014-05-08T12:52:22Z</time>
      </trkpt>
      <trkpt lat="42.72249" lon="1.42287">
        <ele>1650</ele>
        <time>2014-05-08T12:52:32Z</time>
      </trkpt>
      <trkpt lat="42.7225" lon="1.42286">
        <ele>1653</ele>
        <time>2014-05-08T12:52:42Z</time>
      </trkpt>
      <trkpt lat="42.72256" lon="1.42285">
        <ele>1653</ele>
        <time>2014-05-08T12:52:52Z</time>
      </trkpt>
      <trkpt lat="42.72258" lon="1.42286">
        <ele>1653</ele>
        <time>2014-05-08T12:53:02Z</time>
      </trkpt>
      <trkpt lat="42.72261" lon="1.42283">
        <ele>1648</ele>
        <time>2014-05-08T12:53:12Z</time>
      </trkpt>
      <trkpt lat="42.72259" lon="1.42279">
        <ele>1648</ele>
        <time>2014-05-08T12:53:22Z</time>
      </trkpt>
      <trkpt lat="42.72254" lon="1.42273">
        <ele>1648</ele>
        <time>2014-05-08T12:53:32Z</time>
      </trkpt>
      <trkpt lat="42.72255" lon="1.4227">
        <ele>1648</ele>
        <time>2014-05-08T12:53:42Z</time>
      </trkpt>
      <trkpt lat="42.72255" lon="1.42269">
        <ele>1648</ele>
        <time>2014-05-08T12:53:53Z</time>
      </trkpt>
      <trkpt lat="42.72255" lon="1.42264">
        <ele>1648</ele>
        <time>2014-05-08T12:54:03Z</time>
      </trkpt>
      <trkpt lat="42.72254" lon="1.42264">
        <ele>1648</ele>
        <time>2014-05-08T12:54:13Z</time>
      </trkpt>
      <trkpt lat="42.72254" lon="1.42263">
        <ele>1651</ele>
        <time>2014-05-08T12:54:23Z</time>
      </trkpt>
      <trkpt lat="42.72252" lon="1.42266">
        <ele>1651</ele>
        <time>2014-05-08T12:54:33Z</time>
      </trkpt>
      <trkpt lat="42.7225" lon="1.42268">
        <ele>1651</ele>
        <time>2014-05-08T12:54:43Z</time>
      </trkpt>
      <trkpt lat="42.7225" lon="1.42271">
        <ele>1651</ele>
        <time>2014-05-08T12:54:53Z</time>
      </trkpt>
      <trkpt lat="42.7225" lon="1.42272">
        <ele>1651</ele>
        <time>2014-05-08T12:55:03Z</time>
      </trkpt>
      <trkpt lat="42.72251" lon="1.42272">
        <ele>1651</ele>
        <time>2014-05-08T12:55:13Z</time>
      </trkpt>
      <trkpt lat="42.72251" lon="1.42272">
        <ele>1651</ele>
        <time>2014-05-08T12:55:23Z</time>
      </trkpt>
      <trkpt lat="42.72251" lon="1.42272">
        <ele>1651</ele>
        <time>2014-05-08T12:55:33Z</time>
      </trkpt>
      <trkpt lat="42.72251" lon="1.42272">
        <ele>1651</ele>
        <time>2014-05-08T12:55:43Z</time>
      </trkpt>
      <trkpt lat="42.72251" lon="1.42271">
        <ele>1651</ele>
        <time>2014-05-08T12:55:53Z</time>
      </trkpt>
      <trkpt lat="42.72248" lon="1.42269">
        <ele>1650</ele>
        <time>2014-05-08T12:56:03Z</time>
      </trkpt>
      <trkpt lat="42.72247" lon="1.42265">
        <ele>1650</ele>
        <time>2014-05-08T12:56:13Z</time>
      </trkpt>
      <trkpt lat="42.7225" lon="1.42263">
        <ele>1650</ele>
        <time>2014-05-08T12:56:23Z</time>
      </trkpt>
      <trkpt lat="42.72253" lon="1.42256">
        <ele>1650</ele>
        <time>2014-05-08T12:56:34Z</time>
      </trkpt>
      <trkpt lat="42.72254" lon="1.42255">
        <ele>1650</ele>
        <time>2014-05-08T12:56:44Z</time>
      </trkpt>
      <trkpt lat="42.72259" lon="1.42252">
        <ele>1650</ele>
        <time>2014-05-08T12:56:54Z</time>
      </trkpt>
      <trkpt lat="42.72263" lon="1.42257">
        <ele>1650</ele>
        <time>2014-05-08T12:57:04Z</time>
      </trkpt>
      <trkpt lat="42.72266" lon="1.4226">
        <ele>1650</ele>
        <time>2014-05-08T12:57:14Z</time>
      </trkpt>
      <trkpt lat="42.72266" lon="1.4226">
        <ele>1656</ele>
        <time>2014-05-08T12:57:24Z</time>
      </trkpt>
      <trkpt lat="42.72265" lon="1.42261">
        <ele>1656</ele>
        <time>2014-05-08T12:57:34Z</time>
      </trkpt>
      <trkpt lat="42.72265" lon="1.4226">
        <ele>1656</ele>
        <time>2014-05-08T12:57:44Z</time>
      </trkpt>
      <trkpt lat="42.72265" lon="1.42259">
        <ele>1661</ele>
        <time>2014-05-08T12:57:54Z</time>
      </trkpt>
      <trkpt lat="42.72266" lon="1.42259">
        <ele>1656</ele>
        <time>2014-05-08T12:58:04Z</time>
      </trkpt>
      <trkpt lat="42.72266" lon="1.42259">
        <ele>1656</ele>
        <time>2014-05-08T12:58:14Z</time>
      </trkpt>
      <trkpt lat="42.72267" lon="1.42259">
        <ele>1656</ele>
        <time>2014-05-08T12:58:24Z</time>
      </trkpt>
      <trkpt lat="42.72267" lon="1.42259">
        <ele>1656</ele>
        <time>2014-05-08T12:58:34Z</time>
      </trkpt>
      <trkpt lat="42.72268" lon="1.42259">
        <ele>1656</ele>
        <time>2014-05-08T12:58:44Z</time>
      </trkpt>
      <trkpt lat="42.72268" lon="1.42259">
        <ele>1656</ele>
        <time>2014-05-08T12:58:54Z</time>
      </trkpt>
      <trkpt lat="42.72268" lon="1.42259">
        <ele>1656</ele>
        <time>2014-05-08T12:59:04Z</time>
      </trkpt>
      <trkpt lat="42.72268" lon="1.42259">
        <ele>1656</ele>
        <time>2014-05-08T12:59:14Z</time>
      </trkpt>
      <trkpt lat="42.72268" lon="1.42259">
        <ele>1656</ele>
        <time>2014-05-08T12:59:25Z</time>
      </trkpt>
      <trkpt lat="42.72268" lon="1.42259">
        <ele>1656</ele>
        <time>2014-05-08T12:59:35Z</time>
      </trkpt>
      <trkpt lat="42.72269" lon="1.42259">
        <ele>1656</ele>
        <time>2014-05-08T12:59:45Z</time>
      </trkpt>
      <trkpt lat="42.7227" lon="1.42258">
        <ele>1656</ele>
        <time>2014-05-08T12:59:55Z</time>
      </trkpt>
      <trkpt lat="42.72276" lon="1.42256">
        <ele>1656</ele>
        <time>2014-05-08T13:00:05Z</time>
      </trkpt>
      <trkpt lat="42.72283" lon="1.42259">
        <ele>1656</ele>
        <time>2014-05-08T13:00:15Z</time>
      </trkpt>
      <trkpt lat="42.72289" lon="1.42257">
        <ele>1663</ele>
        <time>2014-05-08T13:00:25Z</time>
      </trkpt>
      <trkpt lat="42.72293" lon="1.42256">
        <ele>1663</ele>
        <time>2014-05-08T13:00:35Z</time>
      </trkpt>
      <trkpt lat="42.72291" lon="1.42258">
        <ele>1663</ele>
        <time>2014-05-08T13:00:45Z</time>
      </trkpt>
      <trkpt lat="42.72294" lon="1.42255">
        <ele>1663</ele>
        <time>2014-05-08T13:00:55Z</time>
      </trkpt>
      <trkpt lat="42.72299" lon="1.42255">
        <ele>1663</ele>
        <time>2014-05-08T13:01:05Z</time>
      </trkpt>
      <trkpt lat="42.72301" lon="1.42258">
        <ele>1663</ele>
        <time>2014-05-08T13:01:15Z</time>
      </trkpt>
      <trkpt lat="42.72305" lon="1.42257">
        <ele>1667</ele>
        <time>2014-05-08T13:01:25Z</time>
      </trkpt>
      <trkpt lat="42.72306" lon="1.42256">
        <ele>1667</ele>
        <time>2014-05-08T13:01:35Z</time>
      </trkpt>
      <trkpt lat="42.72307" lon="1.42255">
        <ele>1667</ele>
        <time>2014-05-08T13:01:45Z</time>
      </trkpt>
      <trkpt lat="42.72311" lon="1.4225">
        <ele>1667</ele>
        <time>2014-05-08T13:01:56Z</time>
      </trkpt>
      <trkpt lat="42.72314" lon="1.42246">
        <ele>1671</ele>
        <time>2014-05-08T13:02:06Z</time>
      </trkpt>
      <trkpt lat="42.72319" lon="1.42247">
        <ele>1671</ele>
        <time>2014-05-08T13:02:16Z</time>
      </trkpt>
      <trkpt lat="42.72319" lon="1.42246">
        <ele>1671</ele>
        <time>2014-05-08T13:02:26Z</time>
      </trkpt>
      <trkpt lat="42.72318" lon="1.42245">
        <ele>1671</ele>
        <time>2014-05-08T13:02:36Z</time>
      </trkpt>
      <trkpt lat="42.7232" lon="1.4224">
        <ele>1671</ele>
        <time>2014-05-08T13:02:46Z</time>
      </trkpt>
      <trkpt lat="42.72321" lon="1.42239">
        <ele>1675</ele>
        <time>2014-05-08T13:02:56Z</time>
      </trkpt>
      <trkpt lat="42.7232" lon="1.42239">
        <ele>1675</ele>
        <time>2014-05-08T13:03:06Z</time>
      </trkpt>
      <trkpt lat="42.72321" lon="1.42237">
        <ele>1675</ele>
        <time>2014-05-08T13:03:16Z</time>
      </trkpt>
      <trkpt lat="42.72323" lon="1.42233">
        <ele>1675</ele>
        <time>2014-05-08T13:03:26Z</time>
      </trkpt>
      <trkpt lat="42.72327" lon="1.42229">
        <ele>1675</ele>
        <time>2014-05-08T13:03:37Z</time>
      </trkpt>
      <trkpt lat="42.72331" lon="1.42226">
        <ele>1679</ele>
        <time>2014-05-08T13:03:47Z</time>
      </trkpt>
      <trkpt lat="42.72332" lon="1.42226">
        <ele>1679</ele>
        <time>2014-05-08T13:03:57Z</time>
      </trkpt>
      <trkpt lat="42.72332" lon="1.42227">
        <ele>1679</ele>
        <time>2014-05-08T13:04:07Z</time>
      </trkpt>
      <trkpt lat="42.72332" lon="1.42228">
        <ele>1679</ele>
        <time>2014-05-08T13:04:17Z</time>
      </trkpt>
      <trkpt lat="42.72334" lon="1.42224">
        <ele>1679</ele>
        <time>2014-05-08T13:04:27Z</time>
      </trkpt>
      <trkpt lat="42.72337" lon="1.42218">
        <ele>1679</ele>
        <time>2014-05-08T13:04:37Z</time>
      </trkpt>
      <trkpt lat="42.72335" lon="1.42209">
        <ele>1685</ele>
        <time>2014-05-08T13:04:47Z</time>
      </trkpt>
      <trkpt lat="42.72333" lon="1.42205">
        <ele>1685</ele>
        <time>2014-05-08T13:04:57Z</time>
      </trkpt>
      <trkpt lat="42.72334" lon="1.42201">
        <ele>1685</ele>
        <time>2014-05-08T13:05:07Z</time>
      </trkpt>
      <trkpt lat="42.72335" lon="1.422">
        <ele>1685</ele>
        <time>2014-05-08T13:05:17Z</time>
      </trkpt>
      <trkpt lat="42.72335" lon="1.42199">
        <ele>1685</ele>
        <time>2014-05-08T13:05:27Z</time>
      </trkpt>
      <trkpt lat="42.72335" lon="1.42198">
        <ele>1685</ele>
        <time>2014-05-08T13:05:37Z</time>
      </trkpt>
      <trkpt lat="42.72336" lon="1.42198">
        <ele>1685</ele>
        <time>2014-05-08T13:05:47Z</time>
      </trkpt>
      <trkpt lat="42.72337" lon="1.42197">
        <ele>1685</ele>
        <time>2014-05-08T13:05:57Z</time>
      </trkpt>
      <trkpt lat="42.72336" lon="1.42197">
        <ele>1685</ele>
        <time>2014-05-08T13:06:07Z</time>
      </trkpt>
      <trkpt lat="42.72336" lon="1.42198">
        <ele>1685</ele>
        <time>2014-05-08T13:06:18Z</time>
      </trkpt>
      <trkpt lat="42.72337" lon="1.42198">
        <ele>1685</ele>
        <time>2014-05-08T13:06:28Z</time>
      </trkpt>
      <trkpt lat="42.72337" lon="1.422">
        <ele>1685</ele>
        <time>2014-05-08T13:06:38Z</time>
      </trkpt>
      <trkpt lat="42.72336" lon="1.42201">
        <ele>1685</ele>
        <time>2014-05-08T13:06:48Z</time>
      </trkpt>
      <trkpt lat="42.72335" lon="1.42201">
        <ele>1685</ele>
        <time>2014-05-08T13:06:58Z</time>
      </trkpt>
      <trkpt lat="42.72334" lon="1.422">
        <ele>1685</ele>
        <time>2014-05-08T13:07:08Z</time>
      </trkpt>
      <trkpt lat="42.72334" lon="1.42199">
        <ele>1685</ele>
        <time>2014-05-08T13:07:18Z</time>
      </trkpt>
      <trkpt lat="42.72331" lon="1.42191">
        <ele>1685</ele>
        <time>2014-05-08T13:07:28Z</time>
      </trkpt>
      <trkpt lat="42.7233" lon="1.42187">
        <ele>1685</ele>
        <time>2014-05-08T13:07:38Z</time>
      </trkpt>
      <trkpt lat="42.72333" lon="1.42177">
        <ele>1685</ele>
        <time>2014-05-08T13:07:48Z</time>
      </trkpt>
      <trkpt lat="42.72336" lon="1.42168">
        <ele>1690</ele>
        <time>2014-05-08T13:07:58Z</time>
      </trkpt>
      <trkpt lat="42.72339" lon="1.42159">
        <ele>1690</ele>
        <time>2014-05-08T13:08:08Z</time>
      </trkpt>
      <trkpt lat="42.72345" lon="1.42155">
        <ele>1690</ele>
        <time>2014-05-08T13:08:18Z</time>
      </trkpt>
      <trkpt lat="42.7235" lon="1.42151">
        <ele>1694</ele>
        <time>2014-05-08T13:08:29Z</time>
      </trkpt>
      <trkpt lat="42.72349" lon="1.42149">
        <ele>1694</ele>
        <time>2014-05-08T13:08:39Z</time>
      </trkpt>
      <trkpt lat="42.72353" lon="1.42149">
        <ele>1694</ele>
        <time>2014-05-08T13:08:49Z</time>
      </trkpt>
      <trkpt lat="42.72353" lon="1.4215">
        <ele>1694</ele>
        <time>2014-05-08T13:08:59Z</time>
      </trkpt>
      <trkpt lat="42.72356" lon="1.42152">
        <ele>1694</ele>
        <time>2014-05-08T13:09:09Z</time>
      </trkpt>
      <trkpt lat="42.7236" lon="1.42153">
        <ele>1694</ele>
        <time>2014-05-08T13:09:19Z</time>
      </trkpt>
      <trkpt lat="42.72363" lon="1.42157">
        <ele>1698</ele>
        <time>2014-05-08T13:09:29Z</time>
      </trkpt>
      <trkpt lat="42.72362" lon="1.4216">
        <ele>1698</ele>
        <time>2014-05-08T13:09:39Z</time>
      </trkpt>
      <trkpt lat="42.72363" lon="1.42164">
        <ele>1698</ele>
        <time>2014-05-08T13:09:49Z</time>
      </trkpt>
      <trkpt lat="42.72364" lon="1.42163">
        <ele>1698</ele>
        <time>2014-05-08T13:09:59Z</time>
      </trkpt>
      <trkpt lat="42.72364" lon="1.4216">
        <ele>1698</ele>
        <time>2014-05-08T13:10:09Z</time>
      </trkpt>
      <trkpt lat="42.72367" lon="1.42156">
        <ele>1698</ele>
        <time>2014-05-08T13:10:19Z</time>
      </trkpt>
      <trkpt lat="42.72371" lon="1.42156">
        <ele>1698</ele>
        <time>2014-05-08T13:10:29Z</time>
      </trkpt>
      <trkpt lat="42.72374" lon="1.42156">
        <ele>1702</ele>
        <time>2014-05-08T13:10:40Z</time>
      </trkpt>
      <trkpt lat="42.72379" lon="1.42152">
        <ele>1702</ele>
        <time>2014-05-08T13:10:50Z</time>
      </trkpt>
      <trkpt lat="42.72378" lon="1.42144">
        <ele>1702</ele>
        <time>2014-05-08T13:11:00Z</time>
      </trkpt>
      <trkpt lat="42.72379" lon="1.42141">
        <ele>1706</ele>
        <time>2014-05-08T13:11:10Z</time>
      </trkpt>
      <trkpt lat="42.7238" lon="1.4214">
        <ele>1706</ele>
        <time>2014-05-08T13:11:20Z</time>
      </trkpt>
      <trkpt lat="42.7238" lon="1.42141">
        <ele>1706</ele>
        <time>2014-05-08T13:11:30Z</time>
      </trkpt>
      <trkpt lat="42.7238" lon="1.42141">
        <ele>1706</ele>
        <time>2014-05-08T13:11:40Z</time>
      </trkpt>
      <trkpt lat="42.7238" lon="1.42142">
        <ele>1706</ele>
        <time>2014-05-08T13:11:50Z</time>
      </trkpt>
      <trkpt lat="42.72382" lon="1.42143">
        <ele>1706</ele>
        <time>2014-05-08T13:12:00Z</time>
      </trkpt>
      <trkpt lat="42.72379" lon="1.42138">
        <ele>1706</ele>
        <time>2014-05-08T13:12:10Z</time>
      </trkpt>
      <trkpt lat="42.72379" lon="1.42134">
        <ele>1706</ele>
        <time>2014-05-08T13:12:20Z</time>
      </trkpt>
      <trkpt lat="42.72379" lon="1.42134">
        <ele>1706</ele>
        <time>2014-05-08T13:12:30Z</time>
      </trkpt>
      <trkpt lat="42.72381" lon="1.42129">
        <ele>1706</ele>
        <time>2014-05-08T13:12:40Z</time>
      </trkpt>
      <trkpt lat="42.72383" lon="1.42127">
        <ele>1711</ele>
        <time>2014-05-08T13:12:50Z</time>
      </trkpt>
      <trkpt lat="42.72384" lon="1.42127">
        <ele>1711</ele>
        <time>2014-05-08T13:13:00Z</time>
      </trkpt>
      <trkpt lat="42.72387" lon="1.42121">
        <ele>1711</ele>
        <time>2014-05-08T13:13:10Z</time>
      </trkpt>
      <trkpt lat="42.72388" lon="1.42123">
        <ele>1711</ele>
        <time>2014-05-08T13:13:20Z</time>
      </trkpt>
      <trkpt lat="42.72386" lon="1.4213">
        <ele>1711</ele>
        <time>2014-05-08T13:13:31Z</time>
      </trkpt>
      <trkpt lat="42.72387" lon="1.42132">
        <ele>1711</ele>
        <time>2014-05-08T13:13:41Z</time>
      </trkpt>
      <trkpt lat="42.72387" lon="1.4213">
        <ele>1711</ele>
        <time>2014-05-08T13:13:51Z</time>
      </trkpt>
      <trkpt lat="42.72384" lon="1.42132">
        <ele>1711</ele>
        <time>2014-05-08T13:14:01Z</time>
      </trkpt>
      <trkpt lat="42.7238" lon="1.42134">
        <ele>1711</ele>
        <time>2014-05-08T13:14:11Z</time>
      </trkpt>
      <trkpt lat="42.72378" lon="1.42128">
        <ele>1711</ele>
        <time>2014-05-08T13:14:21Z</time>
      </trkpt>
      <trkpt lat="42.72377" lon="1.42119">
        <ele>1711</ele>
        <time>2014-05-08T13:14:31Z</time>
      </trkpt>
      <trkpt lat="42.72378" lon="1.42113">
        <ele>1715</ele>
        <time>2014-05-08T13:14:41Z</time>
      </trkpt>
      <trkpt lat="42.72378" lon="1.42107">
        <ele>1715</ele>
        <time>2014-05-08T13:14:51Z</time>
      </trkpt>
      <trkpt lat="42.72384" lon="1.42102">
        <ele>1715</ele>
        <time>2014-05-08T13:15:01Z</time>
      </trkpt>
      <trkpt lat="42.7239" lon="1.42097">
        <ele>1715</ele>
        <time>2014-05-08T13:15:11Z</time>
      </trkpt>
      <trkpt lat="42.72396" lon="1.42093">
        <ele>1719</ele>
        <time>2014-05-08T13:15:21Z</time>
      </trkpt>
      <trkpt lat="42.72401" lon="1.42088">
        <ele>1719</ele>
        <time>2014-05-08T13:15:31Z</time>
      </trkpt>
      <trkpt lat="42.72403" lon="1.42088">
        <ele>1719</ele>
        <time>2014-05-08T13:15:41Z</time>
      </trkpt>
      <trkpt lat="42.72403" lon="1.42088">
        <ele>1719</ele>
        <time>2014-05-08T13:15:51Z</time>
      </trkpt>
      <trkpt lat="42.72404" lon="1.42087">
        <ele>1719</ele>
        <time>2014-05-08T13:16:02Z</time>
      </trkpt>
      <trkpt lat="42.72405" lon="1.42087">
        <ele>1719</ele>
        <time>2014-05-08T13:16:12Z</time>
      </trkpt>
      <trkpt lat="42.72404" lon="1.42086">
        <ele>1719</ele>
        <time>2014-05-08T13:16:22Z</time>
      </trkpt>
      <trkpt lat="42.72406" lon="1.42086">
        <ele>1719</ele>
        <time>2014-05-08T13:16:32Z</time>
      </trkpt>
      <trkpt lat="42.72407" lon="1.42087">
        <ele>1719</ele>
        <time>2014-05-08T13:16:42Z</time>
      </trkpt>
      <trkpt lat="42.72407" lon="1.42089">
        <ele>1719</ele>
        <time>2014-05-08T13:16:52Z</time>
      </trkpt>
      <trkpt lat="42.72407" lon="1.42089">
        <ele>1719</ele>
        <time>2014-05-08T13:17:02Z</time>
      </trkpt>
      <trkpt lat="42.72407" lon="1.42091">
        <ele>1719</ele>
        <time>2014-05-08T13:17:12Z</time>
      </trkpt>
      <trkpt lat="42.72406" lon="1.42096">
        <ele>1719</ele>
        <time>2014-05-08T13:17:22Z</time>
      </trkpt>
      <trkpt lat="42.72408" lon="1.42101">
        <ele>1719</ele>
        <time>2014-05-08T13:17:32Z</time>
      </trkpt>
      <trkpt lat="42.7241" lon="1.42104">
        <ele>1719</ele>
        <time>2014-05-08T13:17:42Z</time>
      </trkpt>
      <trkpt lat="42.72409" lon="1.42102">
        <ele>1719</ele>
        <time>2014-05-08T13:17:52Z</time>
      </trkpt>
      <trkpt lat="42.72408" lon="1.42099">
        <ele>1719</ele>
        <time>2014-05-08T13:18:02Z</time>
      </trkpt>
      <trkpt lat="42.72407" lon="1.42097">
        <ele>1720</ele>
        <time>2014-05-08T13:18:12Z</time>
      </trkpt>
      <trkpt lat="42.72406" lon="1.42095">
        <ele>1720</ele>
        <time>2014-05-08T13:18:22Z</time>
      </trkpt>
      <trkpt lat="42.72404" lon="1.42095">
        <ele>1720</ele>
        <time>2014-05-08T13:18:32Z</time>
      </trkpt>
      <trkpt lat="42.72402" lon="1.42094">
        <ele>1720</ele>
        <time>2014-05-08T13:18:42Z</time>
      </trkpt>
      <trkpt lat="42.72401" lon="1.4209">
        <ele>1720</ele>
        <time>2014-05-08T13:18:53Z</time>
      </trkpt>
      <trkpt lat="42.724" lon="1.42089">
        <ele>1720</ele>
        <time>2014-05-08T13:19:03Z</time>
      </trkpt>
      <trkpt lat="42.724" lon="1.42092">
        <ele>1720</ele>
        <time>2014-05-08T13:19:13Z</time>
      </trkpt>
      <trkpt lat="42.724" lon="1.42091">
        <ele>1720</ele>
        <time>2014-05-08T13:19:23Z</time>
      </trkpt>
      <trkpt lat="42.724" lon="1.4209">
        <ele>1720</ele>
        <time>2014-05-08T13:19:33Z</time>
      </trkpt>
      <trkpt lat="42.72401" lon="1.42089">
        <ele>1720</ele>
        <time>2014-05-08T13:19:43Z</time>
      </trkpt>
      <trkpt lat="42.72401" lon="1.42087">
        <ele>1720</ele>
        <time>2014-05-08T13:19:53Z</time>
      </trkpt>
      <trkpt lat="42.72402" lon="1.42086">
        <ele>1720</ele>
        <time>2014-05-08T13:20:03Z</time>
      </trkpt>
      <trkpt lat="42.72405" lon="1.42085">
        <ele>1720</ele>
        <time>2014-05-08T13:20:13Z</time>
      </trkpt>
      <trkpt lat="42.72408" lon="1.42085">
        <ele>1720</ele>
        <time>2014-05-08T13:20:23Z</time>
      </trkpt>
      <trkpt lat="42.72407" lon="1.42084">
        <ele>1720</ele>
        <time>2014-05-08T13:20:33Z</time>
      </trkpt>
      <trkpt lat="42.72404" lon="1.42087">
        <ele>1720</ele>
        <time>2014-05-08T13:20:43Z</time>
      </trkpt>
      <trkpt lat="42.72404" lon="1.42088">
        <ele>1720</ele>
        <time>2014-05-08T13:20:53Z</time>
      </trkpt>
      <trkpt lat="42.72404" lon="1.42089">
        <ele>1720</ele>
        <time>2014-05-08T13:21:03Z</time>
      </trkpt>
      <trkpt lat="42.72404" lon="1.42088">
        <ele>1720</ele>
        <time>2014-05-08T13:21:13Z</time>
      </trkpt>
      <trkpt lat="42.72405" lon="1.42088">
        <ele>1720</ele>
        <time>2014-05-08T13:21:23Z</time>
      </trkpt>
      <trkpt lat="42.72406" lon="1.42088">
        <ele>1720</ele>
        <time>2014-05-08T13:21:34Z</time>
      </trkpt>
      <trkpt lat="42.724" lon="1.42089">
        <ele>1720</ele>
        <time>2014-05-08T13:21:44Z</time>
      </trkpt>
      <trkpt lat="42.72401" lon="1.42091">
        <ele>1720</ele>
        <time>2014-05-08T13:21:54Z</time>
      </trkpt>
      <trkpt lat="42.72398" lon="1.42086">
        <ele>1720</ele>
        <time>2014-05-08T13:22:04Z</time>
      </trkpt>
      <trkpt lat="42.7239" lon="1.42074">
        <ele>1720</ele>
        <time>2014-05-08T13:22:14Z</time>
      </trkpt>
      <trkpt lat="42.72389" lon="1.42069">
        <ele>1720</ele>
        <time>2014-05-08T13:22:24Z</time>
      </trkpt>
      <trkpt lat="42.72393" lon="1.42086">
        <ele>1718</ele>
        <time>2014-05-08T13:22:34Z</time>
      </trkpt>
      <trkpt lat="42.72401" lon="1.4209">
        <ele>1718</ele>
        <time>2014-05-08T13:22:44Z</time>
      </trkpt>
      <trkpt lat="42.724" lon="1.42092">
        <ele>1718</ele>
        <time>2014-05-08T13:22:54Z</time>
      </trkpt>
      <trkpt lat="42.72399" lon="1.42092">
        <ele>1718</ele>
        <time>2014-05-08T13:23:04Z</time>
      </trkpt>
      <trkpt lat="42.72398" lon="1.42093">
        <ele>1718</ele>
        <time>2014-05-08T13:23:14Z</time>
      </trkpt>
      <trkpt lat="42.724" lon="1.42091">
        <ele>1718</ele>
        <time>2014-05-08T13:23:24Z</time>
      </trkpt>
      <trkpt lat="42.72401" lon="1.42088">
        <ele>1718</ele>
        <time>2014-05-08T13:23:35Z</time>
      </trkpt>
      <trkpt lat="42.72402" lon="1.42088">
        <ele>1718</ele>
        <time>2014-05-08T13:23:45Z</time>
      </trkpt>
      <trkpt lat="42.72402" lon="1.42088">
        <ele>1718</ele>
        <time>2014-05-08T13:23:55Z</time>
      </trkpt>
      <trkpt lat="42.72402" lon="1.42089">
        <ele>1718</ele>
        <time>2014-05-08T13:24:05Z</time>
      </trkpt>
      <trkpt lat="42.72402" lon="1.4209">
        <ele>1718</ele>
        <time>2014-05-08T13:24:15Z</time>
      </trkpt>
      <trkpt lat="42.72402" lon="1.42089">
        <ele>1718</ele>
        <time>2014-05-08T13:24:25Z</time>
      </trkpt>
      <trkpt lat="42.72402" lon="1.42088">
        <ele>1718</ele>
        <time>2014-05-08T13:24:35Z</time>
      </trkpt>
      <trkpt lat="42.72402" lon="1.42089">
        <ele>1718</ele>
        <time>2014-05-08T13:24:45Z</time>
      </trkpt>
      <trkpt lat="42.72403" lon="1.4209">
        <ele>1718</ele>
        <time>2014-05-08T13:24:55Z</time>
      </trkpt>
      <trkpt lat="42.72402" lon="1.4209">
        <ele>1718</ele>
        <time>2014-05-08T13:25:05Z</time>
      </trkpt>
      <trkpt lat="42.72402" lon="1.42093">
        <ele>1718</ele>
        <time>2014-05-08T13:25:15Z</time>
      </trkpt>
      <trkpt lat="42.72402" lon="1.42094">
        <ele>1718</ele>
        <time>2014-05-08T13:25:25Z</time>
      </trkpt>
      <trkpt lat="42.72402" lon="1.42093">
        <ele>1720</ele>
        <time>2014-05-08T13:25:35Z</time>
      </trkpt>
      <trkpt lat="42.72402" lon="1.42094">
        <ele>1720</ele>
        <time>2014-05-08T13:25:45Z</time>
      </trkpt>
      <trkpt lat="42.72402" lon="1.42092">
        <ele>1720</ele>
        <time>2014-05-08T13:25:55Z</time>
      </trkpt>
      <trkpt lat="42.72402" lon="1.42092">
        <ele>1720</ele>
        <time>2014-05-08T13:26:05Z</time>
      </trkpt>
      <trkpt lat="42.72402" lon="1.4209">
        <ele>1720</ele>
        <time>2014-05-08T13:26:15Z</time>
      </trkpt>
      <trkpt lat="42.72403" lon="1.42089">
        <ele>1720</ele>
        <time>2014-05-08T13:26:26Z</time>
      </trkpt>
      <trkpt lat="42.72402" lon="1.42091">
        <ele>1720</ele>
        <time>2014-05-08T13:26:36Z</time>
      </trkpt>
      <trkpt lat="42.72402" lon="1.42091">
        <ele>1720</ele>
        <time>2014-05-08T13:26:46Z</time>
      </trkpt>
      <trkpt lat="42.72403" lon="1.4209">
        <ele>1720</ele>
        <time>2014-05-08T13:26:56Z</time>
      </trkpt>
      <trkpt lat="42.72404" lon="1.4209">
        <ele>1720</ele>
        <time>2014-05-08T13:27:06Z</time>
      </trkpt>
      <trkpt lat="42.72403" lon="1.42089">
        <ele>1720</ele>
        <time>2014-05-08T13:27:16Z</time>
      </trkpt>
      <trkpt lat="42.72403" lon="1.4209">
        <ele>1720</ele>
        <time>2014-05-08T13:27:26Z</time>
      </trkpt>
      <trkpt lat="42.72403" lon="1.4209">
        <ele>1720</ele>
        <time>2014-05-08T13:27:36Z</time>
      </trkpt>
      <trkpt lat="42.72403" lon="1.4209">
        <ele>1720</ele>
        <time>2014-05-08T13:27:46Z</time>
      </trkpt>
      <trkpt lat="42.72402" lon="1.4209">
        <ele>1720</ele>
        <time>2014-05-08T13:27:56Z</time>
      </trkpt>
      <trkpt lat="42.72401" lon="1.42087">
        <ele>1720</ele>
        <time>2014-05-08T13:28:06Z</time>
      </trkpt>
      <trkpt lat="42.72402" lon="1.42088">
        <ele>1720</ele>
        <time>2014-05-08T13:28:16Z</time>
      </trkpt>
      <trkpt lat="42.72403" lon="1.42091">
        <ele>1720</ele>
        <time>2014-05-08T13:28:26Z</time>
      </trkpt>
      <trkpt lat="42.72402" lon="1.4209">
        <ele>1720</ele>
        <time>2014-05-08T13:28:36Z</time>
      </trkpt>
      <trkpt lat="42.724" lon="1.42089">
        <ele>1720</ele>
        <time>2014-05-08T13:28:46Z</time>
      </trkpt>
      <trkpt lat="42.72399" lon="1.42089">
        <ele>1720</ele>
        <time>2014-05-08T13:28:57Z</time>
      </trkpt>
      <trkpt lat="42.72394" lon="1.42087">
        <ele>1720</ele>
        <time>2014-05-08T13:29:07Z</time>
      </trkpt>
      <trkpt lat="42.72391" lon="1.42077">
        <ele>1720</ele>
        <time>2014-05-08T13:29:17Z</time>
      </trkpt>
      <trkpt lat="42.72388" lon="1.42067">
        <ele>1721</ele>
        <time>2014-05-08T13:29:27Z</time>
      </trkpt>
      <trkpt lat="42.7239" lon="1.42059">
        <ele>1721</ele>
        <time>2014-05-08T13:29:37Z</time>
      </trkpt>
      <trkpt lat="42.72392" lon="1.42051">
        <ele>1721</ele>
        <time>2014-05-08T13:29:47Z</time>
      </trkpt>
      <trkpt lat="42.72393" lon="1.42039">
        <ele>1721</ele>
        <time>2014-05-08T13:29:57Z</time>
      </trkpt>
      <trkpt lat="42.72396" lon="1.42033">
        <ele>1725</ele>
        <time>2014-05-08T13:30:07Z</time>
      </trkpt>
      <trkpt lat="42.72401" lon="1.42024">
        <ele>1725</ele>
        <time>2014-05-08T13:30:17Z</time>
      </trkpt>
      <trkpt lat="42.72407" lon="1.42021">
        <ele>1725</ele>
        <time>2014-05-08T13:30:27Z</time>
      </trkpt>
      <trkpt lat="42.72411" lon="1.42013">
        <ele>1729</ele>
        <time>2014-05-08T13:30:37Z</time>
      </trkpt>
      <trkpt lat="42.72414" lon="1.42006">
        <ele>1729</ele>
        <time>2014-05-08T13:30:48Z</time>
      </trkpt>
      <trkpt lat="42.72413" lon="1.42006">
        <ele>1729</ele>
        <time>2014-05-08T13:30:58Z</time>
      </trkpt>
      <trkpt lat="42.72417" lon="1.4201">
        <ele>1729</ele>
        <time>2014-05-08T13:31:08Z</time>
      </trkpt>
      <trkpt lat="42.72419" lon="1.42007">
        <ele>1729</ele>
        <time>2014-05-08T13:31:18Z</time>
      </trkpt>
      <trkpt lat="42.72416" lon="1.42005">
        <ele>1729</ele>
        <time>2014-05-08T13:31:28Z</time>
      </trkpt>
      <trkpt lat="42.72412" lon="1.42003">
        <ele>1729</ele>
        <time>2014-05-08T13:31:38Z</time>
      </trkpt>
      <trkpt lat="42.7241" lon="1.42003">
        <ele>1729</ele>
        <time>2014-05-08T13:31:48Z</time>
      </trkpt>
      <trkpt lat="42.72409" lon="1.42">
        <ele>1729</ele>
        <time>2014-05-08T13:31:58Z</time>
      </trkpt>
      <trkpt lat="42.72409" lon="1.41999">
        <ele>1729</ele>
        <time>2014-05-08T13:32:08Z</time>
      </trkpt>
      <trkpt lat="42.72407" lon="1.41998">
        <ele>1729</ele>
        <time>2014-05-08T13:32:18Z</time>
      </trkpt>
      <trkpt lat="42.72406" lon="1.41991">
        <ele>1729</ele>
        <time>2014-05-08T13:32:28Z</time>
      </trkpt>
      <trkpt lat="42.72406" lon="1.41982">
        <ele>1729</ele>
        <time>2014-05-08T13:32:38Z</time>
      </trkpt>
      <trkpt lat="42.72399" lon="1.41975">
        <ele>1729</ele>
        <time>2014-05-08T13:32:48Z</time>
      </trkpt>
      <trkpt lat="42.72389" lon="1.41972">
        <ele>1729</ele>
        <time>2014-05-08T13:32:58Z</time>
      </trkpt>
      <trkpt lat="42.72385" lon="1.41974">
        <ele>1729</ele>
        <time>2014-05-08T13:33:09Z</time>
      </trkpt>
      <trkpt lat="42.72379" lon="1.4197">
        <ele>1729</ele>
        <time>2014-05-08T13:33:19Z</time>
      </trkpt>
      <trkpt lat="42.72373" lon="1.41961">
        <ele>1729</ele>
        <time>2014-05-08T13:33:29Z</time>
      </trkpt>
      <trkpt lat="42.72366" lon="1.4196">
        <ele>1729</ele>
        <time>2014-05-08T13:33:39Z</time>
      </trkpt>
      <trkpt lat="42.72359" lon="1.41962">
        <ele>1728</ele>
        <time>2014-05-08T13:33:49Z</time>
      </trkpt>
      <trkpt lat="42.72353" lon="1.41965">
        <ele>1728</ele>
        <time>2014-05-08T13:33:59Z</time>
      </trkpt>
      <trkpt lat="42.72347" lon="1.41969">
        <ele>1728</ele>
        <time>2014-05-08T13:34:09Z</time>
      </trkpt>
      <trkpt lat="42.72341" lon="1.41973">
        <ele>1728</ele>
        <time>2014-05-08T13:34:19Z</time>
      </trkpt>
      <trkpt lat="42.72335" lon="1.41979">
        <ele>1728</ele>
        <time>2014-05-08T13:34:29Z</time>
      </trkpt>
      <trkpt lat="42.72331" lon="1.41981">
        <ele>1728</ele>
        <time>2014-05-08T13:34:39Z</time>
      </trkpt>
      <trkpt lat="42.7233" lon="1.41972">
        <ele>1735</ele>
        <time>2014-05-08T13:34:49Z</time>
      </trkpt>
      <trkpt lat="42.72329" lon="1.41971">
        <ele>1735</ele>
        <time>2014-05-08T13:34:59Z</time>
      </trkpt>
      <trkpt lat="42.72329" lon="1.41973">
        <ele>1735</ele>
        <time>2014-05-08T13:35:10Z</time>
      </trkpt>
      <trkpt lat="42.72329" lon="1.41975">
        <ele>1735</ele>
        <time>2014-05-08T13:35:20Z</time>
      </trkpt>
      <trkpt lat="42.72326" lon="1.41976">
        <ele>1735</ele>
        <time>2014-05-08T13:35:30Z</time>
      </trkpt>
      <trkpt lat="42.72323" lon="1.41976">
        <ele>1735</ele>
        <time>2014-05-08T13:35:40Z</time>
      </trkpt>
      <trkpt lat="42.72321" lon="1.41975">
        <ele>1740</ele>
        <time>2014-05-08T13:35:50Z</time>
      </trkpt>
    </trkseg>
  </trk>
</gpx>